﻿<?xml version="1.0" encoding="utf-8"?><gpx creator="Garmin Desktop App" version="1.1" xsi:schemaLocation="http://www.topografix.com/GPX/1/1 http://www.topografix.com/GPX/1/1/gpx.xsd http://www.garmin.com/xmlschemas/WaypointExtension/v1 http://www8.garmin.com/xmlschemas/WaypointExtensionv1.xsd http://www.garmin.com/xmlschemas/TrackPointExtension/v1 http://www.garmin.com/xmlschemas/TrackPointExtensionv1.xsd http://www.garmin.com/xmlschemas/GpxExtensions/v3 http://www8.garmin.com/xmlschemas/GpxExtensionsv3.xsd http://www.garmin.com/xmlschemas/ActivityExtension/v1 http://www8.garmin.com/xmlschemas/ActivityExtensionv1.xsd http://www.garmin.com/xmlschemas/AdventuresExtensions/v1 http://www8.garmin.com/xmlschemas/AdventuresExtensionv1.xsd http://www.garmin.com/xmlschemas/PressureExtension/v1 http://www.garmin.com/xmlschemas/PressureExtensionv1.xsd http://www.garmin.com/xmlschemas/TripExtensions/v1 http://www.garmin.com/xmlschemas/TripExtensionsv1.xsd http://www.garmin.com/xmlschemas/TripMetaDataExtensions/v1 http://www.garmin.com/xmlschemas/TripMetaDataExtensionsv1.xsd http://www.garmin.com/xmlschemas/ViaPointTransportationModeExtensions/v1 http://www.garmin.com/xmlschemas/ViaPointTransportationModeExtensionsv1.xsd http://www.garmin.com/xmlschemas/CreationTimeExtension/v1 http://www.garmin.com/xmlschemas/CreationTimeExtensionsv1.xsd http://www.garmin.com/xmlschemas/AccelerationExtension/v1 http://www.garmin.com/xmlschemas/AccelerationExtensionv1.xsd http://www.garmin.com/xmlschemas/PowerExtension/v1 http://www.garmin.com/xmlschemas/PowerExtensionv1.xsd http://www.garmin.com/xmlschemas/VideoExtension/v1 http://www.garmin.com/xmlschemas/VideoExtensionv1.xsd" xmlns="http://www.topografix.com/GPX/1/1" xmlns:xsi="http://www.w3.org/2001/XMLSchema-instance" xmlns:wptx1="http://www.garmin.com/xmlschemas/WaypointExtension/v1" xmlns:gpxtrx="http://www.garmin.com/xmlschemas/GpxExtensions/v3" xmlns:gpxtpx="http://www.garmin.com/xmlschemas/TrackPointExtension/v1" xmlns:gpxx="http://www.garmin.com/xmlschemas/GpxExtensions/v3" xmlns:trp="http://www.garmin.com/xmlschemas/TripExtensions/v1" xmlns:adv="http://www.garmin.com/xmlschemas/AdventuresExtensions/v1" xmlns:prs="http://www.garmin.com/xmlschemas/PressureExtension/v1" xmlns:tmd="http://www.garmin.com/xmlschemas/TripMetaDataExtensions/v1" xmlns:vptm="http://www.garmin.com/xmlschemas/ViaPointTransportationModeExtensions/v1" xmlns:ctx="http://www.garmin.com/xmlschemas/CreationTimeExtension/v1" xmlns:gpxacc="http://www.garmin.com/xmlschemas/AccelerationExtension/v1" xmlns:gpxpx="http://www.garmin.com/xmlschemas/PowerExtension/v1" xmlns:vidx1="http://www.garmin.com/xmlschemas/VideoExtension/v1">

  <metadata>
    <link href="http://www.garmin.com">
      <text>Garmin International</text>
    </link>
    <time>2018-10-29T18:12:18Z</time>
    <bounds maxlat="45.968991173431277" maxlon="8.833230016753078" minlat="45.949847996234894" minlon="8.811558019369841" />
  </metadata>

  <trk>
    <name>Monte pian della Nave Alpe Cognolo</name>
    <extensions>
      <gpxx:TrackExtension>
        <gpxx:DisplayColor>Red</gpxx:DisplayColor>
      </gpxx:TrackExtension>
    </extensions>
    <trkseg>
      <trkpt lat="45.951098995283246" lon="8.831192962825298">
        <ele>488.49000000000001</ele>
        <time>2012-12-21T14:08:53Z</time>
      </trkpt>
      <trkpt lat="45.951077034696937" lon="8.831210983917117">
        <ele>489.44999999999999</ele>
        <time>2012-12-21T14:08:50Z</time>
      </trkpt>
      <trkpt lat="45.95104199834168" lon="8.831214001402259">
        <ele>492.32999999999998</ele>
        <time>2012-12-21T14:08:39Z</time>
      </trkpt>
      <trkpt lat="45.951015008613467" lon="8.831094978377223">
        <ele>492.81</ele>
        <time>2012-12-21T14:08:28Z</time>
      </trkpt>
      <trkpt lat="45.950953988358378" lon="8.830942008644342">
        <ele>493.76999999999998</ele>
        <time>2012-12-21T14:08:20Z</time>
      </trkpt>
      <trkpt lat="45.950877964496613" lon="8.830789960920811">
        <ele>494.74000000000001</ele>
        <time>2012-12-21T14:08:10Z</time>
      </trkpt>
      <trkpt lat="45.9508509747684" lon="8.830754002556205">
        <ele>495.69999999999999</ele>
        <time>2012-12-21T14:08:06Z</time>
      </trkpt>
      <trkpt lat="45.950832031667233" lon="8.830709997564554">
        <ele>496.18000000000001</ele>
        <time>2012-12-21T14:08:02Z</time>
      </trkpt>
      <trkpt lat="45.950793977826834" lon="8.830470023676753">
        <ele>498.10000000000002</ele>
        <time>2012-12-21T14:07:50Z</time>
      </trkpt>
      <trkpt lat="45.950714014470577" lon="8.830161988735199">
        <ele>500.5</ele>
        <time>2012-12-21T14:07:36Z</time>
      </trkpt>
      <trkpt lat="45.95056900754571" lon="8.830145979300141">
        <ele>501.94999999999999</ele>
        <time>2012-12-21T14:07:29Z</time>
      </trkpt>
      <trkpt lat="45.950335990637541" lon="8.830103985965252">
        <ele>504.35000000000002</ele>
        <time>2012-12-21T14:07:13Z</time>
      </trkpt>
      <trkpt lat="45.950214033946395" lon="8.830080013722181">
        <ele>505.31</ele>
        <time>2012-12-21T14:07:02Z</time>
      </trkpt>
      <trkpt lat="45.950027033686638" lon="8.830029973760247">
        <ele>505.31</ele>
        <time>2012-12-21T14:06:47Z</time>
      </trkpt>
      <trkpt lat="45.950019992887974" lon="8.830025028437376">
        <ele>505.31</ele>
        <time>2012-12-21T14:06:46Z</time>
      </trkpt>
      <trkpt lat="45.949894012883306" lon="8.829975994303823">
        <ele>505.31</ele>
        <time>2012-12-21T14:06:32Z</time>
      </trkpt>
      <trkpt lat="45.949852019548416" lon="8.829903993755579">
        <ele>504.82999999999998</ele>
        <time>2012-12-21T14:06:26Z</time>
      </trkpt>
      <trkpt lat="45.949847996234894" lon="8.829805003479123">
        <ele>505.31</ele>
        <time>2012-12-21T14:06:22Z</time>
      </trkpt>
      <trkpt lat="45.949847996234894" lon="8.829793017357588">
        <ele>505.31</ele>
        <time>2012-12-21T14:06:18Z</time>
      </trkpt>
      <trkpt lat="45.949847996234894" lon="8.829645998775959">
        <ele>506.26999999999998</ele>
        <time>2012-12-21T14:06:04Z</time>
      </trkpt>
      <trkpt lat="45.949855959042907" lon="8.829628983512521">
        <ele>506.26999999999998</ele>
        <time>2012-12-21T14:06:03Z</time>
      </trkpt>
      <trkpt lat="45.949951009824872" lon="8.82936998270452">
        <ele>509.16000000000003</ele>
        <time>2012-12-21T14:05:48Z</time>
      </trkpt>
      <trkpt lat="45.949958972632885" lon="8.82934601046145">
        <ele>509.16000000000003</ele>
        <time>2012-12-21T14:05:46Z</time>
      </trkpt>
      <trkpt lat="45.950046982616186" lon="8.82904501631856">
        <ele>511.07999999999998</ele>
        <time>2012-12-21T14:05:31Z</time>
      </trkpt>
      <trkpt lat="45.950091993436217" lon="8.828691970556974">
        <ele>512.51999999999998</ele>
        <time>2012-12-21T14:05:17Z</time>
      </trkpt>
      <trkpt lat="45.950111020356417" lon="8.828633967787027">
        <ele>513.48000000000002</ele>
        <time>2012-12-21T14:05:14Z</time>
      </trkpt>
      <trkpt lat="45.95011898316443" lon="8.828445039689541">
        <ele>514.91999999999996</ele>
        <time>2012-12-21T14:05:03Z</time>
      </trkpt>
      <trkpt lat="45.95022602006793" lon="8.828235995024443">
        <ele>517.33000000000004</ele>
        <time>2012-12-21T14:04:51Z</time>
      </trkpt>
      <trkpt lat="45.950329033657908" lon="8.828051006421447">
        <ele>520.21000000000004</ele>
        <time>2012-12-21T14:04:39Z</time>
      </trkpt>
      <trkpt lat="45.950352000072598" lon="8.827979005873203">
        <ele>520.69000000000005</ele>
        <time>2012-12-21T14:04:34Z</time>
      </trkpt>
      <trkpt lat="45.950389970093966" lon="8.827903987839818">
        <ele>522.13</ele>
        <time>2012-12-21T14:04:29Z</time>
      </trkpt>
      <trkpt lat="45.950480997562408" lon="8.827711036428809">
        <ele>525.5</ele>
        <time>2012-12-21T14:04:18Z</time>
      </trkpt>
      <trkpt lat="45.950497006997466" lon="8.827599976211786">
        <ele>527.89999999999998</ele>
        <time>2012-12-21T14:04:12Z</time>
      </trkpt>
      <trkpt lat="45.950492983683944" lon="8.82758597843349">
        <ele>527.41999999999996</ele>
        <time>2012-12-21T14:04:11Z</time>
      </trkpt>
      <trkpt lat="45.950477980077267" lon="8.82743401452899">
        <ele>529.82000000000005</ele>
        <time>2012-12-21T14:03:54Z</time>
      </trkpt>
      <trkpt lat="45.950480997562408" lon="8.827301999554038">
        <ele>531.26999999999998</ele>
        <time>2012-12-21T14:03:47Z</time>
      </trkpt>
      <trkpt lat="45.950539000332355" lon="8.827055990695953">
        <ele>534.14999999999998</ele>
        <time>2012-12-21T14:03:33Z</time>
      </trkpt>
      <trkpt lat="45.950561966747046" lon="8.827081974595785">
        <ele>534.63</ele>
        <time>2012-12-21T14:03:31Z</time>
      </trkpt>
      <trkpt lat="45.950642013922334" lon="8.827377017587423">
        <ele>537.99000000000001</ele>
        <time>2012-12-21T14:03:16Z</time>
      </trkpt>
      <trkpt lat="45.95076397061348" lon="8.827685974538326">
        <ele>538.96000000000004</ele>
        <time>2012-12-21T14:02:59Z</time>
      </trkpt>
      <trkpt lat="45.950793977826834" lon="8.82780097424984">
        <ele>539.91999999999996</ele>
        <time>2012-12-21T14:02:53Z</time>
      </trkpt>
      <trkpt lat="45.950832031667233" lon="8.827852020040155">
        <ele>541.36000000000001</ele>
        <time>2012-12-21T14:02:48Z</time>
      </trkpt>
      <trkpt lat="45.950854998081923" lon="8.827842967584729">
        <ele>541.84000000000003</ele>
        <time>2012-12-21T14:02:46Z</time>
      </trkpt>
      <trkpt lat="45.950932027772069" lon="8.827784964814782">
        <ele>542.79999999999995</ele>
        <time>2012-12-21T14:02:39Z</time>
      </trkpt>
      <trkpt lat="45.950953988358378" lon="8.827772978693247">
        <ele>543.27999999999997</ele>
        <time>2012-12-21T14:02:36Z</time>
      </trkpt>
      <trkpt lat="45.950992964208126" lon="8.827732997015119">
        <ele>544.24000000000001</ele>
        <time>2012-12-21T14:02:20Z</time>
      </trkpt>
      <trkpt lat="45.951115004718304" lon="8.827640963718295">
        <ele>547.61000000000001</ele>
        <time>2012-12-21T14:02:08Z</time>
      </trkpt>
      <trkpt lat="45.951224975287914" lon="8.827570974826813">
        <ele>550.49000000000001</ele>
        <time>2012-12-21T14:01:59Z</time>
      </trkpt>
      <trkpt lat="45.951354978606105" lon="8.827482964843512">
        <ele>553.38</ele>
        <time>2012-12-21T14:01:48Z</time>
      </trkpt>
      <trkpt lat="45.951484981924295" lon="8.827378023415804">
        <ele>556.25999999999999</ele>
        <time>2012-12-21T14:01:34Z</time>
      </trkpt>
      <trkpt lat="45.951550025492907" lon="8.827304011210799">
        <ele>557.22000000000003</ele>
        <time>2012-12-21T14:01:29Z</time>
      </trkpt>
      <trkpt lat="45.951637029647827" lon="8.827233016490936">
        <ele>559.62</ele>
        <time>2012-12-21T14:01:21Z</time>
      </trkpt>
      <trkpt lat="45.951694026589394" lon="8.827194962650538">
        <ele>560.11000000000001</ele>
        <time>2012-12-21T14:01:17Z</time>
      </trkpt>
      <trkpt lat="45.951800979673862" lon="8.827101001515985">
        <ele>562.50999999999999</ele>
        <time>2012-12-21T14:01:07Z</time>
      </trkpt>
      <trkpt lat="45.951987979933619" lon="8.826953982934356">
        <ele>565.87</ele>
        <time>2012-12-21T14:00:54Z</time>
      </trkpt>
      <trkpt lat="45.952110020443797" lon="8.826822973787785">
        <ele>569.72000000000003</ele>
        <time>2012-12-21T14:00:43Z</time>
      </trkpt>
      <trkpt lat="45.952147990465164" lon="8.826787015423179">
        <ele>571.15999999999997</ele>
        <time>2012-12-21T14:00:40Z</time>
      </trkpt>
      <trkpt lat="45.952228959649801" lon="8.826731024309993">
        <ele>572.60000000000002</ele>
        <time>2012-12-21T14:00:35Z</time>
      </trkpt>
      <trkpt lat="45.952273970469832" lon="8.826743010431528">
        <ele>573.55999999999995</ele>
        <time>2012-12-21T14:00:32Z</time>
      </trkpt>
      <trkpt lat="45.952373966574669" lon="8.826709985733032">
        <ele>575.49000000000001</ele>
        <time>2012-12-21T14:00:24Z</time>
      </trkpt>
      <trkpt lat="45.952442027628422" lon="8.826709985733032">
        <ele>578.85000000000002</ele>
        <time>2012-12-21T14:00:15Z</time>
      </trkpt>
      <trkpt lat="45.95256800763309" lon="8.826731024309993">
        <ele>582.22000000000003</ele>
        <time>2012-12-21T14:00:05Z</time>
      </trkpt>
      <trkpt lat="45.952674960717559" lon="8.826735969632864">
        <ele>585.58000000000004</ele>
        <time>2012-12-21T13:59:56Z</time>
      </trkpt>
      <trkpt lat="45.952702034264803" lon="8.826738987118006">
        <ele>586.53999999999996</ele>
        <time>2012-12-21T13:59:54Z</time>
      </trkpt>
      <trkpt lat="45.952816028147936" lon="8.826745022088289">
        <ele>588.46000000000004</ele>
        <time>2012-12-21T13:59:46Z</time>
      </trkpt>
      <trkpt lat="45.952930022031069" lon="8.826807970181108">
        <ele>592.30999999999995</ele>
        <time>2012-12-21T13:59:35Z</time>
      </trkpt>
      <trkpt lat="45.952984001487494" lon="8.826838983222842">
        <ele>593.75</ele>
        <time>2012-12-21T13:59:30Z</time>
      </trkpt>
      <trkpt lat="45.95306396484375" lon="8.826880976557732">
        <ele>596.63999999999999</ele>
        <time>2012-12-21T13:59:22Z</time>
      </trkpt>
      <trkpt lat="45.953097995370626" lon="8.826894974336028">
        <ele>597.60000000000002</ele>
        <time>2012-12-21T13:59:19Z</time>
      </trkpt>
      <trkpt lat="45.953250965103507" lon="8.826835965737701">
        <ele>600.96000000000004</ele>
        <time>2012-12-21T13:59:09Z</time>
      </trkpt>
      <trkpt lat="45.953346015885472" lon="8.826762959361076">
        <ele>603.85000000000002</ele>
        <time>2012-12-21T13:59:01Z</time>
      </trkpt>
      <trkpt lat="45.953528992831707" lon="8.826615018770099">
        <ele>607.21000000000004</ele>
        <time>2012-12-21T13:58:48Z</time>
      </trkpt>
      <trkpt lat="45.953555982559919" lon="8.826594986021519">
        <ele>607.69000000000005</ele>
        <time>2012-12-21T13:58:46Z</time>
      </trkpt>
      <trkpt lat="45.953624965623021" lon="8.826549975201488">
        <ele>608.16999999999996</ele>
        <time>2012-12-21T13:58:36Z</time>
      </trkpt>
      <trkpt lat="45.953715993091464" lon="8.826503958553076">
        <ele>609.13</ele>
        <time>2012-12-21T13:58:32Z</time>
      </trkpt>
      <trkpt lat="45.953788999468088" lon="8.826438998803496">
        <ele>612.01999999999998</ele>
        <time>2012-12-21T13:58:28Z</time>
      </trkpt>
      <trkpt lat="45.953975999727845" lon="8.826278988271952">
        <ele>612.98000000000002</ele>
        <time>2012-12-21T13:58:17Z</time>
      </trkpt>
      <trkpt lat="45.954193007200956" lon="8.826118977740407">
        <ele>613.94000000000005</ele>
        <time>2012-12-21T13:58:06Z</time>
      </trkpt>
      <trkpt lat="45.954474974423647" lon="8.826200030744076">
        <ele>614.41999999999996</ele>
        <time>2012-12-21T13:57:53Z</time>
      </trkpt>
      <trkpt lat="45.954670021310449" lon="8.826279994100332">
        <ele>615.38</ele>
        <time>2012-12-21T13:57:40Z</time>
      </trkpt>
      <trkpt lat="45.954802958294749" lon="8.826385019347072">
        <ele>618.25999999999999</ele>
        <time>2012-12-21T13:57:29Z</time>
      </trkpt>
      <trkpt lat="45.954811004921794" lon="8.826390970498323">
        <ele>615.38</ele>
        <time>2012-12-21T13:57:28Z</time>
      </trkpt>
      <trkpt lat="45.954815028235316" lon="8.826394993811846">
        <ele>619.71000000000004</ele>
        <time>2012-12-21T13:57:27Z</time>
      </trkpt>
      <trkpt lat="45.954822991043329" lon="8.826399017125368">
        <ele>622.11000000000001</ele>
        <time>2012-12-21T13:57:26Z</time>
      </trkpt>
      <trkpt lat="45.954830031841993" lon="8.82640203461051">
        <ele>608.16999999999996</ele>
        <time>2012-12-21T13:57:25Z</time>
      </trkpt>
      <trkpt lat="45.95484503544867" lon="8.826407985761762">
        <ele>616.34000000000003</ele>
        <time>2012-12-21T13:57:19Z</time>
      </trkpt>
      <trkpt lat="45.95484503544867" lon="8.826407985761762">
        <ele>620.66999999999996</ele>
        <time>2012-12-21T13:57:16Z</time>
      </trkpt>
      <trkpt lat="45.95484503544867" lon="8.826407985761762">
        <ele>614.41999999999996</ele>
        <time>2012-12-21T13:57:15Z</time>
      </trkpt>
      <trkpt lat="45.95484503544867" lon="8.826407985761762">
        <ele>618.25999999999999</ele>
        <time>2012-12-21T13:57:14Z</time>
      </trkpt>
      <trkpt lat="45.954971015453339" lon="8.826460959389806">
        <ele>620.66999999999996</ele>
        <time>2012-12-21T13:57:02Z</time>
      </trkpt>
      <trkpt lat="45.954983001574874" lon="8.82646800018847">
        <ele>615.86000000000001</ele>
        <time>2012-12-21T13:57:01Z</time>
      </trkpt>
      <trkpt lat="45.955123985186219" lon="8.82649096660316">
        <ele>618.75</ele>
        <time>2012-12-21T13:56:49Z</time>
      </trkpt>
      <trkpt lat="45.955147035419941" lon="8.826494989916682">
        <ele>619.23000000000002</ele>
        <time>2012-12-21T13:56:41Z</time>
      </trkpt>
      <trkpt lat="45.955237979069352" lon="8.826444027945399">
        <ele>621.14999999999998</ele>
        <time>2012-12-21T13:56:28Z</time>
      </trkpt>
      <trkpt lat="45.955283995717764" lon="8.826345037668943">
        <ele>622.59000000000003</ele>
        <time>2012-12-21T13:56:24Z</time>
      </trkpt>
      <trkpt lat="45.95531802624464" lon="8.826231965795159">
        <ele>624.50999999999999</ele>
        <time>2012-12-21T13:56:19Z</time>
      </trkpt>
      <trkpt lat="45.955357002094388" lon="8.825998026877642">
        <ele>627.88</ele>
        <time>2012-12-21T13:56:12Z</time>
      </trkpt>
      <trkpt lat="45.955321965739131" lon="8.825908005237579">
        <ele>630.75999999999999</ele>
        <time>2012-12-21T13:56:08Z</time>
      </trkpt>
      <trkpt lat="45.955273015424609" lon="8.825809014961124">
        <ele>633.64999999999998</ele>
        <time>2012-12-21T13:56:03Z</time>
      </trkpt>
      <trkpt lat="45.955257005989552" lon="8.825735002756119">
        <ele>634.61000000000001</ele>
        <time>2012-12-21T13:56:01Z</time>
      </trkpt>
      <trkpt lat="45.95523102208972" lon="8.825681023299694">
        <ele>636.04999999999995</ele>
        <time>2012-12-21T13:55:59Z</time>
      </trkpt>
      <trkpt lat="45.955215012654662" lon="8.825621008872986">
        <ele>637.00999999999999</ele>
        <time>2012-12-21T13:55:57Z</time>
      </trkpt>
      <trkpt lat="45.955180982127786" lon="8.825466027483344">
        <ele>637.97000000000003</ele>
        <time>2012-12-21T13:55:52Z</time>
      </trkpt>
      <trkpt lat="45.955173019319773" lon="8.825459992513061">
        <ele>638.92999999999995</ele>
        <time>2012-12-21T13:55:49Z</time>
      </trkpt>
      <trkpt lat="45.955116022378206" lon="8.825408024713397">
        <ele>640.86000000000001</ele>
        <time>2012-12-21T13:55:45Z</time>
      </trkpt>
      <trkpt lat="45.95508199185133" lon="8.825325965881348">
        <ele>642.29999999999995</ele>
        <time>2012-12-21T13:55:41Z</time>
      </trkpt>
      <trkpt lat="45.955074029043317" lon="8.825154975056648">
        <ele>644.22000000000003</ele>
        <time>2012-12-21T13:55:37Z</time>
      </trkpt>
      <trkpt lat="45.955032035708427" lon="8.825030000880361">
        <ele>646.62</ele>
        <time>2012-12-21T13:55:30Z</time>
      </trkpt>
      <trkpt lat="45.954971015453339" lon="8.825022038072348">
        <ele>648.54999999999995</ele>
        <time>2012-12-21T13:55:27Z</time>
      </trkpt>
      <trkpt lat="45.954914018511772" lon="8.825018014758825">
        <ele>649.99000000000001</ele>
        <time>2012-12-21T13:55:24Z</time>
      </trkpt>
      <trkpt lat="45.954879987984896" lon="8.824971998110414">
        <ele>651.90999999999997</ele>
        <time>2012-12-21T13:55:21Z</time>
      </trkpt>
      <trkpt lat="45.954875964671373" lon="8.824928998947144">
        <ele>652.87</ele>
        <time>2012-12-21T13:55:19Z</time>
      </trkpt>
      <trkpt lat="45.954872025176883" lon="8.82489999756217">
        <ele>652.87</ele>
        <time>2012-12-21T13:55:18Z</time>
      </trkpt>
      <trkpt lat="45.954848974943161" lon="8.824764965102077">
        <ele>656.72000000000003</ele>
        <time>2012-12-21T13:55:13Z</time>
      </trkpt>
      <trkpt lat="45.954899014905095" lon="8.824658012017608">
        <ele>658.15999999999997</ele>
        <time>2012-12-21T13:55:09Z</time>
      </trkpt>
      <trkpt lat="45.954926004633307" lon="8.824656000360847">
        <ele>659.12</ele>
        <time>2012-12-21T13:55:08Z</time>
      </trkpt>
      <trkpt lat="45.955005967989564" lon="8.824594980105758">
        <ele>661.51999999999998</ele>
        <time>2012-12-21T13:55:03Z</time>
      </trkpt>
      <trkpt lat="45.955066988244653" lon="8.824500013142824">
        <ele>662.49000000000001</ele>
        <time>2012-12-21T13:54:57Z</time>
      </trkpt>
      <trkpt lat="45.955096995458007" lon="8.824418960139155">
        <ele>663.92999999999995</ele>
        <time>2012-12-21T13:54:54Z</time>
      </trkpt>
      <trkpt lat="45.955086015164852" lon="8.82436104118824">
        <ele>665.37</ele>
        <time>2012-12-21T13:54:50Z</time>
      </trkpt>
      <trkpt lat="45.955070005729795" lon="8.824260961264372">
        <ele>667.28999999999996</ele>
        <time>2012-12-21T13:54:46Z</time>
      </trkpt>
      <trkpt lat="45.955086015164852" lon="8.8241680059582">
        <ele>669.70000000000005</ele>
        <time>2012-12-21T13:54:41Z</time>
      </trkpt>
      <trkpt lat="45.955219035968184" lon="8.823986034840345">
        <ele>672.10000000000002</ele>
        <time>2012-12-21T13:54:31Z</time>
      </trkpt>
      <trkpt lat="45.955288019031286" lon="8.823958039283752">
        <ele>673.53999999999996</ele>
        <time>2012-12-21T13:54:28Z</time>
      </trkpt>
      <trkpt lat="45.955387009307742" lon="8.823988968506455">
        <ele>674.98000000000002</ele>
        <time>2012-12-21T13:54:23Z</time>
      </trkpt>
      <trkpt lat="45.955600999295712" lon="8.82403900846839">
        <ele>677.87</ele>
        <time>2012-12-21T13:54:13Z</time>
      </trkpt>
      <trkpt lat="45.955653972923756" lon="8.824030961841345">
        <ele>678.35000000000002</ele>
        <time>2012-12-21T13:54:10Z</time>
      </trkpt>
      <trkpt lat="45.955714993178844" lon="8.824034985154867">
        <ele>678.35000000000002</ele>
        <time>2012-12-21T13:54:06Z</time>
      </trkpt>
      <trkpt lat="45.956020010635257" lon="8.824017969891429">
        <ele>680.75</ele>
        <time>2012-12-21T13:53:51Z</time>
      </trkpt>
      <trkpt lat="45.95602797344327" lon="8.824016964063048">
        <ele>681.71000000000004</ele>
        <time>2012-12-21T13:53:32Z</time>
      </trkpt>
      <trkpt lat="45.956031996756792" lon="8.824016964063048">
        <ele>682.19000000000005</ele>
        <time>2012-12-21T13:53:11Z</time>
      </trkpt>
      <trkpt lat="45.956031996756792" lon="8.824016964063048">
        <ele>682.19000000000005</ele>
        <time>2012-12-21T13:52:46Z</time>
      </trkpt>
      <trkpt lat="45.956036020070314" lon="8.823983017355204">
        <ele>682.19000000000005</ele>
        <time>2012-12-21T13:52:30Z</time>
      </trkpt>
      <trkpt lat="45.956066027283669" lon="8.823915040120482">
        <ele>683.63</ele>
        <time>2012-12-21T13:52:18Z</time>
      </trkpt>
      <trkpt lat="45.956120006740093" lon="8.823872962966561">
        <ele>684.60000000000002</ele>
        <time>2012-12-21T13:52:11Z</time>
      </trkpt>
      <trkpt lat="45.956187983974814" lon="8.823784030973911">
        <ele>686.03999999999996</ele>
        <time>2012-12-21T13:52:03Z</time>
      </trkpt>
      <trkpt lat="45.956271970644593" lon="8.823535004630685">
        <ele>689.39999999999998</ele>
        <time>2012-12-21T13:51:50Z</time>
      </trkpt>
      <trkpt lat="45.956298960372806" lon="8.823465015739203">
        <ele>690.36000000000001</ele>
        <time>2012-12-21T13:51:45Z</time>
      </trkpt>
      <trkpt lat="45.956332990899682" lon="8.823368037119508">
        <ele>693.25</ele>
        <time>2012-12-21T13:51:36Z</time>
      </trkpt>
      <trkpt lat="45.956370960921049" lon="8.823236022144556">
        <ele>696.61000000000001</ele>
        <time>2012-12-21T13:51:26Z</time>
      </trkpt>
      <trkpt lat="45.956379007548094" lon="8.823183970525861">
        <ele>699.98000000000002</ele>
        <time>2012-12-21T13:51:14Z</time>
      </trkpt>
      <trkpt lat="45.956344977021217" lon="8.823104007169604">
        <ele>700.94000000000005</ele>
        <time>2012-12-21T13:51:00Z</time>
      </trkpt>
      <trkpt lat="45.956398034468293" lon="8.822934022173286">
        <ele>704.77999999999997</ele>
        <time>2012-12-21T13:50:48Z</time>
      </trkpt>
      <trkpt lat="45.956493001431227" lon="8.822767976671457">
        <ele>708.14999999999998</ele>
        <time>2012-12-21T13:50:35Z</time>
      </trkpt>
      <trkpt lat="45.956528037786484" lon="8.822721960023046">
        <ele>710.07000000000005</ele>
        <time>2012-12-21T13:50:22Z</time>
      </trkpt>
      <trkpt lat="45.956581011414528" lon="8.822662029415369">
        <ele>712.47000000000003</ele>
        <time>2012-12-21T13:50:03Z</time>
      </trkpt>
      <trkpt lat="45.95658503472805" lon="8.82266697473824">
        <ele>713.44000000000005</ele>
        <time>2012-12-21T13:49:47Z</time>
      </trkpt>
      <trkpt lat="45.956669021397829" lon="8.822583993896842">
        <ele>716.32000000000005</ele>
        <time>2012-12-21T13:49:31Z</time>
      </trkpt>
      <trkpt lat="45.956699028611183" lon="8.822568990290165">
        <ele>718.72000000000003</ele>
        <time>2012-12-21T13:49:27Z</time>
      </trkpt>
      <trkpt lat="45.956753008067608" lon="8.822506964206696">
        <ele>718.72000000000003</ele>
        <time>2012-12-21T13:49:22Z</time>
      </trkpt>
      <trkpt lat="45.95679902471602" lon="8.822461031377316">
        <ele>720.15999999999997</ele>
        <time>2012-12-21T13:49:17Z</time>
      </trkpt>
      <trkpt lat="45.956832971423864" lon="8.822366986423731">
        <ele>720.64999999999998</ele>
        <time>2012-12-21T13:49:11Z</time>
      </trkpt>
      <trkpt lat="45.956856021657586" lon="8.822347959503532">
        <ele>724.49000000000001</ele>
        <time>2012-12-21T13:49:09Z</time>
      </trkpt>
      <trkpt lat="45.956856021657586" lon="8.822336979210377">
        <ele>721.13</ele>
        <time>2012-12-21T13:49:03Z</time>
      </trkpt>
      <trkpt lat="45.956862978637218" lon="8.822217034175992">
        <ele>721.61000000000001</ele>
        <time>2012-12-21T13:48:44Z</time>
      </trkpt>
      <trkpt lat="45.956889968365431" lon="8.822148973122239">
        <ele>724.97000000000003</ele>
        <time>2012-12-21T13:48:33Z</time>
      </trkpt>
      <trkpt lat="45.956898014992476" lon="8.822015030309558">
        <ele>727.86000000000001</ele>
        <time>2012-12-21T13:48:22Z</time>
      </trkpt>
      <trkpt lat="45.956985019147396" lon="8.821876980364323">
        <ele>730.74000000000001</ele>
        <time>2012-12-21T13:48:11Z</time>
      </trkpt>
      <trkpt lat="45.957065988332033" lon="8.821769021451473">
        <ele>731.70000000000005</ele>
        <time>2012-12-21T13:48:02Z</time>
      </trkpt>
      <trkpt lat="45.957118961960077" lon="8.821712024509907">
        <ele>733.62</ele>
        <time>2012-12-21T13:47:55Z</time>
      </trkpt>
      <trkpt lat="45.957133965566754" lon="8.821646980941296">
        <ele>734.58000000000004</ele>
        <time>2012-12-21T13:47:51Z</time>
      </trkpt>
      <trkpt lat="45.957133965566754" lon="8.821646980941296">
        <ele>735.07000000000005</ele>
        <time>2012-12-21T13:47:50Z</time>
      </trkpt>
      <trkpt lat="45.957172019407153" lon="8.821602975949645">
        <ele>737.47000000000003</ele>
        <time>2012-12-21T13:47:38Z</time>
      </trkpt>
      <trkpt lat="45.957248965278268" lon="8.821484036743641">
        <ele>740.35000000000002</ele>
        <time>2012-12-21T13:47:28Z</time>
      </trkpt>
      <trkpt lat="45.95725298859179" lon="8.821473978459835">
        <ele>740.35000000000002</ele>
        <time>2012-12-21T13:47:27Z</time>
      </trkpt>
      <trkpt lat="45.957320965826511" lon="8.821341963484883">
        <ele>743.24000000000001</ele>
        <time>2012-12-21T13:47:16Z</time>
      </trkpt>
      <trkpt lat="45.957344016060233" lon="8.821168038994074">
        <ele>746.12</ele>
        <time>2012-12-21T13:47:06Z</time>
      </trkpt>
      <trkpt lat="45.957371005788445" lon="8.82109897211194">
        <ele>749</ele>
        <time>2012-12-21T13:46:54Z</time>
      </trkpt>
      <trkpt lat="45.95735901966691" lon="8.821057984605432">
        <ele>749.97000000000003</ele>
        <time>2012-12-21T13:46:51Z</time>
      </trkpt>
      <trkpt lat="45.957362959161401" lon="8.821034012362361">
        <ele>750.92999999999995</ele>
        <time>2012-12-21T13:46:49Z</time>
      </trkpt>
      <trkpt lat="45.957417022436857" lon="8.820957988500595">
        <ele>754.28999999999996</ele>
        <time>2012-12-21T13:46:39Z</time>
      </trkpt>
      <trkpt lat="45.957447029650211" lon="8.820936027914286">
        <ele>756.69000000000005</ele>
        <time>2012-12-21T13:46:34Z</time>
      </trkpt>
      <trkpt lat="45.957546019926667" lon="8.820927981287241">
        <ele>757.65999999999997</ele>
        <time>2012-12-21T13:46:21Z</time>
      </trkpt>
      <trkpt lat="45.957546019926667" lon="8.820913983508945">
        <ele>757.65999999999997</ele>
        <time>2012-12-21T13:46:20Z</time>
      </trkpt>
      <trkpt lat="45.957526993006468" lon="8.820829996839166">
        <ele>760.05999999999995</ele>
        <time>2012-12-21T13:46:15Z</time>
      </trkpt>
      <trkpt lat="45.95753101631999" lon="8.820782974362373">
        <ele>761.98000000000002</ele>
        <time>2012-12-21T13:46:09Z</time>
      </trkpt>
      <trkpt lat="45.957538979128003" lon="8.820564039051533">
        <ele>765.35000000000002</ele>
        <time>2012-12-21T13:45:58Z</time>
      </trkpt>
      <trkpt lat="45.957516012713313" lon="8.820521961897612">
        <ele>765.83000000000004</ele>
        <time>2012-12-21T13:45:56Z</time>
      </trkpt>
      <trkpt lat="45.957558006048203" lon="8.820444010198116">
        <ele>768.23000000000002</ele>
        <time>2012-12-21T13:45:46Z</time>
      </trkpt>
      <trkpt lat="45.957634029909968" lon="8.820401011034846">
        <ele>771.11000000000001</ele>
        <time>2012-12-21T13:45:35Z</time>
      </trkpt>
      <trkpt lat="45.957748023793101" lon="8.820353988558054">
        <ele>773.51999999999998</ele>
        <time>2012-12-21T13:45:24Z</time>
      </trkpt>
      <trkpt lat="45.95785103738308" lon="8.820415008813143">
        <ele>775.91999999999996</ele>
        <time>2012-12-21T13:45:13Z</time>
      </trkpt>
      <trkpt lat="45.957909040153027" lon="8.820463959127665">
        <ele>778.32000000000005</ele>
        <time>2012-12-21T13:45:01Z</time>
      </trkpt>
      <trkpt lat="45.957938963547349" lon="8.820482986047864">
        <ele>779.28999999999996</ele>
        <time>2012-12-21T13:44:58Z</time>
      </trkpt>
      <trkpt lat="45.957995960488915" lon="8.820502012968063">
        <ele>782.64999999999998</ele>
        <time>2012-12-21T13:44:48Z</time>
      </trkpt>
      <trkpt lat="45.958110960200429" lon="8.820545012131333">
        <ele>784.57000000000005</ele>
        <time>2012-12-21T13:44:37Z</time>
      </trkpt>
      <trkpt lat="45.958122024312615" lon="8.820550041273236">
        <ele>784.57000000000005</ele>
        <time>2012-12-21T13:44:36Z</time>
      </trkpt>
      <trkpt lat="45.958179021254182" lon="8.820567978546023">
        <ele>786.5</ele>
        <time>2012-12-21T13:44:28Z</time>
      </trkpt>
      <trkpt lat="45.958179021254182" lon="8.820567978546023">
        <ele>790.82000000000005</ele>
        <time>2012-12-21T13:44:27Z</time>
      </trkpt>
      <trkpt lat="45.958179021254182" lon="8.820567978546023">
        <ele>782.64999999999998</ele>
        <time>2012-12-21T13:44:26Z</time>
      </trkpt>
      <trkpt lat="45.958210034295917" lon="8.82053998298943">
        <ele>787.46000000000004</ele>
        <time>2012-12-21T13:44:14Z</time>
      </trkpt>
      <trkpt lat="45.958210034295917" lon="8.82053998298943">
        <ele>790.34000000000003</ele>
        <time>2012-12-21T13:44:11Z</time>
      </trkpt>
      <trkpt lat="45.958210034295917" lon="8.82053998298943">
        <ele>786.01999999999998</ele>
        <time>2012-12-21T13:44:10Z</time>
      </trkpt>
      <trkpt lat="45.958210034295917" lon="8.82053998298943">
        <ele>790.34000000000003</ele>
        <time>2012-12-21T13:44:07Z</time>
      </trkpt>
      <trkpt lat="45.958210034295917" lon="8.82053998298943">
        <ele>787.46000000000004</ele>
        <time>2012-12-21T13:44:06Z</time>
      </trkpt>
      <trkpt lat="45.958210034295917" lon="8.82053998298943">
        <ele>786.01999999999998</ele>
        <time>2012-12-21T13:44:02Z</time>
      </trkpt>
      <trkpt lat="45.958210034295917" lon="8.82053998298943">
        <ele>789.38</ele>
        <time>2012-12-21T13:43:55Z</time>
      </trkpt>
      <trkpt lat="45.958210034295917" lon="8.82053998298943">
        <ele>786.01999999999998</ele>
        <time>2012-12-21T13:43:51Z</time>
      </trkpt>
      <trkpt lat="45.958221014589071" lon="8.820543000474572">
        <ele>789.38</ele>
        <time>2012-12-21T13:43:43Z</time>
      </trkpt>
      <trkpt lat="45.958263007923961" lon="8.820553980767727">
        <ele>789.38</ele>
        <time>2012-12-21T13:43:24Z</time>
      </trkpt>
      <trkpt lat="45.958343977108598" lon="8.8205829821527">
        <ele>791.29999999999995</ele>
        <time>2012-12-21T13:43:11Z</time>
      </trkpt>
      <trkpt lat="45.95836996100843" lon="8.820604020729661">
        <ele>792.25999999999999</ele>
        <time>2012-12-21T13:43:08Z</time>
      </trkpt>
      <trkpt lat="45.958466017618775" lon="8.820716002956033">
        <ele>795.14999999999998</ele>
        <time>2012-12-21T13:42:56Z</time>
      </trkpt>
      <trkpt lat="45.958527037873864" lon="8.820755984634161">
        <ele>797.54999999999995</ele>
        <time>2012-12-21T13:42:47Z</time>
      </trkpt>
      <trkpt lat="45.958622004836798" lon="8.820832008495927">
        <ele>800.44000000000005</ele>
        <time>2012-12-21T13:42:37Z</time>
      </trkpt>
      <trkpt lat="45.958617981523275" lon="8.820862015709281">
        <ele>803.32000000000005</ele>
        <time>2012-12-21T13:42:24Z</time>
      </trkpt>
      <trkpt lat="45.958602977916598" lon="8.820901997387409">
        <ele>803.32000000000005</ele>
        <time>2012-12-21T13:42:09Z</time>
      </trkpt>
      <trkpt lat="45.958637008443475" lon="8.820955976843834">
        <ele>806.67999999999995</ele>
        <time>2012-12-21T13:41:58Z</time>
      </trkpt>
      <trkpt lat="45.958656035363674" lon="8.820996964350343">
        <ele>810.04999999999995</ele>
        <time>2012-12-21T13:41:49Z</time>
      </trkpt>
      <trkpt lat="45.958663998171687" lon="8.821037029847503">
        <ele>811.00999999999999</ele>
        <time>2012-12-21T13:41:46Z</time>
      </trkpt>
      <trkpt lat="45.958668021485209" lon="8.821056978777051">
        <ele>811.49000000000001</ele>
        <time>2012-12-21T13:41:44Z</time>
      </trkpt>
      <trkpt lat="45.958747984841466" lon="8.821114981546998">
        <ele>814.85000000000002</ele>
        <time>2012-12-21T13:41:31Z</time>
      </trkpt>
      <trkpt lat="45.958794001489878" lon="8.821199974045157">
        <ele>817.25999999999999</ele>
        <time>2012-12-21T13:41:20Z</time>
      </trkpt>
      <trkpt lat="45.958843035623431" lon="8.821214977651835">
        <ele>819.17999999999995</ele>
        <time>2012-12-21T13:41:15Z</time>
      </trkpt>
      <trkpt lat="45.958866002038121" lon="8.821214977651835">
        <ele>820.13999999999999</ele>
        <time>2012-12-21T13:41:12Z</time>
      </trkpt>
      <trkpt lat="45.958877988159657" lon="8.821217995136976">
        <ele>820.13999999999999</ele>
        <time>2012-12-21T13:41:08Z</time>
      </trkpt>
      <trkpt lat="45.958846975117922" lon="8.821228975430131">
        <ele>819.65999999999997</ele>
        <time>2012-12-21T13:38:31Z</time>
      </trkpt>
      <trkpt lat="45.958846975117922" lon="8.821228975430131">
        <ele>819.65999999999997</ele>
        <time>2012-12-21T13:38:12Z</time>
      </trkpt>
      <trkpt lat="45.958855021744967" lon="8.821221012622118">
        <ele>819.65999999999997</ele>
        <time>2012-12-21T13:37:55Z</time>
      </trkpt>
      <trkpt lat="45.958855021744967" lon="8.82122403010726">
        <ele>819.65999999999997</ele>
        <time>2012-12-21T13:37:28Z</time>
      </trkpt>
      <trkpt lat="45.958858039230108" lon="8.82122696377337">
        <ele>819.65999999999997</ele>
        <time>2012-12-21T13:37:13Z</time>
      </trkpt>
      <trkpt lat="45.958861978724599" lon="8.821226041764021">
        <ele>819.65999999999997</ele>
        <time>2012-12-21T13:36:47Z</time>
      </trkpt>
      <trkpt lat="45.958877988159657" lon="8.821245990693569">
        <ele>819.17999999999995</ele>
        <time>2012-12-21T13:35:14Z</time>
      </trkpt>
      <trkpt lat="45.958877988159657" lon="8.82124699652195">
        <ele>818.70000000000005</ele>
        <time>2012-12-21T13:34:26Z</time>
      </trkpt>
      <trkpt lat="45.958877988159657" lon="8.82124699652195">
        <ele>818.70000000000005</ele>
        <time>2012-12-21T13:34:00Z</time>
      </trkpt>
      <trkpt lat="45.958885028958321" lon="8.821243979036808">
        <ele>818.70000000000005</ele>
        <time>2012-12-21T13:33:34Z</time>
      </trkpt>
      <trkpt lat="45.958881005644798" lon="8.821241967380047">
        <ele>818.70000000000005</ele>
        <time>2012-12-21T13:32:13Z</time>
      </trkpt>
      <trkpt lat="45.958881005644798" lon="8.821241967380047">
        <ele>818.70000000000005</ele>
        <time>2012-12-21T13:31:52Z</time>
      </trkpt>
      <trkpt lat="45.958885028958321" lon="8.821236016228795">
        <ele>818.70000000000005</ele>
        <time>2012-12-21T13:31:32Z</time>
      </trkpt>
      <trkpt lat="45.958885028958321" lon="8.821234004572034">
        <ele>818.70000000000005</ele>
        <time>2012-12-21T13:31:09Z</time>
      </trkpt>
      <trkpt lat="45.958885028958321" lon="8.82122796960175">
        <ele>818.70000000000005</ele>
        <time>2012-12-21T13:30:40Z</time>
      </trkpt>
      <trkpt lat="45.958885028958321" lon="8.82122796960175">
        <ele>818.70000000000005</ele>
        <time>2012-12-21T13:30:14Z</time>
      </trkpt>
      <trkpt lat="45.958888968452811" lon="8.821219000965357">
        <ele>818.22000000000003</ele>
        <time>2012-12-21T13:29:53Z</time>
      </trkpt>
      <trkpt lat="45.958888968452811" lon="8.821210032328963">
        <ele>818.70000000000005</ele>
        <time>2012-12-21T13:29:35Z</time>
      </trkpt>
      <trkpt lat="45.958888968452811" lon="8.821210032328963">
        <ele>818.70000000000005</ele>
        <time>2012-12-21T13:29:14Z</time>
      </trkpt>
      <trkpt lat="45.958885028958321" lon="8.821210032328963">
        <ele>818.70000000000005</ele>
        <time>2012-12-21T13:28:55Z</time>
      </trkpt>
      <trkpt lat="45.958885028958321" lon="8.821210032328963">
        <ele>819.17999999999995</ele>
        <time>2012-12-21T13:28:36Z</time>
      </trkpt>
      <trkpt lat="45.958885028958321" lon="8.821209026500583">
        <ele>819.17999999999995</ele>
        <time>2012-12-21T13:28:07Z</time>
      </trkpt>
      <trkpt lat="45.958885028958321" lon="8.821209026500583">
        <ele>819.17999999999995</ele>
        <time>2012-12-21T13:27:41Z</time>
      </trkpt>
      <trkpt lat="45.958885028958321" lon="8.821208020672202">
        <ele>819.17999999999995</ele>
        <time>2012-12-21T13:27:16Z</time>
      </trkpt>
      <trkpt lat="45.958881005644798" lon="8.821199974045157">
        <ele>819.17999999999995</ele>
        <time>2012-12-21T13:26:51Z</time>
      </trkpt>
      <trkpt lat="45.958881005644798" lon="8.821199974045157">
        <ele>819.17999999999995</ele>
        <time>2012-12-21T13:26:30Z</time>
      </trkpt>
      <trkpt lat="45.958892991766334" lon="8.821197040379047">
        <ele>819.17999999999995</ele>
        <time>2012-12-21T13:26:12Z</time>
      </trkpt>
      <trkpt lat="45.958885028958321" lon="8.821201985701919">
        <ele>819.65999999999997</ele>
        <time>2012-12-21T13:25:57Z</time>
      </trkpt>
      <trkpt lat="45.958877988159657" lon="8.821195028722286">
        <ele>819.17999999999995</ele>
        <time>2012-12-21T13:25:50Z</time>
      </trkpt>
      <trkpt lat="45.958912018686533" lon="8.821039963513613">
        <ele>819.65999999999997</ele>
        <time>2012-12-21T13:25:37Z</time>
      </trkpt>
      <trkpt lat="45.958915958181024" lon="8.820981038734317">
        <ele>819.65999999999997</ele>
        <time>2012-12-21T13:25:34Z</time>
      </trkpt>
      <trkpt lat="45.958912018686533" lon="8.820932004600763">
        <ele>819.17999999999995</ele>
        <time>2012-12-21T13:25:31Z</time>
      </trkpt>
      <trkpt lat="45.958881005644798" lon="8.820755984634161">
        <ele>819.17999999999995</ele>
        <time>2012-12-21T13:25:18Z</time>
      </trkpt>
      <trkpt lat="45.958861978724599" lon="8.820700999349356">
        <ele>819.17999999999995</ele>
        <time>2012-12-21T13:25:14Z</time>
      </trkpt>
      <trkpt lat="45.958839012309909" lon="8.820506958290935">
        <ele>820.62</ele>
        <time>2012-12-21T13:25:01Z</time>
      </trkpt>
      <trkpt lat="45.958782015368342" lon="8.8203239813447">
        <ele>820.62</ele>
        <time>2012-12-21T13:24:49Z</time>
      </trkpt>
      <trkpt lat="45.958725018426776" lon="8.820263966917992">
        <ele>819.65999999999997</ele>
        <time>2012-12-21T13:24:34Z</time>
      </trkpt>
      <trkpt lat="45.958587974309921" lon="8.820077972486615">
        <ele>817.74000000000001</ele>
        <time>2012-12-21T13:24:20Z</time>
      </trkpt>
      <trkpt lat="45.958514967933297" lon="8.820004966109991">
        <ele>816.77999999999997</ele>
        <time>2012-12-21T13:24:14Z</time>
      </trkpt>
      <trkpt lat="45.958331990987062" lon="8.819911004975438">
        <ele>815.82000000000005</ele>
        <time>2012-12-21T13:24:00Z</time>
      </trkpt>
      <trkpt lat="45.958324028179049" lon="8.819901030510664">
        <ele>815.82000000000005</ele>
        <time>2012-12-21T13:23:58Z</time>
      </trkpt>
      <trkpt lat="45.958201987668872" lon="8.819675976410508">
        <ele>815.82000000000005</ele>
        <time>2012-12-21T13:23:47Z</time>
      </trkpt>
      <trkpt lat="45.958065027371049" lon="8.819552008062601">
        <ele>816.29999999999995</ele>
        <time>2012-12-21T13:23:35Z</time>
      </trkpt>
      <trkpt lat="45.957966037094593" lon="8.819324020296335">
        <ele>816.29999999999995</ele>
        <time>2012-12-21T13:23:20Z</time>
      </trkpt>
      <trkpt lat="45.957863023504615" lon="8.819197034463286">
        <ele>816.77999999999997</ele>
        <time>2012-12-21T13:23:06Z</time>
      </trkpt>
      <trkpt lat="45.95783201046288" lon="8.819167027249932">
        <ele>816.77999999999997</ele>
        <time>2012-12-21T13:22:51Z</time>
      </trkpt>
      <trkpt lat="45.95783201046288" lon="8.819167027249932">
        <ele>817.25999999999999</ele>
        <time>2012-12-21T13:22:34Z</time>
      </trkpt>
      <trkpt lat="45.957770990207791" lon="8.818803001195192">
        <ele>817.74000000000001</ele>
        <time>2012-12-21T13:22:23Z</time>
      </trkpt>
      <trkpt lat="45.957748023793101" lon="8.818721026182175">
        <ele>817.74000000000001</ele>
        <time>2012-12-21T13:22:20Z</time>
      </trkpt>
      <trkpt lat="45.957733020186424" lon="8.818681966513395">
        <ele>818.22000000000003</ele>
        <time>2012-12-21T13:22:17Z</time>
      </trkpt>
      <trkpt lat="45.957622965797782" lon="8.818391030654311">
        <ele>819.17999999999995</ele>
        <time>2012-12-21T13:22:05Z</time>
      </trkpt>
      <trkpt lat="45.957549959421158" lon="8.818257004022598">
        <ele>819.17999999999995</ele>
        <time>2012-12-21T13:21:58Z</time>
      </trkpt>
      <trkpt lat="45.957507966086268" lon="8.818194977939129">
        <ele>819.65999999999997</ele>
        <time>2012-12-21T13:21:55Z</time>
      </trkpt>
      <trkpt lat="45.957496985793114" lon="8.818177962675691">
        <ele>819.65999999999997</ele>
        <time>2012-12-21T13:21:54Z</time>
      </trkpt>
      <trkpt lat="45.957412999123335" lon="8.818105040118098">
        <ele>819.65999999999997</ele>
        <time>2012-12-21T13:21:39Z</time>
      </trkpt>
      <trkpt lat="45.957412999123335" lon="8.818105040118098">
        <ele>820.13999999999999</ele>
        <time>2012-12-21T13:21:25Z</time>
      </trkpt>
      <trkpt lat="45.957329012453556" lon="8.817982999607921">
        <ele>820.62</ele>
        <time>2012-12-21T13:21:15Z</time>
      </trkpt>
      <trkpt lat="45.957324989140034" lon="8.817975036799908">
        <ele>820.62</ele>
        <time>2012-12-21T13:21:09Z</time>
      </trkpt>
      <trkpt lat="45.957248965278268" lon="8.817844027653337">
        <ele>821.58000000000004</ele>
        <time>2012-12-21T13:20:55Z</time>
      </trkpt>
      <trkpt lat="45.957233039662242" lon="8.81766096688807">
        <ele>821.58000000000004</ele>
        <time>2012-12-21T13:20:48Z</time>
      </trkpt>
      <trkpt lat="45.957169001922011" lon="8.817427027970552">
        <ele>821.10000000000002</ele>
        <time>2012-12-21T13:20:37Z</time>
      </trkpt>
      <trkpt lat="45.957065988332033" lon="8.817201973870397">
        <ele>820.13999999999999</ele>
        <time>2012-12-21T13:20:21Z</time>
      </trkpt>
      <trkpt lat="45.956962974742055" lon="8.816931992769241">
        <ele>820.13999999999999</ele>
        <time>2012-12-21T13:20:05Z</time>
      </trkpt>
      <trkpt lat="45.956923998892307" lon="8.81688597612083">
        <ele>820.62</ele>
        <time>2012-12-21T13:20:00Z</time>
      </trkpt>
      <trkpt lat="45.956913018599153" lon="8.816825961694121">
        <ele>821.10000000000002</ele>
        <time>2012-12-21T13:19:56Z</time>
      </trkpt>
      <trkpt lat="45.956851998344064" lon="8.816517004743218">
        <ele>821.58000000000004</ele>
        <time>2012-12-21T13:19:43Z</time>
      </trkpt>
      <trkpt lat="45.956836994737387" lon="8.816331010311842">
        <ele>821.58000000000004</ele>
        <time>2012-12-21T13:19:30Z</time>
      </trkpt>
      <trkpt lat="45.956867001950741" lon="8.816167982295156">
        <ele>822.05999999999995</ele>
        <time>2012-12-21T13:19:20Z</time>
      </trkpt>
      <trkpt lat="45.956871025264263" lon="8.816035967320204">
        <ele>822.54999999999995</ele>
        <time>2012-12-21T13:19:07Z</time>
      </trkpt>
      <trkpt lat="45.95688602887094" lon="8.815904036164284">
        <ele>822.54999999999995</ele>
        <time>2012-12-21T13:19:02Z</time>
      </trkpt>
      <trkpt lat="45.956889968365431" lon="8.81583203561604">
        <ele>822.54999999999995</ele>
        <time>2012-12-21T13:18:58Z</time>
      </trkpt>
      <trkpt lat="45.956898014992476" lon="8.815781995654106">
        <ele>822.54999999999995</ele>
        <time>2012-12-21T13:18:55Z</time>
      </trkpt>
      <trkpt lat="45.956944031640887" lon="8.815731033682823">
        <ele>823.02999999999997</ele>
        <time>2012-12-21T13:18:52Z</time>
      </trkpt>
      <trkpt lat="45.956985019147396" lon="8.815651992335916">
        <ele>823.02999999999997</ele>
        <time>2012-12-21T13:18:47Z</time>
      </trkpt>
      <trkpt lat="45.95705802552402" lon="8.815472032874823">
        <ele>823.50999999999999</ele>
        <time>2012-12-21T13:18:35Z</time>
      </trkpt>
      <trkpt lat="45.957095995545387" lon="8.815340017899871">
        <ele>823.50999999999999</ele>
        <time>2012-12-21T13:18:30Z</time>
      </trkpt>
      <trkpt lat="45.957095995545387" lon="8.815323002636433">
        <ele>823.99000000000001</ele>
        <time>2012-12-21T13:18:23Z</time>
      </trkpt>
      <trkpt lat="45.957069005817175" lon="8.815300958231092">
        <ele>823.50999999999999</ele>
        <time>2012-12-21T13:18:06Z</time>
      </trkpt>
      <trkpt lat="45.957088032737374" lon="8.815099038183689">
        <ele>824.47000000000003</ele>
        <time>2012-12-21T13:17:53Z</time>
      </trkpt>
      <trkpt lat="45.957110999152064" lon="8.81501697935164">
        <ele>824.95000000000005</ele>
        <time>2012-12-21T13:17:48Z</time>
      </trkpt>
      <trkpt lat="45.957161039113998" lon="8.814933998510242">
        <ele>825.42999999999995</ele>
        <time>2012-12-21T13:17:43Z</time>
      </trkpt>
      <trkpt lat="45.957297999411821" lon="8.814837019890547">
        <ele>827.35000000000002</ele>
        <time>2012-12-21T13:17:31Z</time>
      </trkpt>
      <trkpt lat="45.957348039373755" lon="8.814864009618759">
        <ele>827.83000000000004</ele>
        <time>2012-12-21T13:17:27Z</time>
      </trkpt>
      <trkpt lat="45.957375029101968" lon="8.814872978255153">
        <ele>828.78999999999996</ele>
        <time>2012-12-21T13:17:24Z</time>
      </trkpt>
      <trkpt lat="45.957522969692945" lon="8.814840037375689">
        <ele>830.24000000000001</ele>
        <time>2012-12-21T13:17:11Z</time>
      </trkpt>
      <trkpt lat="45.957558006048203" lon="8.814820004627109">
        <ele>830.72000000000003</ele>
        <time>2012-12-21T13:17:08Z</time>
      </trkpt>
      <trkpt lat="45.957671999931335" lon="8.8147790171206">
        <ele>832.63999999999999</ele>
        <time>2012-12-21T13:16:57Z</time>
      </trkpt>
      <trkpt lat="45.957760009914637" lon="8.814537031576037">
        <ele>834.55999999999995</ele>
        <time>2012-12-21T13:16:45Z</time>
      </trkpt>
      <trkpt lat="45.958030996844172" lon="8.81503701210022">
        <ele>836.96000000000004</ele>
        <time>2012-12-21T13:16:13Z</time>
      </trkpt>
      <trkpt lat="45.957935024052858" lon="8.814768958836794">
        <ele>835.51999999999998</ele>
        <time>2012-12-21T13:15:44Z</time>
      </trkpt>
      <trkpt lat="45.957935024052858" lon="8.814768958836794">
        <ele>835.51999999999998</ele>
        <time>2012-12-21T13:15:33Z</time>
      </trkpt>
      <trkpt lat="45.95800400711596" lon="8.814658988267183">
        <ele>836</ele>
        <time>2012-12-21T13:15:21Z</time>
      </trkpt>
      <trkpt lat="45.958053963258862" lon="8.81458799354732">
        <ele>836</ele>
        <time>2012-12-21T13:15:16Z</time>
      </trkpt>
      <trkpt lat="45.958144990727305" lon="8.814380038529635">
        <ele>836.48000000000002</ele>
        <time>2012-12-21T13:15:03Z</time>
      </trkpt>
      <trkpt lat="45.958213973790407" lon="8.8142229616642">
        <ele>837.92999999999995</ele>
        <time>2012-12-21T13:14:47Z</time>
      </trkpt>
      <trkpt lat="45.958279017359018" lon="8.814065968617797">
        <ele>838.88999999999999</ele>
        <time>2012-12-21T13:14:34Z</time>
      </trkpt>
      <trkpt lat="45.958435004577041" lon="8.813738990575075">
        <ele>840.80999999999995</ele>
        <time>2012-12-21T13:14:16Z</time>
      </trkpt>
      <trkpt lat="45.958487978205085" lon="8.813643017783761">
        <ele>841.76999999999998</ele>
        <time>2012-12-21T13:14:05Z</time>
      </trkpt>
      <trkpt lat="45.958542041480541" lon="8.813493987545371">
        <ele>842.25</ele>
        <time>2012-12-21T13:13:52Z</time>
      </trkpt>
      <trkpt lat="45.958545980975032" lon="8.813488036394119">
        <ele>846.58000000000004</ele>
        <time>2012-12-21T13:13:51Z</time>
      </trkpt>
      <trkpt lat="45.958548998460174" lon="8.813479989767075">
        <ele>843.21000000000004</ele>
        <time>2012-12-21T13:13:50Z</time>
      </trkpt>
      <trkpt lat="45.958553021773696" lon="8.81346900947392">
        <ele>838.40999999999997</ele>
        <time>2012-12-21T13:13:49Z</time>
      </trkpt>
      <trkpt lat="45.958584034815431" lon="8.813425004482269">
        <ele>843.69000000000005</ele>
        <time>2012-12-21T13:13:45Z</time>
      </trkpt>
      <trkpt lat="45.958590991795063" lon="8.813416035845876">
        <ele>843.69000000000005</ele>
        <time>2012-12-21T13:13:44Z</time>
      </trkpt>
      <trkpt lat="45.958599038422108" lon="8.813396003097296">
        <ele>846.58000000000004</ele>
        <time>2012-12-21T13:13:42Z</time>
      </trkpt>
      <trkpt lat="45.958607001230121" lon="8.813388040289283">
        <ele>843.21000000000004</ele>
        <time>2012-12-21T13:13:41Z</time>
      </trkpt>
      <trkpt lat="45.958611024543643" lon="8.813380999490619">
        <ele>847.53999999999996</ele>
        <time>2012-12-21T13:13:40Z</time>
      </trkpt>
      <trkpt lat="45.958617981523275" lon="8.813372030854225">
        <ele>841.28999999999996</ele>
        <time>2012-12-21T13:13:39Z</time>
      </trkpt>
      <trkpt lat="45.958679001778364" lon="8.813327020034194">
        <ele>845.13999999999999</ele>
        <time>2012-12-21T13:13:33Z</time>
      </trkpt>
      <trkpt lat="45.958752008154988" lon="8.813238004222512">
        <ele>845.62</ele>
        <time>2012-12-21T13:13:23Z</time>
      </trkpt>
      <trkpt lat="45.95877799205482" lon="8.813273040577769">
        <ele>847.53999999999996</ele>
        <time>2012-12-21T13:13:10Z</time>
      </trkpt>
      <trkpt lat="45.95880095846951" lon="8.813311010599136">
        <ele>847.53999999999996</ele>
        <time>2012-12-21T13:12:59Z</time>
      </trkpt>
      <trkpt lat="45.958816967904568" lon="8.813314028084278">
        <ele>850.41999999999996</ele>
        <time>2012-12-21T13:12:45Z</time>
      </trkpt>
      <trkpt lat="45.958828032016754" lon="8.813296006992459">
        <ele>850.89999999999998</ele>
        <time>2012-12-21T13:12:32Z</time>
      </trkpt>
      <trkpt lat="45.958870025351644" lon="8.813270023092628">
        <ele>852.35000000000002</ele>
        <time>2012-12-21T13:12:22Z</time>
      </trkpt>
      <trkpt lat="45.958888968452811" lon="8.813265999779105">
        <ele>852.83000000000004</ele>
        <time>2012-12-21T13:12:11Z</time>
      </trkpt>
      <trkpt lat="45.958942025899887" lon="8.813232975080609">
        <ele>854.75</ele>
        <time>2012-12-21T13:12:01Z</time>
      </trkpt>
      <trkpt lat="45.959018971771002" lon="8.813283015042543">
        <ele>856.66999999999996</ele>
        <time>2012-12-21T13:11:56Z</time>
      </trkpt>
      <trkpt lat="45.959045039489865" lon="8.813311010599136">
        <ele>858.11000000000001</ele>
        <time>2012-12-21T13:11:50Z</time>
      </trkpt>
      <trkpt lat="45.959068005904555" lon="8.813336994498968">
        <ele>859.55999999999995</ele>
        <time>2012-12-21T13:11:42Z</time>
      </trkpt>
      <trkpt lat="45.959105975925922" lon="8.813353003934026">
        <ele>862.44000000000005</ele>
        <time>2012-12-21T13:11:30Z</time>
      </trkpt>
      <trkpt lat="45.959136988967657" lon="8.813344035297632">
        <ele>865.32000000000005</ele>
        <time>2012-12-21T13:11:19Z</time>
      </trkpt>
      <trkpt lat="45.959183005616069" lon="8.813348980620503">
        <ele>867.25</ele>
        <time>2012-12-21T13:11:09Z</time>
      </trkpt>
      <trkpt lat="45.959247965365648" lon="8.813315033912659">
        <ele>868.69000000000005</ele>
        <time>2012-12-21T13:10:56Z</time>
      </trkpt>
      <trkpt lat="45.959308985620737" lon="8.813295001164079">
        <ele>871.09000000000003</ele>
        <time>2012-12-21T13:10:43Z</time>
      </trkpt>
      <trkpt lat="45.959319965913892" lon="8.813295001164079">
        <ele>871.09000000000003</ele>
        <time>2012-12-21T13:10:42Z</time>
      </trkpt>
      <trkpt lat="45.959431026130915" lon="8.813316039741039">
        <ele>873.98000000000002</ele>
        <time>2012-12-21T13:10:29Z</time>
      </trkpt>
      <trkpt lat="45.959449969232082" lon="8.813328025862575">
        <ele>874.46000000000004</ele>
        <time>2012-12-21T13:10:27Z</time>
      </trkpt>
      <trkpt lat="45.959548959508538" lon="8.813411006703973">
        <ele>877.82000000000005</ele>
        <time>2012-12-21T13:10:15Z</time>
      </trkpt>
      <trkpt lat="45.959552982822061" lon="8.813419975340366">
        <ele>878.29999999999995</ele>
        <time>2012-12-21T13:10:14Z</time>
      </trkpt>
      <trkpt lat="45.959602016955614" lon="8.813459035009146">
        <ele>879.74000000000001</ele>
        <time>2012-12-21T13:10:01Z</time>
      </trkpt>
      <trkpt lat="45.959663037210703" lon="8.813485018908978">
        <ele>882.14999999999998</ele>
        <time>2012-12-21T13:09:49Z</time>
      </trkpt>
      <trkpt lat="45.959678962826729" lon="8.813478983938694">
        <ele>883.11000000000001</ele>
        <time>2012-12-21T13:09:46Z</time>
      </trkpt>
      <trkpt lat="45.95972103998065" lon="8.813532963395119">
        <ele>885.99000000000001</ele>
        <time>2012-12-21T13:09:38Z</time>
      </trkpt>
      <trkpt lat="45.95972397364676" lon="8.813540004193783">
        <ele>887.90999999999997</ele>
        <time>2012-12-21T13:09:27Z</time>
      </trkpt>
      <trkpt lat="45.959727996960282" lon="8.813554001972079">
        <ele>889.36000000000001</ele>
        <time>2012-12-21T13:09:16Z</time>
      </trkpt>
      <trkpt lat="45.959727996960282" lon="8.813554001972079">
        <ele>889.84000000000003</ele>
        <time>2012-12-21T13:08:59Z</time>
      </trkpt>
      <trkpt lat="45.959727996960282" lon="8.813554001972079">
        <ele>891.75999999999999</ele>
        <time>2012-12-21T13:08:58Z</time>
      </trkpt>
      <trkpt lat="45.959727996960282" lon="8.813554001972079">
        <ele>885.50999999999999</ele>
        <time>2012-12-21T13:08:57Z</time>
      </trkpt>
      <trkpt lat="45.959727996960282" lon="8.813551990315318">
        <ele>888.88</ele>
        <time>2012-12-21T13:08:47Z</time>
      </trkpt>
      <trkpt lat="45.959811983630061" lon="8.813540004193783">
        <ele>890.32000000000005</ele>
        <time>2012-12-21T13:08:43Z</time>
      </trkpt>
      <trkpt lat="45.959842996671796" lon="8.813535980880261">
        <ele>890.79999999999995</ele>
        <time>2012-12-21T13:08:32Z</time>
      </trkpt>
      <trkpt lat="45.959877027198672" lon="8.813589960336685">
        <ele>893.67999999999995</ele>
        <time>2012-12-21T13:08:21Z</time>
      </trkpt>
      <trkpt lat="45.95989597029984" lon="8.813607981428504">
        <ele>894.15999999999997</ele>
        <time>2012-12-21T13:08:19Z</time>
      </trkpt>
      <trkpt lat="45.959914997220039" lon="8.813624996691942">
        <ele>897.04999999999995</ele>
        <time>2012-12-21T13:08:08Z</time>
      </trkpt>
      <trkpt lat="45.959904016926885" lon="8.813622985035181">
        <ele>898.97000000000003</ele>
        <time>2012-12-21T13:07:57Z</time>
      </trkpt>
      <trkpt lat="45.959904016926885" lon="8.813622985035181">
        <ele>900.88999999999999</ele>
        <time>2012-12-21T13:07:55Z</time>
      </trkpt>
      <trkpt lat="45.959904016926885" lon="8.813622985035181">
        <ele>901.85000000000002</ele>
        <time>2012-12-21T13:07:54Z</time>
      </trkpt>
      <trkpt lat="45.959904016926885" lon="8.813622985035181">
        <ele>893.67999999999995</ele>
        <time>2012-12-21T13:07:53Z</time>
      </trkpt>
      <trkpt lat="45.959904016926885" lon="8.813622985035181">
        <ele>899.45000000000005</ele>
        <time>2012-12-21T13:07:52Z</time>
      </trkpt>
      <trkpt lat="45.959884990006685" lon="8.813591971993446">
        <ele>900.40999999999997</ele>
        <time>2012-12-21T13:07:42Z</time>
      </trkpt>
      <trkpt lat="45.959884990006685" lon="8.813591971993446">
        <ele>901.37</ele>
        <time>2012-12-21T13:07:41Z</time>
      </trkpt>
      <trkpt lat="45.959888007491827" lon="8.813591971993446">
        <ele>897.04999999999995</ele>
        <time>2012-12-21T13:07:40Z</time>
      </trkpt>
      <trkpt lat="45.959937963634729" lon="8.813667995855212">
        <ele>901.37</ele>
        <time>2012-12-21T13:07:35Z</time>
      </trkpt>
      <trkpt lat="45.959965037181973" lon="8.813696997240186">
        <ele>902.33000000000004</ele>
        <time>2012-12-21T13:07:32Z</time>
      </trkpt>
      <trkpt lat="45.959991021081805" lon="8.813672019168735">
        <ele>904.25999999999999</ele>
        <time>2012-12-21T13:07:28Z</time>
      </trkpt>
      <trkpt lat="45.960029996931553" lon="8.813662966713309">
        <ele>906.17999999999995</ele>
        <time>2012-12-21T13:07:21Z</time>
      </trkpt>
      <trkpt lat="45.960060004144907" lon="8.813701020553708">
        <ele>907.13999999999999</ele>
        <time>2012-12-21T13:07:17Z</time>
      </trkpt>
      <trkpt lat="45.96006796695292" lon="8.813845021650195">
        <ele>908.10000000000002</ele>
        <time>2012-12-21T13:07:07Z</time>
      </trkpt>
      <trkpt lat="45.960075007751584" lon="8.813889026641846">
        <ele>908.58000000000004</ele>
        <time>2012-12-21T13:06:59Z</time>
      </trkpt>
      <trkpt lat="45.960133010521531" lon="8.813936971127987">
        <ele>910.02999999999997</ele>
        <time>2012-12-21T13:06:49Z</time>
      </trkpt>
      <trkpt lat="45.960163017734885" lon="8.813918028026819">
        <ele>910.99000000000001</ele>
        <time>2012-12-21T13:06:43Z</time>
      </trkpt>
      <trkpt lat="45.960190007463098" lon="8.81392297334969">
        <ele>912.90999999999997</ele>
        <time>2012-12-21T13:06:34Z</time>
      </trkpt>
      <trkpt lat="45.960262008011341" lon="8.813904030248523">
        <ele>914.83000000000004</ele>
        <time>2012-12-21T13:06:29Z</time>
      </trkpt>
      <trkpt lat="45.960266031324863" lon="8.813908975571394">
        <ele>915.78999999999996</ele>
        <time>2012-12-21T13:06:27Z</time>
      </trkpt>
      <trkpt lat="45.960311964154243" lon="8.813929008319974">
        <ele>918.20000000000005</ele>
        <time>2012-12-21T13:06:20Z</time>
      </trkpt>
      <trkpt lat="45.960311964154243" lon="8.813929008319974">
        <ele>918.20000000000005</ele>
        <time>2012-12-21T13:06:19Z</time>
      </trkpt>
      <trkpt lat="45.96032302826643" lon="8.813944011926651">
        <ele>919.63999999999999</ele>
        <time>2012-12-21T13:06:06Z</time>
      </trkpt>
      <trkpt lat="45.960350017994642" lon="8.81394200026989">
        <ele>921.55999999999995</ele>
        <time>2012-12-21T13:05:59Z</time>
      </trkpt>
      <trkpt lat="45.960411038249731" lon="8.813929008319974">
        <ele>924.45000000000005</ele>
        <time>2012-12-21T13:05:48Z</time>
      </trkpt>
      <trkpt lat="45.960411038249731" lon="8.813929008319974">
        <ele>924.45000000000005</ele>
        <time>2012-12-21T13:05:46Z</time>
      </trkpt>
      <trkpt lat="45.960471974685788" lon="8.813797999173403">
        <ele>925.40999999999997</ele>
        <time>2012-12-21T13:05:35Z</time>
      </trkpt>
      <trkpt lat="45.960498964414001" lon="8.813768997788429">
        <ele>925.88999999999999</ele>
        <time>2012-12-21T13:05:32Z</time>
      </trkpt>
      <trkpt lat="45.960526037961245" lon="8.813679981976748">
        <ele>926.37</ele>
        <time>2012-12-21T13:05:28Z</time>
      </trkpt>
      <trkpt lat="45.960586974397302" lon="8.813487030565739">
        <ele>927.80999999999995</ele>
        <time>2012-12-21T13:05:18Z</time>
      </trkpt>
      <trkpt lat="45.960678001865745" lon="8.813363984227181">
        <ele>929.25</ele>
        <time>2012-12-21T13:05:07Z</time>
      </trkpt>
      <trkpt lat="45.960704991593957" lon="8.813312016427517">
        <ele>930.21000000000004</ele>
        <time>2012-12-21T13:05:03Z</time>
      </trkpt>
      <trkpt lat="45.960719995200634" lon="8.813301036134362">
        <ele>930.21000000000004</ele>
        <time>2012-12-21T13:05:02Z</time>
      </trkpt>
      <trkpt lat="45.960803981870413" lon="8.813188970088959">
        <ele>931.16999999999996</ele>
        <time>2012-12-21T13:04:53Z</time>
      </trkpt>
      <trkpt lat="45.960812028497458" lon="8.813185030594468">
        <ele>931.64999999999998</ele>
        <time>2012-12-21T13:04:51Z</time>
      </trkpt>
      <trkpt lat="45.960880005732179" lon="8.813053015619516">
        <ele>932.62</ele>
        <time>2012-12-21T13:04:43Z</time>
      </trkpt>
      <trkpt lat="45.960957035422325" lon="8.812870960682631">
        <ele>934.05999999999995</ele>
        <time>2012-12-21T13:04:35Z</time>
      </trkpt>
      <trkpt lat="45.960995005443692" lon="8.812852017581463">
        <ele>935.01999999999998</ele>
        <time>2012-12-21T13:04:30Z</time>
      </trkpt>
      <trkpt lat="45.961089972406626" lon="8.812663005664945">
        <ele>936.46000000000004</ele>
        <time>2012-12-21T13:04:20Z</time>
      </trkpt>
      <trkpt lat="45.961146969348192" lon="8.812571978196502">
        <ele>937.89999999999998</ele>
        <time>2012-12-21T13:04:13Z</time>
      </trkpt>
      <trkpt lat="45.961197009310126" lon="8.812499977648258">
        <ele>938.38</ele>
        <time>2012-12-21T13:04:10Z</time>
      </trkpt>
      <trkpt lat="45.961273033171892" lon="8.812410961836577">
        <ele>939.35000000000002</ele>
        <time>2012-12-21T13:04:02Z</time>
      </trkpt>
      <trkpt lat="45.961375962942839" lon="8.812263021245599">
        <ele>940.78999999999996</ele>
        <time>2012-12-21T13:03:51Z</time>
      </trkpt>
      <trkpt lat="45.961414016783237" lon="8.812257992103696">
        <ele>941.26999999999998</ele>
        <time>2012-12-21T13:03:48Z</time>
      </trkpt>
      <trkpt lat="45.961445029824972" lon="8.812247011810541">
        <ele>941.75</ele>
        <time>2012-12-21T13:03:46Z</time>
      </trkpt>
      <trkpt lat="45.961586013436317" lon="8.812098987400532">
        <ele>943.19000000000005</ele>
        <time>2012-12-21T13:03:32Z</time>
      </trkpt>
      <trkpt lat="45.961647033691406" lon="8.81205297075212">
        <ele>944.14999999999998</ele>
        <time>2012-12-21T13:03:27Z</time>
      </trkpt>
      <trkpt lat="45.961753986775875" lon="8.81205003708601">
        <ele>945.11000000000001</ele>
        <time>2012-12-21T13:03:19Z</time>
      </trkpt>
      <trkpt lat="45.961867980659008" lon="8.811884997412562">
        <ele>946.55999999999995</ele>
        <time>2012-12-21T13:03:07Z</time>
      </trkpt>
      <trkpt lat="45.961945010349154" lon="8.811732027679682">
        <ele>948</ele>
        <time>2012-12-21T13:02:56Z</time>
      </trkpt>
      <trkpt lat="45.961982980370522" lon="8.811692968010902">
        <ele>948</ele>
        <time>2012-12-21T13:02:51Z</time>
      </trkpt>
      <trkpt lat="45.9620669670403" lon="8.811580985784531">
        <ele>948.96000000000004</ele>
        <time>2012-12-21T13:02:36Z</time>
      </trkpt>
      <trkpt lat="45.962135028094053" lon="8.811558019369841">
        <ele>949.44000000000005</ele>
        <time>2012-12-21T13:02:28Z</time>
      </trkpt>
      <trkpt lat="45.962162017822266" lon="8.811584003269672">
        <ele>949.91999999999996</ele>
        <time>2012-12-21T13:02:23Z</time>
      </trkpt>
      <trkpt lat="45.96232202835381" lon="8.811703026294708">
        <ele>951.84000000000003</ele>
        <time>2012-12-21T13:02:13Z</time>
      </trkpt>
      <trkpt lat="45.9623640216887" lon="8.811798999086022">
        <ele>954.25</ele>
        <time>2012-12-21T13:02:07Z</time>
      </trkpt>
      <trkpt lat="45.962398974224925" lon="8.811887009069324">
        <ele>955.69000000000005</ele>
        <time>2012-12-21T13:02:01Z</time>
      </trkpt>
      <trkpt lat="45.962490001693368" lon="8.811984993517399">
        <ele>957.13</ele>
        <time>2012-12-21T13:01:56Z</time>
      </trkpt>
      <trkpt lat="45.962593015283346" lon="8.812120025977492">
        <ele>959.52999999999997</ele>
        <time>2012-12-21T13:01:46Z</time>
      </trkpt>
      <trkpt lat="45.962684964761138" lon="8.812315994873643">
        <ele>961.46000000000004</ele>
        <time>2012-12-21T13:01:33Z</time>
      </trkpt>
      <trkpt lat="45.962749002501369" lon="8.812405010685325">
        <ele>963.38</ele>
        <time>2012-12-21T13:01:24Z</time>
      </trkpt>
      <trkpt lat="45.962852016091347" lon="8.812579018995166">
        <ele>964.34000000000003</ele>
        <time>2012-12-21T13:01:10Z</time>
      </trkpt>
      <trkpt lat="45.962925022467971" lon="8.812752021476626">
        <ele>964.82000000000005</ele>
        <time>2012-12-21T13:00:58Z</time>
      </trkpt>
      <trkpt lat="45.962925022467971" lon="8.812785968184471">
        <ele>965.29999999999995</ele>
        <time>2012-12-21T13:00:55Z</time>
      </trkpt>
      <trkpt lat="45.962936002761126" lon="8.812835002318025">
        <ele>966.74000000000001</ele>
        <time>2012-12-21T13:00:52Z</time>
      </trkpt>
      <trkpt lat="45.962936002761126" lon="8.812850005924702">
        <ele>963.38</ele>
        <time>2012-12-21T13:00:51Z</time>
      </trkpt>
      <trkpt lat="45.962928961962461" lon="8.812921000644565">
        <ele>966.25999999999999</ele>
        <time>2012-12-21T13:00:45Z</time>
      </trkpt>
      <trkpt lat="45.962955029681325" lon="8.812962993979454">
        <ele>966.74000000000001</ele>
        <time>2012-12-21T13:00:40Z</time>
      </trkpt>
      <trkpt lat="45.963000962510705" lon="8.813132978975773">
        <ele>967.22000000000003</ele>
        <time>2012-12-21T13:00:24Z</time>
      </trkpt>
      <trkpt lat="45.963019989430904" lon="8.813169021159411">
        <ele>965.77999999999997</ele>
        <time>2012-12-21T13:00:19Z</time>
      </trkpt>
      <trkpt lat="45.963028036057949" lon="8.813209002837539">
        <ele>969.63</ele>
        <time>2012-12-21T13:00:16Z</time>
      </trkpt>
      <trkpt lat="45.96303197555244" lon="8.813218977302313">
        <ele>963.38</ele>
        <time>2012-12-21T13:00:15Z</time>
      </trkpt>
      <trkpt lat="45.963046979159117" lon="8.813274968415499">
        <ele>967.22000000000003</ele>
        <time>2012-12-21T13:00:09Z</time>
      </trkpt>
      <trkpt lat="45.963070029392838" lon="8.813430033624172">
        <ele>966.74000000000001</ele>
        <time>2012-12-21T12:59:53Z</time>
      </trkpt>
      <trkpt lat="45.96300900913775" lon="8.813592977821827">
        <ele>966.74000000000001</ele>
        <time>2012-12-21T12:59:40Z</time>
      </trkpt>
      <trkpt lat="45.962994005531073" lon="8.813636982813478">
        <ele>966.74000000000001</ele>
        <time>2012-12-21T12:59:37Z</time>
      </trkpt>
      <trkpt lat="45.962982019409537" lon="8.813667995855212">
        <ele>966.74000000000001</ele>
        <time>2012-12-21T12:59:24Z</time>
      </trkpt>
      <trkpt lat="45.963073968887329" lon="8.813645029440522">
        <ele>966.74000000000001</ele>
        <time>2012-12-21T12:59:12Z</time>
      </trkpt>
      <trkpt lat="45.963172959163785" lon="8.813653998076916">
        <ele>967.22000000000003</ele>
        <time>2012-12-21T12:59:01Z</time>
      </trkpt>
      <trkpt lat="45.96333296969533" lon="8.813631031662226">
        <ele>967.22000000000003</ele>
        <time>2012-12-21T12:58:49Z</time>
      </trkpt>
      <trkpt lat="45.963450986891985" lon="8.813550984486938">
        <ele>969.14999999999998</ele>
        <time>2012-12-21T12:58:34Z</time>
      </trkpt>
      <trkpt lat="45.963508989661932" lon="8.813549978658557">
        <ele>970.59000000000003</ele>
        <time>2012-12-21T12:58:21Z</time>
      </trkpt>
      <trkpt lat="45.963516030460596" lon="8.81355601362884">
        <ele>970.59000000000003</ele>
        <time>2012-12-21T12:58:04Z</time>
      </trkpt>
      <trkpt lat="45.963600017130375" lon="8.813482001423836">
        <ele>970.59000000000003</ele>
        <time>2012-12-21T12:57:50Z</time>
      </trkpt>
      <trkpt lat="45.963676040992141" lon="8.813472026959062">
        <ele>969.63</ele>
        <time>2012-12-21T12:57:37Z</time>
      </trkpt>
      <trkpt lat="45.963710993528366" lon="8.813460962846875">
        <ele>967.22000000000003</ele>
        <time>2012-12-21T12:57:23Z</time>
      </trkpt>
      <trkpt lat="45.963721973821521" lon="8.813451994210482">
        <ele>966.25999999999999</ele>
        <time>2012-12-21T12:56:57Z</time>
      </trkpt>
      <trkpt lat="45.963699007406831" lon="8.813459035009146">
        <ele>967.22000000000003</ele>
        <time>2012-12-21T12:56:42Z</time>
      </trkpt>
      <trkpt lat="45.963607979938388" lon="8.813531035557389">
        <ele>969.63</ele>
        <time>2012-12-21T12:56:28Z</time>
      </trkpt>
      <trkpt lat="45.963546959683299" lon="8.813549978658557">
        <ele>970.59000000000003</ele>
        <time>2012-12-21T12:56:10Z</time>
      </trkpt>
      <trkpt lat="45.963431959971786" lon="8.813604963943362">
        <ele>970.11000000000001</ele>
        <time>2012-12-21T12:55:56Z</time>
      </trkpt>
      <trkpt lat="45.963321989402175" lon="8.813547967001796">
        <ele>969.14999999999998</ele>
        <time>2012-12-21T12:55:43Z</time>
      </trkpt>
      <trkpt lat="45.963184023275971" lon="8.813548972830176">
        <ele>967.70000000000005</ele>
        <time>2012-12-21T12:55:27Z</time>
      </trkpt>
      <trkpt lat="45.963187962770462" lon="8.813498010858893">
        <ele>967.22000000000003</ele>
        <time>2012-12-21T12:55:13Z</time>
      </trkpt>
      <trkpt lat="45.96318100579083" lon="8.813605969771743">
        <ele>967.22000000000003</ele>
        <time>2012-12-21T12:55:00Z</time>
      </trkpt>
      <trkpt lat="45.963470013812184" lon="8.813511002808809">
        <ele>965.29999999999995</ele>
        <time>2012-12-21T12:54:31Z</time>
      </trkpt>
      <trkpt lat="45.963371023535728" lon="8.81353204138577">
        <ele>967.22000000000003</ele>
        <time>2012-12-21T12:53:55Z</time>
      </trkpt>
      <trkpt lat="45.963351996615529" lon="8.813537992537022">
        <ele>966.74000000000001</ele>
        <time>2012-12-21T12:53:39Z</time>
      </trkpt>
      <trkpt lat="45.963351996615529" lon="8.813537992537022">
        <ele>966.74000000000001</ele>
        <time>2012-12-21T12:53:15Z</time>
      </trkpt>
      <trkpt lat="45.963356019929051" lon="8.81353204138577">
        <ele>966.74000000000001</ele>
        <time>2012-12-21T12:52:52Z</time>
      </trkpt>
      <trkpt lat="45.963363982737064" lon="8.813522988930345">
        <ele>966.74000000000001</ele>
        <time>2012-12-21T12:52:33Z</time>
      </trkpt>
      <trkpt lat="45.963363982737064" lon="8.81351200863719">
        <ele>967.22000000000003</ele>
        <time>2012-12-21T12:52:12Z</time>
      </trkpt>
      <trkpt lat="45.96331000328064" lon="8.813516031950712">
        <ele>966.74000000000001</ele>
        <time>2012-12-21T12:51:51Z</time>
      </trkpt>
      <trkpt lat="45.963226016610861" lon="8.813432967290282">
        <ele>966.25999999999999</ele>
        <time>2012-12-21T12:51:36Z</time>
      </trkpt>
      <trkpt lat="45.963142029941082" lon="8.813435984775424">
        <ele>965.77999999999997</ele>
        <time>2012-12-21T12:51:25Z</time>
      </trkpt>
      <trkpt lat="45.963107999414206" lon="8.813440008088946">
        <ele>965.77999999999997</ele>
        <time>2012-12-21T12:51:18Z</time>
      </trkpt>
      <trkpt lat="45.963107999414206" lon="8.813427016139031">
        <ele>965.77999999999997</ele>
        <time>2012-12-21T12:50:59Z</time>
      </trkpt>
      <trkpt lat="45.963085032999516" lon="8.813161980360746">
        <ele>965.77999999999997</ele>
        <time>2012-12-21T12:50:42Z</time>
      </trkpt>
      <trkpt lat="45.962943965569139" lon="8.812995012849569">
        <ele>965.77999999999997</ele>
        <time>2012-12-21T12:50:24Z</time>
      </trkpt>
      <trkpt lat="45.962920999154449" lon="8.812955031171441">
        <ele>965.29999999999995</ele>
        <time>2012-12-21T12:50:21Z</time>
      </trkpt>
      <trkpt lat="45.962913958355784" lon="8.812926029786468">
        <ele>965.29999999999995</ele>
        <time>2012-12-21T12:50:16Z</time>
      </trkpt>
      <trkpt lat="45.962894009426236" lon="8.81288998760283">
        <ele>964.82000000000005</ele>
        <time>2012-12-21T12:50:02Z</time>
      </trkpt>
      <trkpt lat="45.962856039404869" lon="8.812780017033219">
        <ele>963.86000000000001</ele>
        <time>2012-12-21T12:49:47Z</time>
      </trkpt>
      <trkpt lat="45.962832989171147" lon="8.8126549590379">
        <ele>962.89999999999998</ele>
        <time>2012-12-21T12:49:33Z</time>
      </trkpt>
      <trkpt lat="45.962807005271316" lon="8.812535014003515">
        <ele>962.41999999999996</ele>
        <time>2012-12-21T12:49:21Z</time>
      </trkpt>
      <trkpt lat="45.962756965309381" lon="8.812468964606524">
        <ele>961.94000000000005</ele>
        <time>2012-12-21T12:49:08Z</time>
      </trkpt>
      <trkpt lat="45.962588991969824" lon="8.812343990430236">
        <ele>960.98000000000002</ele>
        <time>2012-12-21T12:48:54Z</time>
      </trkpt>
      <trkpt lat="45.962485978379846" lon="8.812229996547103">
        <ele>960.00999999999999</ele>
        <time>2012-12-21T12:48:45Z</time>
      </trkpt>
      <trkpt lat="45.962467035278678" lon="8.812192026525736">
        <ele>960.00999999999999</ele>
        <time>2012-12-21T12:48:42Z</time>
      </trkpt>
      <trkpt lat="45.962413977831602" lon="8.812112985178828">
        <ele>959.52999999999997</ele>
        <time>2012-12-21T12:48:34Z</time>
      </trkpt>
      <trkpt lat="45.962334014475346" lon="8.812027992680669">
        <ele>959.52999999999997</ele>
        <time>2012-12-21T12:48:28Z</time>
      </trkpt>
      <trkpt lat="45.962334014475346" lon="8.812027992680669">
        <ele>958.57000000000005</ele>
        <time>2012-12-21T12:48:27Z</time>
      </trkpt>
      <trkpt lat="45.962334014475346" lon="8.812027992680669">
        <ele>960.49000000000001</ele>
        <time>2012-12-21T12:48:18Z</time>
      </trkpt>
      <trkpt lat="45.962334014475346" lon="8.812027992680669">
        <ele>959.04999999999995</ele>
        <time>2012-12-21T12:48:14Z</time>
      </trkpt>
      <trkpt lat="45.962334014475346" lon="8.812027992680669">
        <ele>963.38</ele>
        <time>2012-12-21T12:48:13Z</time>
      </trkpt>
      <trkpt lat="45.962314987555146" lon="8.812003014609218">
        <ele>958.57000000000005</ele>
        <time>2012-12-21T12:48:00Z</time>
      </trkpt>
      <trkpt lat="45.962231000885367" lon="8.811876028776169">
        <ele>956.64999999999998</ele>
        <time>2012-12-21T12:47:46Z</time>
      </trkpt>
      <trkpt lat="45.962204011157155" lon="8.811829006299377">
        <ele>954.25</ele>
        <time>2012-12-21T12:47:30Z</time>
      </trkpt>
      <trkpt lat="45.962193030864" lon="8.811824982985854">
        <ele>952.79999999999995</ele>
        <time>2012-12-21T12:47:18Z</time>
      </trkpt>
      <trkpt lat="45.962096974253654" lon="8.811763962730765">
        <ele>950.39999999999998</ele>
        <time>2012-12-21T12:47:04Z</time>
      </trkpt>
      <trkpt lat="45.962051041424274" lon="8.811788018792868">
        <ele>948.96000000000004</ele>
        <time>2012-12-21T12:46:51Z</time>
      </trkpt>
      <trkpt lat="45.96204400062561" lon="8.811811991035938">
        <ele>948</ele>
        <time>2012-12-21T12:46:37Z</time>
      </trkpt>
      <trkpt lat="45.96204400062561" lon="8.811811991035938">
        <ele>949.91999999999996</ele>
        <time>2012-12-21T12:46:22Z</time>
      </trkpt>
      <trkpt lat="45.962039977312088" lon="8.811835963279009">
        <ele>947.03999999999996</ele>
        <time>2012-12-21T12:46:06Z</time>
      </trkpt>
      <trkpt lat="45.962039977312088" lon="8.811835963279009">
        <ele>948</ele>
        <time>2012-12-21T12:45:50Z</time>
      </trkpt>
      <trkpt lat="45.961990021169186" lon="8.811892960220575">
        <ele>947.03999999999996</ele>
        <time>2012-12-21T12:45:34Z</time>
      </trkpt>
      <trkpt lat="45.96193696372211" lon="8.811935037374497">
        <ele>947.03999999999996</ele>
        <time>2012-12-21T12:45:16Z</time>
      </trkpt>
      <trkpt lat="45.961845014244318" lon="8.812007959932089">
        <ele>946.07000000000005</ele>
        <time>2012-12-21T12:45:02Z</time>
      </trkpt>
      <trkpt lat="45.961777037009597" lon="8.81205297075212">
        <ele>945.59000000000003</ele>
        <time>2012-12-21T12:44:47Z</time>
      </trkpt>
      <trkpt lat="45.961726997047663" lon="8.812079038470984">
        <ele>944.63</ele>
        <time>2012-12-21T12:44:33Z</time>
      </trkpt>
      <trkpt lat="45.961524993181229" lon="8.812200995162129">
        <ele>943.66999999999996</ele>
        <time>2012-12-21T12:44:16Z</time>
      </trkpt>
      <trkpt lat="45.961498003453016" lon="8.812275007367134">
        <ele>942.71000000000004</ele>
        <time>2012-12-21T12:44:03Z</time>
      </trkpt>
      <trkpt lat="45.961475037038326" lon="8.812333010137081">
        <ele>940.78999999999996</ele>
        <time>2012-12-21T12:43:48Z</time>
      </trkpt>
      <trkpt lat="45.961432959884405" lon="8.81243996322155">
        <ele>939.83000000000004</ele>
        <time>2012-12-21T12:43:34Z</time>
      </trkpt>
      <trkpt lat="45.961330030113459" lon="8.812577007338405">
        <ele>938.38</ele>
        <time>2012-12-21T12:43:21Z</time>
      </trkpt>
      <trkpt lat="45.961188962683082" lon="8.812669040635228">
        <ele>937.41999999999996</ele>
        <time>2012-12-21T12:43:05Z</time>
      </trkpt>
      <trkpt lat="45.961101958528161" lon="8.812766019254923">
        <ele>935.98000000000002</ele>
        <time>2012-12-21T12:42:53Z</time>
      </trkpt>
      <trkpt lat="45.961025012657046" lon="8.812842965126038">
        <ele>934.53999999999996</ele>
        <time>2012-12-21T12:42:39Z</time>
      </trkpt>
      <trkpt lat="45.960983019322157" lon="8.812927035614848">
        <ele>932.62</ele>
        <time>2012-12-21T12:42:25Z</time>
      </trkpt>
      <trkpt lat="45.960896015167236" lon="8.813086040318012">
        <ele>931.64999999999998</ele>
        <time>2012-12-21T12:42:12Z</time>
      </trkpt>
      <trkpt lat="45.9607960190624" lon="8.813235992565751">
        <ele>930.21000000000004</ele>
        <time>2012-12-21T12:41:56Z</time>
      </trkpt>
      <trkpt lat="45.960693005472422" lon="8.813396003097296">
        <ele>928.76999999999998</ele>
        <time>2012-12-21T12:41:42Z</time>
      </trkpt>
      <trkpt lat="45.960631985217333" lon="8.813508991152048">
        <ele>927.33000000000004</ele>
        <time>2012-12-21T12:41:27Z</time>
      </trkpt>
      <trkpt lat="45.960552021861076" lon="8.81366103887558">
        <ele>925.88999999999999</ele>
        <time>2012-12-21T12:41:10Z</time>
      </trkpt>
      <trkpt lat="45.960506005212665" lon="8.813815014436841">
        <ele>926.85000000000002</ele>
        <time>2012-12-21T12:40:57Z</time>
      </trkpt>
      <trkpt lat="45.960506005212665" lon="8.813815014436841">
        <ele>923</ele>
        <time>2012-12-21T12:40:56Z</time>
      </trkpt>
      <trkpt lat="45.960506005212665" lon="8.813815014436841">
        <ele>926.37</ele>
        <time>2012-12-21T12:40:47Z</time>
      </trkpt>
      <trkpt lat="45.960506005212665" lon="8.813819959759712">
        <ele>926.37</ele>
        <time>2012-12-21T12:40:46Z</time>
      </trkpt>
      <trkpt lat="45.960468035191298" lon="8.813889026641846">
        <ele>923.96000000000004</ele>
        <time>2012-12-21T12:40:34Z</time>
      </trkpt>
      <trkpt lat="45.960381031036377" lon="8.81398499943316">
        <ele>923</ele>
        <time>2012-12-21T12:40:19Z</time>
      </trkpt>
      <trkpt lat="45.96032302826643" lon="8.81396496668458">
        <ele>919.63999999999999</ele>
        <time>2012-12-21T12:40:03Z</time>
      </trkpt>
      <trkpt lat="45.960278017446399" lon="8.81396496668458">
        <ele>917.24000000000001</ele>
        <time>2012-12-21T12:39:50Z</time>
      </trkpt>
      <trkpt lat="45.960209034383297" lon="8.813969995826483">
        <ele>914.83000000000004</ele>
        <time>2012-12-21T12:39:37Z</time>
      </trkpt>
      <trkpt lat="45.960136028006673" lon="8.813953986391425">
        <ele>911.95000000000005</ele>
        <time>2012-12-21T12:39:22Z</time>
      </trkpt>
      <trkpt lat="45.960091017186642" lon="8.81392003968358">
        <ele>909.53999999999996</ele>
        <time>2012-12-21T12:39:10Z</time>
      </trkpt>
      <trkpt lat="45.96006796695292" lon="8.813875028863549">
        <ele>907.13999999999999</ele>
        <time>2012-12-21T12:39:00Z</time>
      </trkpt>
      <trkpt lat="45.960075007751584" lon="8.813734967261553">
        <ele>906.17999999999995</ele>
        <time>2012-12-21T12:38:49Z</time>
      </trkpt>
      <trkpt lat="45.960121024399996" lon="8.813653998076916">
        <ele>905.70000000000005</ele>
        <time>2012-12-21T12:38:39Z</time>
      </trkpt>
      <trkpt lat="45.960143990814686" lon="8.813627008348703">
        <ele>905.22000000000003</ele>
        <time>2012-12-21T12:38:27Z</time>
      </trkpt>
      <trkpt lat="45.960154971107841" lon="8.813515026122332">
        <ele>904.25999999999999</ele>
        <time>2012-12-21T12:38:16Z</time>
      </trkpt>
      <trkpt lat="45.960117001086473" lon="8.81349197588861">
        <ele>903.29999999999995</ele>
        <time>2012-12-21T12:38:09Z</time>
      </trkpt>
      <trkpt lat="45.960060004144907" lon="8.813472026959062">
        <ele>900.40999999999997</ele>
        <time>2012-12-21T12:37:53Z</time>
      </trkpt>
      <trkpt lat="45.959983980283141" lon="8.813461968675256">
        <ele>898.00999999999999</ele>
        <time>2012-12-21T12:37:39Z</time>
      </trkpt>
      <trkpt lat="45.959988003596663" lon="8.813369013369083">
        <ele>895.12</ele>
        <time>2012-12-21T12:37:26Z</time>
      </trkpt>
      <trkpt lat="45.959976017475128" lon="8.813357027247548">
        <ele>891.75999999999999</ele>
        <time>2012-12-21T12:37:12Z</time>
      </trkpt>
      <trkpt lat="45.959949027746916" lon="8.813380999490619">
        <ele>889.84000000000003</ele>
        <time>2012-12-21T12:36:58Z</time>
      </trkpt>
      <trkpt lat="45.959892030805349" lon="8.813493987545371">
        <ele>889.36000000000001</ele>
        <time>2012-12-21T12:36:45Z</time>
      </trkpt>
      <trkpt lat="45.959811983630061" lon="8.813591971993446">
        <ele>888.39999999999998</ele>
        <time>2012-12-21T12:36:34Z</time>
      </trkpt>
      <trkpt lat="45.959765966981649" lon="8.813766986131668">
        <ele>886.95000000000005</ele>
        <time>2012-12-21T12:36:20Z</time>
      </trkpt>
      <trkpt lat="45.959705030545592" lon="8.813877962529659">
        <ele>886.47000000000003</ele>
        <time>2012-12-21T12:36:12Z</time>
      </trkpt>
      <trkpt lat="45.959644010290504" lon="8.813995979726315">
        <ele>885.02999999999997</ele>
        <time>2012-12-21T12:35:56Z</time>
      </trkpt>
      <trkpt lat="45.959506966173649" lon="8.81411399692297">
        <ele>883.59000000000003</ele>
        <time>2012-12-21T12:35:41Z</time>
      </trkpt>
      <trkpt lat="45.959464972838759" lon="8.814211981371045">
        <ele>882.63</ele>
        <time>2012-12-21T12:35:24Z</time>
      </trkpt>
      <trkpt lat="45.959453992545605" lon="8.814176023006439">
        <ele>882.63</ele>
        <time>2012-12-21T12:35:08Z</time>
      </trkpt>
      <trkpt lat="45.959431026130915" lon="8.814202006906271">
        <ele>882.14999999999998</ele>
        <time>2012-12-21T12:34:52Z</time>
      </trkpt>
      <trkpt lat="45.959332035854459" lon="8.81439596414566">
        <ele>881.19000000000005</ele>
        <time>2012-12-21T12:34:38Z</time>
      </trkpt>
      <trkpt lat="45.959193985909224" lon="8.81463099271059">
        <ele>879.74000000000001</ele>
        <time>2012-12-21T12:34:21Z</time>
      </trkpt>
      <trkpt lat="45.959057025611401" lon="8.814722020179033">
        <ele>878.77999999999997</ele>
        <time>2012-12-21T12:34:09Z</time>
      </trkpt>
      <trkpt lat="45.959045039489865" lon="8.814859986305237">
        <ele>878.29999999999995</ele>
        <time>2012-12-21T12:33:55Z</time>
      </trkpt>
      <trkpt lat="45.959030035883188" lon="8.814748004078865">
        <ele>876.86000000000001</ele>
        <time>2012-12-21T12:33:38Z</time>
      </trkpt>
      <trkpt lat="45.959072029218078" lon="8.814616994932294">
        <ele>875.89999999999998</ele>
        <time>2012-12-21T12:33:23Z</time>
      </trkpt>
      <trkpt lat="45.95912198536098" lon="8.814509036019445">
        <ele>877.82000000000005</ele>
        <time>2012-12-21T12:33:12Z</time>
      </trkpt>
      <trkpt lat="45.959126008674502" lon="8.814360005781055">
        <ele>874.46000000000004</ele>
        <time>2012-12-21T12:33:01Z</time>
      </trkpt>
      <trkpt lat="45.959126008674502" lon="8.814279958605766">
        <ele>873.5</ele>
        <time>2012-12-21T12:32:54Z</time>
      </trkpt>
      <trkpt lat="45.959147969260812" lon="8.814175017178059">
        <ele>872.04999999999995</ele>
        <time>2012-12-21T12:32:43Z</time>
      </trkpt>
      <trkpt lat="45.959198009222746" lon="8.814052976667881">
        <ele>871.57000000000005</ele>
        <time>2012-12-21T12:32:32Z</time>
      </trkpt>
      <trkpt lat="45.959193985909224" lon="8.813973013311625">
        <ele>870.61000000000001</ele>
        <time>2012-12-21T12:32:27Z</time>
      </trkpt>
      <trkpt lat="45.959205972030759" lon="8.813869999721646">
        <ele>870.61000000000001</ele>
        <time>2012-12-21T12:32:20Z</time>
      </trkpt>
      <trkpt lat="45.959220975637436" lon="8.813766986131668">
        <ele>869.16999999999996</ele>
        <time>2012-12-21T12:32:08Z</time>
      </trkpt>
      <trkpt lat="45.959235979244113" lon="8.813662966713309">
        <ele>868.21000000000004</ele>
        <time>2012-12-21T12:31:56Z</time>
      </trkpt>
      <trkpt lat="45.959232039749622" lon="8.813540004193783">
        <ele>867.25</ele>
        <time>2012-12-21T12:31:44Z</time>
      </trkpt>
      <trkpt lat="45.959235979244113" lon="8.813429027795792">
        <ele>866.76999999999998</ele>
        <time>2012-12-21T12:31:33Z</time>
      </trkpt>
      <trkpt lat="45.959266992285848" lon="8.813301036134362">
        <ele>865.32000000000005</ele>
        <time>2012-12-21T12:31:21Z</time>
      </trkpt>
      <trkpt lat="45.959323989227414" lon="8.813169021159411">
        <ele>864.36000000000001</ele>
        <time>2012-12-21T12:31:09Z</time>
      </trkpt>
      <trkpt lat="45.959319965913892" lon="8.813151000067592">
        <ele>864.36000000000001</ele>
        <time>2012-12-21T12:30:54Z</time>
      </trkpt>
      <trkpt lat="45.959274033084512" lon="8.812961988151074">
        <ele>863.39999999999998</ele>
        <time>2012-12-21T12:30:41Z</time>
      </trkpt>
      <trkpt lat="45.959270009770989" lon="8.812914965674281">
        <ele>862.91999999999996</ele>
        <time>2012-12-21T12:30:36Z</time>
      </trkpt>
      <trkpt lat="45.959319965913892" lon="8.812798038125038">
        <ele>861.48000000000002</ele>
        <time>2012-12-21T12:30:25Z</time>
      </trkpt>
      <trkpt lat="45.959334969520569" lon="8.812757972627878">
        <ele>861</ele>
        <time>2012-12-21T12:30:21Z</time>
      </trkpt>
      <trkpt lat="45.959343016147614" lon="8.812741041183472">
        <ele>861</ele>
        <time>2012-12-21T12:30:20Z</time>
      </trkpt>
      <trkpt lat="45.959427002817392" lon="8.812594022601843">
        <ele>860.03999999999996</ele>
        <time>2012-12-21T12:30:10Z</time>
      </trkpt>
      <trkpt lat="45.959446029737592" lon="8.812468964606524">
        <ele>859.55999999999995</ele>
        <time>2012-12-21T12:30:01Z</time>
      </trkpt>
      <trkpt lat="45.959442006424069" lon="8.812441974878311">
        <ele>859.08000000000004</ele>
        <time>2012-12-21T12:29:58Z</time>
      </trkpt>
      <trkpt lat="45.959437983110547" lon="8.812409033998847">
        <ele>859.08000000000004</ele>
        <time>2012-12-21T12:29:55Z</time>
      </trkpt>
      <trkpt lat="45.959457010030746" lon="8.812362011522055">
        <ele>858.11000000000001</ele>
        <time>2012-12-21T12:29:43Z</time>
      </trkpt>
      <trkpt lat="45.959473019465804" lon="8.812333010137081">
        <ele>857.63</ele>
        <time>2012-12-21T12:29:37Z</time>
      </trkpt>
      <trkpt lat="45.959411999210715" lon="8.81231096573174">
        <ele>857.14999999999998</ele>
        <time>2012-12-21T12:29:33Z</time>
      </trkpt>
      <trkpt lat="45.95925098285079" lon="8.812264027073979">
        <ele>856.66999999999996</ele>
        <time>2012-12-21T12:29:24Z</time>
      </trkpt>
      <trkpt lat="45.958996005356312" lon="8.812468964606524">
        <ele>856.19000000000005</ele>
        <time>2012-12-21T12:29:13Z</time>
      </trkpt>
      <trkpt lat="45.958858039230108" lon="8.812956959009171">
        <ele>855.71000000000004</ele>
        <time>2012-12-21T12:28:58Z</time>
      </trkpt>
      <trkpt lat="45.958873964846134" lon="8.813111018389463">
        <ele>854.26999999999998</ele>
        <time>2012-12-21T12:28:43Z</time>
      </trkpt>
      <trkpt lat="45.958873964846134" lon="8.813111018389463">
        <ele>852.83000000000004</ele>
        <time>2012-12-21T12:28:29Z</time>
      </trkpt>
      <trkpt lat="45.958873964846134" lon="8.813111018389463">
        <ele>851.87</ele>
        <time>2012-12-21T12:28:16Z</time>
      </trkpt>
      <trkpt lat="45.958855021744967" lon="8.81314798258245">
        <ele>850.41999999999996</ele>
        <time>2012-12-21T12:28:00Z</time>
      </trkpt>
      <trkpt lat="45.958855021744967" lon="8.81314798258245">
        <ele>848.98000000000002</ele>
        <time>2012-12-21T12:27:44Z</time>
      </trkpt>
      <trkpt lat="45.958855021744967" lon="8.81314798258245">
        <ele>848.01999999999998</ele>
        <time>2012-12-21T12:27:30Z</time>
      </trkpt>
      <trkpt lat="45.958629967644811" lon="8.813364990055561">
        <ele>847.05999999999995</ele>
        <time>2012-12-21T12:27:18Z</time>
      </trkpt>
      <trkpt lat="45.958617981523275" lon="8.813386028632522">
        <ele>846.10000000000002</ele>
        <time>2012-12-21T12:27:05Z</time>
      </trkpt>
      <trkpt lat="45.958496024832129" lon="8.813601024448872">
        <ele>845.13999999999999</ele>
        <time>2012-12-21T12:26:50Z</time>
      </trkpt>
      <trkpt lat="45.958446990698576" lon="8.813719041645527">
        <ele>844.65999999999997</ele>
        <time>2012-12-21T12:26:37Z</time>
      </trkpt>
      <trkpt lat="45.958321010693908" lon="8.814086001366377">
        <ele>843.21000000000004</ele>
        <time>2012-12-21T12:26:22Z</time>
      </trkpt>
      <trkpt lat="45.958312964066863" lon="8.814118020236492">
        <ele>847.05999999999995</ele>
        <time>2012-12-21T12:26:21Z</time>
      </trkpt>
      <trkpt lat="45.958309024572372" lon="8.814150039106607">
        <ele>838.40999999999997</ele>
        <time>2012-12-21T12:26:20Z</time>
      </trkpt>
      <trkpt lat="45.958255967125297" lon="8.814380038529635">
        <ele>842.73000000000002</ele>
        <time>2012-12-21T12:26:13Z</time>
      </trkpt>
      <trkpt lat="45.95819897018373" lon="8.814505012705922">
        <ele>841.76999999999998</ele>
        <time>2012-12-21T12:26:01Z</time>
      </trkpt>
      <trkpt lat="45.958134010434151" lon="8.814598973840475">
        <ele>840.33000000000004</ele>
        <time>2012-12-21T12:25:44Z</time>
      </trkpt>
      <trkpt lat="45.958087993785739" lon="8.814656976610422">
        <ele>838.88999999999999</ele>
        <time>2012-12-21T12:25:28Z</time>
      </trkpt>
      <trkpt lat="45.958041977137327" lon="8.81471598520875">
        <ele>837.92999999999995</ele>
        <time>2012-12-21T12:25:11Z</time>
      </trkpt>
      <trkpt lat="45.958011969923973" lon="8.81482302211225">
        <ele>837.45000000000005</ele>
        <time>2012-12-21T12:24:52Z</time>
      </trkpt>
      <trkpt lat="45.95800400711596" lon="8.814834002405405">
        <ele>837.45000000000005</ele>
        <time>2012-12-21T12:24:35Z</time>
      </trkpt>
      <trkpt lat="45.957782976329327" lon="8.815014967694879">
        <ele>836.96000000000004</ele>
        <time>2012-12-21T12:24:17Z</time>
      </trkpt>
      <trkpt lat="45.957599999383092" lon="8.815114041790366">
        <ele>836.96000000000004</ele>
        <time>2012-12-21T12:24:01Z</time>
      </trkpt>
      <trkpt lat="45.957458009943366" lon="8.815198028460145">
        <ele>835.51999999999998</ele>
        <time>2012-12-21T12:23:47Z</time>
      </trkpt>
      <trkpt lat="45.957351978868246" lon="8.815230969339609">
        <ele>833.60000000000002</ele>
        <time>2012-12-21T12:23:28Z</time>
      </trkpt>
      <trkpt lat="45.957344016060233" lon="8.815233986824751">
        <ele>833.60000000000002</ele>
        <time>2012-12-21T12:23:27Z</time>
      </trkpt>
      <trkpt lat="45.957169001922011" lon="8.815334988757968">
        <ele>831.67999999999995</ele>
        <time>2012-12-21T12:23:10Z</time>
      </trkpt>
      <trkpt lat="45.957161039113998" lon="8.815594995394349">
        <ele>830.24000000000001</ele>
        <time>2012-12-21T12:22:52Z</time>
      </trkpt>
      <trkpt lat="45.957161039113998" lon="8.815594995394349">
        <ele>829.26999999999998</ele>
        <time>2012-12-21T12:22:35Z</time>
      </trkpt>
      <trkpt lat="45.9571039583534" lon="8.815718963742256">
        <ele>828.30999999999995</ele>
        <time>2012-12-21T12:22:21Z</time>
      </trkpt>
      <trkpt lat="45.95710001885891" lon="8.815734973177314">
        <ele>828.30999999999995</ele>
        <time>2012-12-21T12:22:03Z</time>
      </trkpt>
      <trkpt lat="45.957073029130697" lon="8.815915016457439">
        <ele>826.87</ele>
        <time>2012-12-21T12:21:46Z</time>
      </trkpt>
      <trkpt lat="45.957073029130697" lon="8.815915016457439">
        <ele>826.87</ele>
        <time>2012-12-21T12:21:29Z</time>
      </trkpt>
      <trkpt lat="45.957054002210498" lon="8.815945023670793">
        <ele>826.38999999999999</ele>
        <time>2012-12-21T12:21:15Z</time>
      </trkpt>
      <trkpt lat="45.957023994997144" lon="8.816181980073452">
        <ele>826.38999999999999</ele>
        <time>2012-12-21T12:21:01Z</time>
      </trkpt>
      <trkpt lat="45.956962974742055" lon="8.816420026123524">
        <ele>825.90999999999997</ele>
        <time>2012-12-21T12:20:48Z</time>
      </trkpt>
      <trkpt lat="45.95690899528563" lon="8.816572995856404">
        <ele>825.42999999999995</ele>
        <time>2012-12-21T12:20:36Z</time>
      </trkpt>
      <trkpt lat="45.956878988072276" lon="8.816726971417666">
        <ele>825.42999999999995</ele>
        <time>2012-12-21T12:20:22Z</time>
      </trkpt>
      <trkpt lat="45.956923998892307" lon="8.81690701469779">
        <ele>824.95000000000005</ele>
        <time>2012-12-21T12:20:06Z</time>
      </trkpt>
      <trkpt lat="45.957031035795808" lon="8.817194011062384">
        <ele>824.47000000000003</ele>
        <time>2012-12-21T12:19:50Z</time>
      </trkpt>
      <trkpt lat="45.957034975290298" lon="8.817219994962215">
        <ele>826.38999999999999</ele>
        <time>2012-12-21T12:19:48Z</time>
      </trkpt>
      <trkpt lat="45.957076968625188" lon="8.817425016313791">
        <ele>824.95000000000005</ele>
        <time>2012-12-21T12:19:39Z</time>
      </trkpt>
      <trkpt lat="45.957091972231865" lon="8.8174660038203">
        <ele>824.47000000000003</ele>
        <time>2012-12-21T12:19:37Z</time>
      </trkpt>
      <trkpt lat="45.95710001885891" lon="8.817496011033654">
        <ele>825.90999999999997</ele>
        <time>2012-12-21T12:19:34Z</time>
      </trkpt>
      <trkpt lat="45.95710001885891" lon="8.817496011033654">
        <ele>821.58000000000004</ele>
        <time>2012-12-21T12:19:33Z</time>
      </trkpt>
      <trkpt lat="45.95710001885891" lon="8.817496011033654">
        <ele>826.87</ele>
        <time>2012-12-21T12:19:31Z</time>
      </trkpt>
      <trkpt lat="45.95710001885891" lon="8.817496011033654">
        <ele>833.60000000000002</ele>
        <time>2012-12-21T12:19:30Z</time>
      </trkpt>
      <trkpt lat="45.95710001885891" lon="8.817496011033654">
        <ele>818.70000000000005</ele>
        <time>2012-12-21T12:19:29Z</time>
      </trkpt>
      <trkpt lat="45.95710001885891" lon="8.817496011033654">
        <ele>825.90999999999997</ele>
        <time>2012-12-21T12:19:25Z</time>
      </trkpt>
      <trkpt lat="45.95710001885891" lon="8.817496011033654">
        <ele>822.54999999999995</ele>
        <time>2012-12-21T12:19:24Z</time>
      </trkpt>
      <trkpt lat="45.95710001885891" lon="8.817496011033654">
        <ele>826.87</ele>
        <time>2012-12-21T12:19:23Z</time>
      </trkpt>
      <trkpt lat="45.957107981666923" lon="8.817502968013287">
        <ele>822.54999999999995</ele>
        <time>2012-12-21T12:19:22Z</time>
      </trkpt>
      <trkpt lat="45.957115022465587" lon="8.817515037953854">
        <ele>826.87</ele>
        <time>2012-12-21T12:19:21Z</time>
      </trkpt>
      <trkpt lat="45.9571229852736" lon="8.817524006590247">
        <ele>822.54999999999995</ele>
        <time>2012-12-21T12:19:20Z</time>
      </trkpt>
      <trkpt lat="45.9571229852736" lon="8.81752903573215">
        <ele>826.38999999999999</ele>
        <time>2012-12-21T12:19:19Z</time>
      </trkpt>
      <trkpt lat="45.957199009135365" lon="8.817704971879721">
        <ele>825.42999999999995</ele>
        <time>2012-12-21T12:19:07Z</time>
      </trkpt>
      <trkpt lat="45.957275032997131" lon="8.817883003503084">
        <ele>825.90999999999997</ele>
        <time>2012-12-21T12:18:57Z</time>
      </trkpt>
      <trkpt lat="45.957339992746711" lon="8.818062962964177">
        <ele>825.42999999999995</ele>
        <time>2012-12-21T12:18:49Z</time>
      </trkpt>
      <trkpt lat="45.957351978868246" lon="8.818111997097731">
        <ele>825.42999999999995</ele>
        <time>2012-12-21T12:18:45Z</time>
      </trkpt>
      <trkpt lat="45.957447029650211" lon="8.8183259870857">
        <ele>824.95000000000005</ele>
        <time>2012-12-21T12:18:34Z</time>
      </trkpt>
      <trkpt lat="45.957516012713313" lon="8.818408967927098">
        <ele>824.47000000000003</ele>
        <time>2012-12-21T12:18:25Z</time>
      </trkpt>
      <trkpt lat="45.957625983282924" lon="8.818537965416908">
        <ele>823.99000000000001</ele>
        <time>2012-12-21T12:18:13Z</time>
      </trkpt>
      <trkpt lat="45.957706030458212" lon="8.818748015910387">
        <ele>823.50999999999999</ele>
        <time>2012-12-21T12:18:00Z</time>
      </trkpt>
      <trkpt lat="45.957751963287592" lon="8.818885982036591">
        <ele>823.02999999999997</ele>
        <time>2012-12-21T12:17:50Z</time>
      </trkpt>
      <trkpt lat="45.957817006856203" lon="8.818987989798188">
        <ele>822.54999999999995</ele>
        <time>2012-12-21T12:17:43Z</time>
      </trkpt>
      <trkpt lat="45.957935024052858" lon="8.819263000041246">
        <ele>821.10000000000002</ele>
        <time>2012-12-21T12:17:28Z</time>
      </trkpt>
      <trkpt lat="45.957984980195761" lon="8.819358972832561">
        <ele>821.10000000000002</ele>
        <time>2012-12-21T12:17:23Z</time>
      </trkpt>
      <trkpt lat="45.95806896686554" lon="8.819512026384473">
        <ele>820.62</ele>
        <time>2012-12-21T12:17:11Z</time>
      </trkpt>
      <trkpt lat="45.958213973790407" lon="8.819719981402159">
        <ele>820.62</ele>
        <time>2012-12-21T12:16:55Z</time>
      </trkpt>
      <trkpt lat="45.958252027630806" lon="8.819775972515345">
        <ele>820.13999999999999</ele>
        <time>2012-12-21T12:16:46Z</time>
      </trkpt>
      <trkpt lat="45.958373984321952" lon="8.819922991096973">
        <ele>819.65999999999997</ele>
        <time>2012-12-21T12:16:33Z</time>
      </trkpt>
      <trkpt lat="45.958553021773696" lon="8.820035979151726">
        <ele>820.62</ele>
        <time>2012-12-21T12:16:21Z</time>
      </trkpt>
      <trkpt lat="45.958587974309921" lon="8.820056011900306">
        <ele>821.10000000000002</ele>
        <time>2012-12-21T12:16:18Z</time>
      </trkpt>
      <trkpt lat="45.958735998719931" lon="8.820244017988443">
        <ele>823.50999999999999</ele>
        <time>2012-12-21T12:16:03Z</time>
      </trkpt>
      <trkpt lat="45.958774974569678" lon="8.820309983566403">
        <ele>823.99000000000001</ele>
        <time>2012-12-21T12:15:57Z</time>
      </trkpt>
      <trkpt lat="45.958903972059488" lon="8.820599997416139">
        <ele>823.99000000000001</ele>
        <time>2012-12-21T12:15:42Z</time>
      </trkpt>
      <trkpt lat="45.95892702229321" lon="8.820783980190754">
        <ele>823.02999999999997</ele>
        <time>2012-12-21T12:15:34Z</time>
      </trkpt>
      <trkpt lat="45.958934985101223" lon="8.82086000405252">
        <ele>823.02999999999997</ele>
        <time>2012-12-21T12:15:31Z</time>
      </trkpt>
      <trkpt lat="45.958930961787701" lon="8.820919012650847">
        <ele>822.54999999999995</ele>
        <time>2012-12-21T12:15:27Z</time>
      </trkpt>
      <trkpt lat="45.95892702229321" lon="8.820929992944002">
        <ele>822.54999999999995</ele>
        <time>2012-12-21T12:14:59Z</time>
      </trkpt>
      <trkpt lat="45.958919981494546" lon="8.820929992944002">
        <ele>823.02999999999997</ele>
        <time>2012-12-21T12:14:35Z</time>
      </trkpt>
      <trkpt lat="45.958919981494546" lon="8.820929992944002">
        <ele>822.54999999999995</ele>
        <time>2012-12-21T12:14:07Z</time>
      </trkpt>
      <trkpt lat="45.958915958181024" lon="8.820930998772383">
        <ele>823.02999999999997</ele>
        <time>2012-12-21T12:13:39Z</time>
      </trkpt>
      <trkpt lat="45.958915958181024" lon="8.820930998772383">
        <ele>823.02999999999997</ele>
        <time>2012-12-21T12:13:16Z</time>
      </trkpt>
      <trkpt lat="45.958892991766334" lon="8.821148006245494">
        <ele>823.50999999999999</ele>
        <time>2012-12-21T12:13:01Z</time>
      </trkpt>
      <trkpt lat="45.958892991766334" lon="8.821154963225126">
        <ele>824.47000000000003</ele>
        <time>2012-12-21T12:12:57Z</time>
      </trkpt>
      <trkpt lat="45.958892991766334" lon="8.82126996293664">
        <ele>823.02999999999997</ele>
        <time>2012-12-21T12:12:43Z</time>
      </trkpt>
      <trkpt lat="45.958885028958321" lon="8.821309022605419">
        <ele>823.02999999999997</ele>
        <time>2012-12-21T12:12:28Z</time>
      </trkpt>
      <trkpt lat="45.958912018686533" lon="8.821328971534967">
        <ele>823.50999999999999</ele>
        <time>2012-12-21T12:12:09Z</time>
      </trkpt>
      <trkpt lat="45.958912018686533" lon="8.82133299484849">
        <ele>823.02999999999997</ele>
        <time>2012-12-21T12:11:45Z</time>
      </trkpt>
      <trkpt lat="45.958915958181024" lon="8.82131103426218">
        <ele>822.54999999999995</ele>
        <time>2012-12-21T12:11:26Z</time>
      </trkpt>
      <trkpt lat="45.959000028669834" lon="8.821292007341981">
        <ele>823.50999999999999</ele>
        <time>2012-12-21T12:11:14Z</time>
      </trkpt>
      <trkpt lat="45.959105975925922" lon="8.8211839646101">
        <ele>823.50999999999999</ele>
        <time>2012-12-21T12:11:00Z</time>
      </trkpt>
      <trkpt lat="45.959224998950958" lon="8.821050021797419">
        <ele>824.95000000000005</ele>
        <time>2012-12-21T12:10:46Z</time>
      </trkpt>
      <trkpt lat="45.959286019206047" lon="8.82101196795702">
        <ele>825.42999999999995</ele>
        <time>2012-12-21T12:10:38Z</time>
      </trkpt>
      <trkpt lat="45.959312003105879" lon="8.820980032905936">
        <ele>825.42999999999995</ele>
        <time>2012-12-21T12:10:24Z</time>
      </trkpt>
      <trkpt lat="45.959370005875826" lon="8.820805018767715">
        <ele>827.83000000000004</ele>
        <time>2012-12-21T12:10:11Z</time>
      </trkpt>
      <trkpt lat="45.959464972838759" lon="8.820691024884582">
        <ele>827.83000000000004</ele>
        <time>2012-12-21T12:10:00Z</time>
      </trkpt>
      <trkpt lat="45.959648033604026" lon="8.820626987144351">
        <ele>827.83000000000004</ele>
        <time>2012-12-21T12:09:46Z</time>
      </trkpt>
      <trkpt lat="45.959686003625393" lon="8.820599997416139">
        <ele>828.30999999999995</ele>
        <time>2012-12-21T12:09:41Z</time>
      </trkpt>
      <trkpt lat="45.959686003625393" lon="8.820599997416139">
        <ele>828.30999999999995</ele>
        <time>2012-12-21T12:09:40Z</time>
      </trkpt>
      <trkpt lat="45.959765966981649" lon="8.820598991587758">
        <ele>828.78999999999996</ele>
        <time>2012-12-21T12:09:28Z</time>
      </trkpt>
      <trkpt lat="45.95989597029984" lon="8.82053897716105">
        <ele>829.75999999999999</ele>
        <time>2012-12-21T12:09:17Z</time>
      </trkpt>
      <trkpt lat="45.959946010261774" lon="8.820461025461555">
        <ele>832.63999999999999</ele>
        <time>2012-12-21T12:09:05Z</time>
      </trkpt>
      <trkpt lat="45.960071990266442" lon="8.820348959416151">
        <ele>835.51999999999998</ele>
        <time>2012-12-21T12:08:53Z</time>
      </trkpt>
      <trkpt lat="45.96015203744173" lon="8.820276036858559">
        <ele>838.88999999999999</ele>
        <time>2012-12-21T12:08:44Z</time>
      </trkpt>
      <trkpt lat="45.960311964154243" lon="8.820238988846541">
        <ele>841.28999999999996</ele>
        <time>2012-12-21T12:08:36Z</time>
      </trkpt>
      <trkpt lat="45.960320010781288" lon="8.82023798301816">
        <ele>841.28999999999996</ele>
        <time>2012-12-21T12:08:29Z</time>
      </trkpt>
      <trkpt lat="45.960360998287797" lon="8.820225996896625">
        <ele>841.76999999999998</ele>
        <time>2012-12-21T12:08:06Z</time>
      </trkpt>
      <trkpt lat="45.960419001057744" lon="8.820256004109979">
        <ele>842.25</ele>
        <time>2012-12-21T12:07:55Z</time>
      </trkpt>
      <trkpt lat="45.9606250282377" lon="8.819989962503314">
        <ele>845.13999999999999</ele>
        <time>2012-12-21T12:07:41Z</time>
      </trkpt>
      <trkpt lat="45.960724018514156" lon="8.819839004427195">
        <ele>848.01999999999998</ele>
        <time>2012-12-21T12:07:30Z</time>
      </trkpt>
      <trkpt lat="45.960830971598625" lon="8.819701038300991">
        <ele>851.87</ele>
        <time>2012-12-21T12:07:21Z</time>
      </trkpt>
      <trkpt lat="45.960845975205302" lon="8.819673964753747">
        <ele>854.75</ele>
        <time>2012-12-21T12:07:14Z</time>
      </trkpt>
      <trkpt lat="45.960854021832347" lon="8.819642029702663">
        <ele>858.11000000000001</ele>
        <time>2012-12-21T12:07:04Z</time>
      </trkpt>
      <trkpt lat="45.960978996008635" lon="8.819649992510676">
        <ele>857.63</ele>
        <time>2012-12-21T12:06:53Z</time>
      </trkpt>
      <trkpt lat="45.961108999326825" lon="8.819744037464261">
        <ele>857.63</ele>
        <time>2012-12-21T12:06:42Z</time>
      </trkpt>
      <trkpt lat="45.961261969059706" lon="8.819853002205491">
        <ele>858.11000000000001</ele>
        <time>2012-12-21T12:06:30Z</time>
      </trkpt>
      <trkpt lat="45.961364982649684" lon="8.819927014410496">
        <ele>859.08000000000004</ele>
        <time>2012-12-21T12:06:19Z</time>
      </trkpt>
      <trkpt lat="45.961487023159862" lon="8.820041008293629">
        <ele>859.55999999999995</ele>
        <time>2012-12-21T12:06:08Z</time>
      </trkpt>
      <trkpt lat="45.961608979851007" lon="8.82017302326858">
        <ele>859.55999999999995</ele>
        <time>2012-12-21T12:05:53Z</time>
      </trkpt>
      <trkpt lat="45.961704030632973" lon="8.820230020210147">
        <ele>859.55999999999995</ele>
        <time>2012-12-21T12:05:40Z</time>
      </trkpt>
      <trkpt lat="45.961841996759176" lon="8.820283999666572">
        <ele>860.03999999999996</ele>
        <time>2012-12-21T12:05:26Z</time>
      </trkpt>
      <trkpt lat="45.961906034499407" lon="8.820243012160063">
        <ele>860.51999999999998</ele>
        <time>2012-12-21T12:05:09Z</time>
      </trkpt>
      <trkpt lat="45.961987003684044" lon="8.820239994674921">
        <ele>861.48000000000002</ele>
        <time>2012-12-21T12:04:57Z</time>
      </trkpt>
      <trkpt lat="45.962090017274022" lon="8.820334961637855">
        <ele>861.48000000000002</ele>
        <time>2012-12-21T12:04:45Z</time>
      </trkpt>
      <trkpt lat="45.962153971195221" lon="8.820484997704625">
        <ele>861.48000000000002</ele>
        <time>2012-12-21T12:04:31Z</time>
      </trkpt>
      <trkpt lat="45.962090017274022" lon="8.82071197964251">
        <ele>860.03999999999996</ele>
        <time>2012-12-21T12:04:17Z</time>
      </trkpt>
      <trkpt lat="45.96204400062561" lon="8.820823961868882">
        <ele>856.66999999999996</ele>
        <time>2012-12-21T12:04:09Z</time>
      </trkpt>
      <trkpt lat="45.962039977312088" lon="8.820865033194423">
        <ele>856.66999999999996</ele>
        <time>2012-12-21T12:04:07Z</time>
      </trkpt>
      <trkpt lat="45.962039977312088" lon="8.820865033194423">
        <ele>856.66999999999996</ele>
        <time>2012-12-21T12:04:05Z</time>
      </trkpt>
      <trkpt lat="45.962048023939133" lon="8.820979027077556">
        <ele>855.71000000000004</ele>
        <time>2012-12-21T12:03:54Z</time>
      </trkpt>
      <trkpt lat="45.961941154673696" lon="8.821086902171373">
        <ele>868.78999999999996</ele>
        <time>2018-05-05T08:37:21Z</time>
      </trkpt>
      <trkpt lat="45.962047185748816" lon="8.821197208017111">
        <ele>868.08000000000004</ele>
        <time>2018-05-05T08:37:33Z</time>
      </trkpt>
      <trkpt lat="45.962086329236627" lon="8.82121573202312">
        <ele>868.58000000000004</ele>
        <time>2018-05-05T08:37:39Z</time>
      </trkpt>
      <trkpt lat="45.962219182401896" lon="8.821187149733305">
        <ele>869.38</ele>
        <time>2018-05-05T08:37:58Z</time>
      </trkpt>
      <trkpt lat="45.962268384173512" lon="8.821148090064526">
        <ele>870.38</ele>
        <time>2018-05-05T08:38:17Z</time>
      </trkpt>
      <trkpt lat="45.962335523217916" lon="8.82116443477571">
        <ele>870.63999999999999</ele>
        <time>2018-05-05T08:38:44Z</time>
      </trkpt>
      <trkpt lat="45.962342983111739" lon="8.82116636261344">
        <ele>870.82000000000005</ele>
        <time>2018-05-05T08:38:45Z</time>
      </trkpt>
      <trkpt lat="45.962499137967825" lon="8.821148173883557">
        <ele>873.79999999999995</ele>
        <time>2018-05-05T08:39:00Z</time>
      </trkpt>
      <trkpt lat="45.962562253698707" lon="8.821146916598082">
        <ele>875.62</ele>
        <time>2018-05-05T08:39:07Z</time>
      </trkpt>
      <trkpt lat="45.962666608393192" lon="8.821151191368699">
        <ele>877.41999999999996</ele>
        <time>2018-05-05T08:39:15Z</time>
      </trkpt>
      <trkpt lat="45.962882023304701" lon="8.82117860019207">
        <ele>879.49000000000001</ele>
        <time>2018-05-05T08:39:33Z</time>
      </trkpt>
      <trkpt lat="45.962984785437584" lon="8.821215564385057">
        <ele>879.11000000000001</ele>
        <time>2018-05-05T08:39:42Z</time>
      </trkpt>
      <trkpt lat="45.963184107095003" lon="8.821215061470866">
        <ele>878.82000000000005</ele>
        <time>2018-05-05T08:39:57Z</time>
      </trkpt>
      <trkpt lat="45.963324168697" lon="8.821194022893906">
        <ele>879.60000000000002</ele>
        <time>2018-05-05T08:40:08Z</time>
      </trkpt>
      <trkpt lat="45.96339063718915" lon="8.821236351504922">
        <ele>879.45000000000005</ele>
        <time>2018-05-05T08:40:14Z</time>
      </trkpt>
      <trkpt lat="45.963455932214856" lon="8.821169212460518">
        <ele>877.83000000000004</ele>
        <time>2018-05-05T08:40:29Z</time>
      </trkpt>
      <trkpt lat="45.963461045175791" lon="8.821178432554007">
        <ele>877.76999999999998</ele>
        <time>2018-05-05T08:40:30Z</time>
      </trkpt>
      <trkpt lat="45.963579481467605" lon="8.821149682626128">
        <ele>877.52999999999997</ele>
        <time>2018-05-05T08:40:43Z</time>
      </trkpt>
      <trkpt lat="45.963590126484632" lon="8.821170385926962">
        <ele>877.24000000000001</ele>
        <time>2018-05-05T08:40:56Z</time>
      </trkpt>
      <trkpt lat="45.963610745966434" lon="8.82115026935935">
        <ele>877.33000000000004</ele>
        <time>2018-05-05T08:41:02Z</time>
      </trkpt>
      <trkpt lat="45.963740581646562" lon="8.821157896891236">
        <ele>875.55999999999995</ele>
        <time>2018-05-05T08:41:16Z</time>
      </trkpt>
      <trkpt lat="45.963822975754738" lon="8.82112436927855">
        <ele>872.98000000000002</ele>
        <time>2018-05-05T08:41:33Z</time>
      </trkpt>
      <trkpt lat="45.963828759267926" lon="8.821133086457849">
        <ele>872.86000000000001</ele>
        <time>2018-05-05T08:41:34Z</time>
      </trkpt>
      <trkpt lat="45.963849294930696" lon="8.821159489452839">
        <ele>872.57000000000005</ele>
        <time>2018-05-05T08:41:37Z</time>
      </trkpt>
      <trkpt lat="45.963960606604815" lon="8.821251187473536">
        <ele>869.77999999999997</ele>
        <time>2018-05-05T08:41:51Z</time>
      </trkpt>
      <trkpt lat="45.9640356246382" lon="8.821241380646825">
        <ele>866.69000000000005</ele>
        <time>2018-05-05T08:42:02Z</time>
      </trkpt>
      <trkpt lat="45.964087257161736" lon="8.821309609338641">
        <ele>863.64999999999998</ele>
        <time>2018-05-05T08:42:17Z</time>
      </trkpt>
      <trkpt lat="45.964099243283272" lon="8.821312123909593">
        <ele>863.47000000000003</ele>
        <time>2018-05-05T08:42:18Z</time>
      </trkpt>
      <trkpt lat="45.964130256325006" lon="8.821318997070193">
        <ele>862.64999999999998</ele>
        <time>2018-05-05T08:42:21Z</time>
      </trkpt>
      <trkpt lat="45.964197982102633" lon="8.821296533569694">
        <ele>861.33000000000004</ele>
        <time>2018-05-05T08:42:27Z</time>
      </trkpt>
      <trkpt lat="45.964296888560057" lon="8.821255713701248">
        <ele>857.88</ele>
        <time>2018-05-05T08:42:43Z</time>
      </trkpt>
      <trkpt lat="45.964351538568735" lon="8.821255965158343">
        <ele>855.5</ele>
        <time>2018-05-05T08:42:53Z</time>
      </trkpt>
      <trkpt lat="45.964366374537349" lon="8.821307513862848">
        <ele>854.66999999999996</ele>
        <time>2018-05-05T08:42:57Z</time>
      </trkpt>
      <trkpt lat="45.964430579915643" lon="8.821362666785717">
        <ele>851.37</ele>
        <time>2018-05-05T08:43:09Z</time>
      </trkpt>
      <trkpt lat="45.96450325101614" lon="8.821177845820785">
        <ele>852.38</ele>
        <time>2018-05-05T08:43:29Z</time>
      </trkpt>
      <trkpt lat="45.964607521891594" lon="8.82108623161912">
        <ele>855.39999999999998</ele>
        <time>2018-05-05T08:43:46Z</time>
      </trkpt>
      <trkpt lat="45.964688826352358" lon="8.821125878021121">
        <ele>856.41999999999996</ele>
        <time>2018-05-05T08:44:07Z</time>
      </trkpt>
      <trkpt lat="45.964716486632824" lon="8.82118932902813">
        <ele>854.73000000000002</ele>
        <time>2018-05-05T08:56:00Z</time>
      </trkpt>
      <trkpt lat="45.96476761624217" lon="8.821181198582053">
        <ele>854.98000000000002</ele>
        <time>2018-05-05T08:56:04Z</time>
      </trkpt>
      <trkpt lat="45.96480374224484" lon="8.821187317371368">
        <ele>854.88999999999999</ele>
        <time>2018-05-05T08:56:07Z</time>
      </trkpt>
      <trkpt lat="45.964969452470541" lon="8.821122525259852">
        <ele>853.94000000000005</ele>
        <time>2018-05-05T08:56:18Z</time>
      </trkpt>
      <trkpt lat="45.965189477428794" lon="8.821055386215448">
        <ele>852.02999999999997</ele>
        <time>2018-05-05T08:56:34Z</time>
      </trkpt>
      <trkpt lat="45.965236248448491" lon="8.821017583832145">
        <ele>851.77999999999997</ele>
        <time>2018-05-05T08:56:38Z</time>
      </trkpt>
      <trkpt lat="45.965432552620769" lon="8.820843659341335">
        <ele>851.87</ele>
        <time>2018-05-05T08:56:53Z</time>
      </trkpt>
      <trkpt lat="45.965532129630446" lon="8.820707453414798">
        <ele>852.79999999999995</ele>
        <time>2018-05-05T08:57:05Z</time>
      </trkpt>
      <trkpt lat="45.965629443526268" lon="8.820594549179077">
        <ele>853.38</ele>
        <time>2018-05-05T08:57:23Z</time>
      </trkpt>
      <trkpt lat="45.965648051351309" lon="8.82056437432766">
        <ele>853.28999999999996</ele>
        <time>2018-05-05T08:57:25Z</time>
      </trkpt>
      <trkpt lat="45.965766320005059" lon="8.820460103452206">
        <ele>852.72000000000003</ele>
        <time>2018-05-05T08:57:36Z</time>
      </trkpt>
      <trkpt lat="45.965845780447125" lon="8.820453649386764">
        <ele>852.75999999999999</ele>
        <time>2018-05-05T08:57:43Z</time>
      </trkpt>
      <trkpt lat="45.965911829844117" lon="8.820649534463882">
        <ele>854.03999999999996</ele>
        <time>2018-05-05T08:57:55Z</time>
      </trkpt>
      <trkpt lat="45.965938400477171" lon="8.82074517197907">
        <ele>854.99000000000001</ele>
        <time>2018-05-05T08:58:03Z</time>
      </trkpt>
      <trkpt lat="45.965940412133932" lon="8.820895627140999">
        <ele>856.20000000000005</ele>
        <time>2018-05-05T08:58:13Z</time>
      </trkpt>
      <trkpt lat="45.965903783217072" lon="8.820989588275552">
        <ele>856.25</ele>
        <time>2018-05-05T08:58:19Z</time>
      </trkpt>
      <trkpt lat="45.96591048873961" lon="8.821189915761352">
        <ele>855.12</ele>
        <time>2018-05-05T08:58:32Z</time>
      </trkpt>
      <trkpt lat="45.966002102941275" lon="8.821242805570364">
        <ele>852.72000000000003</ele>
        <time>2018-05-05T09:07:59Z</time>
      </trkpt>
      <trkpt lat="45.966016184538603" lon="8.821270214393735">
        <ele>852.42999999999995</ele>
        <time>2018-05-05T09:08:01Z</time>
      </trkpt>
      <trkpt lat="45.966163035482168" lon="8.821375072002411">
        <ele>850</ele>
        <time>2018-05-05T09:08:18Z</time>
      </trkpt>
      <trkpt lat="45.966241490095854" lon="8.821407677605748">
        <ele>847.90999999999997</ele>
        <time>2018-05-05T09:08:33Z</time>
      </trkpt>
      <trkpt lat="45.966338720172644" lon="8.821427961811423">
        <ele>844.90999999999997</ele>
        <time>2018-05-05T09:08:47Z</time>
      </trkpt>
      <trkpt lat="45.966401416808367" lon="8.821418657898903">
        <ele>842.74000000000001</ele>
        <time>2018-05-05T09:08:58Z</time>
      </trkpt>
      <trkpt lat="45.966516332700849" lon="8.821408348158002">
        <ele>841.42999999999995</ele>
        <time>2018-05-05T09:09:16Z</time>
      </trkpt>
      <trkpt lat="45.966660920530558" lon="8.821438606828451">
        <ele>839.15999999999997</ele>
        <time>2018-05-05T09:09:31Z</time>
      </trkpt>
      <trkpt lat="45.966847501695156" lon="8.821540279313922">
        <ele>838.77999999999997</ele>
        <time>2018-05-05T09:09:49Z</time>
      </trkpt>
      <trkpt lat="45.966950934380293" lon="8.821583613753319">
        <ele>838.96000000000004</ele>
        <time>2018-05-05T09:09:56Z</time>
      </trkpt>
      <trkpt lat="45.967094684019685" lon="8.821616554632783">
        <ele>839.48000000000002</ele>
        <time>2018-05-05T09:10:11Z</time>
      </trkpt>
      <trkpt lat="45.967299286276102" lon="8.821611106395721">
        <ele>840.21000000000004</ele>
        <time>2018-05-05T09:10:28Z</time>
      </trkpt>
      <trkpt lat="45.967477653175592" lon="8.821497950702906">
        <ele>839.83000000000004</ele>
        <time>2018-05-05T09:10:42Z</time>
      </trkpt>
      <trkpt lat="45.967671861872077" lon="8.82144832983613">
        <ele>839.16999999999996</ele>
        <time>2018-05-05T09:11:01Z</time>
      </trkpt>
      <trkpt lat="45.967821143567562" lon="8.82136819884181">
        <ele>838.58000000000004</ele>
        <time>2018-05-05T09:11:22Z</time>
      </trkpt>
      <trkpt lat="45.967968329787254" lon="8.821279434487224">
        <ele>837.98000000000002</ele>
        <time>2018-05-05T09:11:38Z</time>
      </trkpt>
      <trkpt lat="45.968159940093756" lon="8.821091763675213">
        <ele>837.21000000000004</ele>
        <time>2018-05-05T09:11:58Z</time>
      </trkpt>
      <trkpt lat="45.96841081045568" lon="8.820899063721299">
        <ele>835.02999999999997</ele>
        <time>2018-05-05T09:12:15Z</time>
      </trkpt>
      <trkpt lat="45.968605354428291" lon="8.820675769820809">
        <ele>833.49000000000001</ele>
        <time>2018-05-05T09:12:31Z</time>
      </trkpt>
      <trkpt lat="45.968635613098741" lon="8.820568732917309">
        <ele>832.96000000000004</ele>
        <time>2018-05-05T09:12:37Z</time>
      </trkpt>
      <trkpt lat="45.968715408816934" lon="8.820434203371406">
        <ele>832.30999999999995</ele>
        <time>2018-05-05T09:12:45Z</time>
      </trkpt>
      <trkpt lat="45.968781709671021" lon="8.8203498814255">
        <ele>832.12</ele>
        <time>2018-05-05T09:12:50Z</time>
      </trkpt>
      <trkpt lat="45.9688432328403" lon="8.820196827873588">
        <ele>832.04999999999995</ele>
        <time>2018-05-05T09:12:59Z</time>
      </trkpt>
      <trkpt lat="45.968885896727443" lon="8.82007721811533">
        <ele>831.99000000000001</ele>
        <time>2018-05-05T09:13:04Z</time>
      </trkpt>
      <trkpt lat="45.968948258087039" lon="8.819814864546061">
        <ele>832.62</ele>
        <time>2018-05-05T09:13:18Z</time>
      </trkpt>
      <trkpt lat="45.968970889225602" lon="8.819488724693656">
        <ele>833.25</ele>
        <time>2018-05-05T09:13:38Z</time>
      </trkpt>
      <trkpt lat="45.968991173431277" lon="8.819274315610528">
        <ele>833.70000000000005</ele>
        <time>2018-05-05T09:13:56Z</time>
      </trkpt>
      <trkpt lat="45.968983210623264" lon="8.819093350321055">
        <ele>834.72000000000003</ele>
        <time>2018-05-05T09:14:14Z</time>
      </trkpt>
      <trkpt lat="45.968859661370516" lon="8.818815825507045">
        <ele>835.55999999999995</ele>
        <time>2018-05-05T09:14:34Z</time>
      </trkpt>
      <trkpt lat="45.968853877857327" lon="8.818802079185844">
        <ele>835.61000000000001</ele>
        <time>2018-05-05T09:14:35Z</time>
      </trkpt>
      <trkpt lat="45.968823870643973" lon="8.818747596815229">
        <ele>835.88999999999999</ele>
        <time>2018-05-05T09:14:38Z</time>
      </trkpt>
      <trkpt lat="45.968773663043976" lon="8.81850284524262">
        <ele>837.15999999999997</ele>
        <time>2018-05-05T09:14:52Z</time>
      </trkpt>
      <trkpt lat="45.968745080754161" lon="8.818352809175849">
        <ele>837.75999999999999</ele>
        <time>2018-05-05T09:15:04Z</time>
      </trkpt>
      <trkpt lat="45.968733681365848" lon="8.818240994587541">
        <ele>838.55999999999995</ele>
        <time>2018-05-05T09:15:21Z</time>
      </trkpt>
      <trkpt lat="45.968719264492393" lon="8.818168574944139">
        <ele>838.94000000000005</ele>
        <time>2018-05-05T09:15:25Z</time>
      </trkpt>
      <trkpt lat="45.968671906739473" lon="8.81802449002862">
        <ele>840.38</ele>
        <time>2018-05-05T09:15:39Z</time>
      </trkpt>
      <trkpt lat="45.968677354976535" lon="8.817916195839644">
        <ele>841.01999999999998</ele>
        <time>2018-05-05T09:15:48Z</time>
      </trkpt>
      <trkpt lat="45.968723203986883" lon="8.817652082070708">
        <ele>842.13</ele>
        <time>2018-05-05T09:16:02Z</time>
      </trkpt>
      <trkpt lat="45.968741811811924" lon="8.817552588880062">
        <ele>842.48000000000002</ele>
        <time>2018-05-05T09:16:06Z</time>
      </trkpt>
      <trkpt lat="45.968759832903743" lon="8.817497687414289">
        <ele>842.89999999999998</ele>
        <time>2018-05-05T09:16:09Z</time>
      </trkpt>
      <trkpt lat="45.968812806531787" lon="8.817272884771228">
        <ele>844.95000000000005</ele>
        <time>2018-05-05T09:16:21Z</time>
      </trkpt>
      <trkpt lat="45.968818422406912" lon="8.816992845386267">
        <ele>846.88999999999999</ele>
        <time>2018-05-05T09:16:35Z</time>
      </trkpt>
      <trkpt lat="45.968791516497731" lon="8.816711381077766">
        <ele>849.25</ele>
        <time>2018-05-05T09:16:51Z</time>
      </trkpt>
      <trkpt lat="45.968766203150153" lon="8.816528907045722">
        <ele>849.99000000000001</ele>
        <time>2018-05-05T09:16:57Z</time>
      </trkpt>
      <trkpt lat="45.968772238120437" lon="8.816424803808332">
        <ele>850.98000000000002</ele>
        <time>2018-05-05T09:17:02Z</time>
      </trkpt>
      <trkpt lat="45.968720773234963" lon="8.816248280927539">
        <ele>852.83000000000004</ele>
        <time>2018-05-05T09:17:12Z</time>
      </trkpt>
      <trkpt lat="45.968595966696739" lon="8.816099418327212">
        <ele>853.85000000000002</ele>
        <time>2018-05-05T09:17:24Z</time>
      </trkpt>
      <trkpt lat="45.968454480171204" lon="8.815956423059106">
        <ele>854.27999999999997</ele>
        <time>2018-05-05T09:17:40Z</time>
      </trkpt>
      <trkpt lat="45.968317603692412" lon="8.815841423347592">
        <ele>854.86000000000001</ele>
        <time>2018-05-05T09:17:53Z</time>
      </trkpt>
      <trkpt lat="45.968262115493417" lon="8.815774954855442">
        <ele>855.15999999999997</ele>
        <time>2018-05-05T09:17:58Z</time>
      </trkpt>
      <trkpt lat="45.968237556517124" lon="8.815733967348933">
        <ele>855.36000000000001</ele>
        <time>2018-05-05T09:18:01Z</time>
      </trkpt>
      <trkpt lat="45.968057261779904" lon="8.815659871324897">
        <ele>856.97000000000003</ele>
        <time>2018-05-05T09:18:15Z</time>
      </trkpt>
      <trkpt lat="45.967943435534835" lon="8.815656937658787">
        <ele>858.63999999999999</ele>
        <time>2018-05-05T09:18:27Z</time>
      </trkpt>
      <trkpt lat="45.967869255691767" lon="8.815677473321557">
        <ele>859.23000000000002</ele>
        <time>2018-05-05T09:18:33Z</time>
      </trkpt>
      <trkpt lat="45.967821897938848" lon="8.815690465271473">
        <ele>860.41999999999996</ele>
        <time>2018-05-05T09:18:47Z</time>
      </trkpt>
      <trkpt lat="45.967646883800626" lon="8.815669678151608">
        <ele>860.33000000000004</ele>
        <time>2018-05-05T09:19:15Z</time>
      </trkpt>
      <trkpt lat="45.967518473044038" lon="8.815678898245096">
        <ele>860.80999999999995</ele>
        <time>2018-05-05T09:19:29Z</time>
      </trkpt>
      <trkpt lat="45.967397689819336" lon="8.815601784735918">
        <ele>861.42999999999995</ele>
        <time>2018-05-05T09:19:45Z</time>
      </trkpt>
      <trkpt lat="45.967136258259416" lon="8.815574962645769">
        <ele>862.47000000000003</ele>
        <time>2018-05-05T09:20:04Z</time>
      </trkpt>
      <trkpt lat="45.966928722336888" lon="8.815526096150279">
        <ele>863.15999999999997</ele>
        <time>2018-05-05T09:20:17Z</time>
      </trkpt>
      <trkpt lat="45.966676846146584" lon="8.815421657636762">
        <ele>863.94000000000005</ele>
        <time>2018-05-05T09:20:33Z</time>
      </trkpt>
      <trkpt lat="45.966480122879148" lon="8.815300706773996">
        <ele>865.11000000000001</ele>
        <time>2018-05-05T09:20:49Z</time>
      </trkpt>
      <trkpt lat="45.966292703524232" lon="8.815193334594369">
        <ele>866.41999999999996</ele>
        <time>2018-05-05T09:21:04Z</time>
      </trkpt>
      <trkpt lat="45.966196311637759" lon="8.815172966569662">
        <ele>867.13</ele>
        <time>2018-05-05T09:21:11Z</time>
      </trkpt>
      <trkpt lat="45.966028170660138" lon="8.815143629908562">
        <ele>868.71000000000004</ele>
        <time>2018-05-05T09:21:23Z</time>
      </trkpt>
      <trkpt lat="45.965884337201715" lon="8.815045645460486">
        <ele>870.97000000000003</ele>
        <time>2018-05-05T09:21:36Z</time>
      </trkpt>
      <trkpt lat="45.96573849208653" lon="8.814881611615419">
        <ele>872.30999999999995</ele>
        <time>2018-05-05T09:21:49Z</time>
      </trkpt>
      <trkpt lat="45.965606058016419" lon="8.814776251092553">
        <ele>872.97000000000003</ele>
        <time>2018-05-05T09:22:00Z</time>
      </trkpt>
      <trkpt lat="45.965490555390716" lon="8.814640631899238">
        <ele>873.42999999999995</ele>
        <time>2018-05-05T09:22:12Z</time>
      </trkpt>
      <trkpt lat="45.965456357225776" lon="8.814592100679874">
        <ele>873.63999999999999</ele>
        <time>2018-05-05T09:22:16Z</time>
      </trkpt>
      <trkpt lat="45.965359630063176" lon="8.814498977735639">
        <ele>874.30999999999995</ele>
        <time>2018-05-05T09:22:24Z</time>
      </trkpt>
      <trkpt lat="45.96525083296001" lon="8.814480369910598">
        <ele>875.70000000000005</ele>
        <time>2018-05-05T09:22:41Z</time>
      </trkpt>
      <trkpt lat="45.965239768847823" lon="8.814467629417777">
        <ele>875.80999999999995</ele>
        <time>2018-05-05T09:22:42Z</time>
      </trkpt>
      <trkpt lat="45.965301962569356" lon="8.814556980505586">
        <ele>867.73000000000002</ele>
        <time>2012-12-21T11:50:31Z</time>
      </trkpt>
      <trkpt lat="45.96530900336802" lon="8.814582964405417">
        <ele>869.64999999999998</ele>
        <time>2012-12-21T11:50:46Z</time>
      </trkpt>
      <trkpt lat="45.965362982824445" lon="8.814735012128949">
        <ele>871.09000000000003</ele>
        <time>2012-12-21T11:51:00Z</time>
      </trkpt>
      <trkpt lat="45.965388966724277" lon="8.814841965213418">
        <ele>873.5</ele>
        <time>2012-12-21T11:51:17Z</time>
      </trkpt>
      <trkpt lat="45.965424003079534" lon="8.815042041242123">
        <ele>875.41999999999996</ele>
        <time>2012-12-21T11:51:32Z</time>
      </trkpt>
      <trkpt lat="45.965449986979365" lon="8.815286038443446">
        <ele>878.29999999999995</ele>
        <time>2012-12-21T11:51:50Z</time>
      </trkpt>
      <trkpt lat="45.965488040819764" lon="8.815438002347946">
        <ele>880.71000000000004</ele>
        <time>2012-12-21T11:52:07Z</time>
      </trkpt>
      <trkpt lat="45.9654810000211" lon="8.815496005117893">
        <ele>883.11000000000001</ele>
        <time>2012-12-21T11:52:24Z</time>
      </trkpt>
      <trkpt lat="45.965419979766011" lon="8.815599018707871">
        <ele>883.59000000000003</ele>
        <time>2012-12-21T11:52:39Z</time>
      </trkpt>
      <trkpt lat="45.965430960059166" lon="8.815766992047429">
        <ele>883.59000000000003</ele>
        <time>2012-12-21T11:52:51Z</time>
      </trkpt>
      <trkpt lat="45.965515030547976" lon="8.816010989248753">
        <ele>883.11000000000001</ele>
        <time>2012-12-21T11:53:05Z</time>
      </trkpt>
      <trkpt lat="45.965569010004401" lon="8.816338973119855">
        <ele>882.63</ele>
        <time>2012-12-21T11:53:19Z</time>
      </trkpt>
      <trkpt lat="45.965572027489543" lon="8.816491020843387">
        <ele>883.11000000000001</ele>
        <time>2012-12-21T11:53:34Z</time>
      </trkpt>
      <trkpt lat="45.965518970042467" lon="8.816712973639369">
        <ele>884.54999999999995</ele>
        <time>2012-12-21T11:53:47Z</time>
      </trkpt>
      <trkpt lat="45.965454010292888" lon="8.816819004714489">
        <ele>885.02999999999997</ele>
        <time>2012-12-21T11:53:54Z</time>
      </trkpt>
      <trkpt lat="45.965262986719608" lon="8.816961999982595">
        <ele>885.50999999999999</ele>
        <time>2012-12-21T11:54:08Z</time>
      </trkpt>
      <trkpt lat="45.965163996443152" lon="8.817085968330503">
        <ele>885.50999999999999</ele>
        <time>2012-12-21T11:54:20Z</time>
      </trkpt>
      <trkpt lat="45.965144969522953" lon="8.817115975543857">
        <ele>885.50999999999999</ele>
        <time>2012-12-21T11:54:22Z</time>
      </trkpt>
      <trkpt lat="45.964972972869873" lon="8.817308004945517">
        <ele>882.63</ele>
        <time>2012-12-21T11:54:37Z</time>
      </trkpt>
      <trkpt lat="45.964909018948674" lon="8.817523000761867">
        <ele>880.22000000000003</ele>
        <time>2012-12-21T11:54:48Z</time>
      </trkpt>
      <trkpt lat="45.964942965656519" lon="8.817644035443664">
        <ele>878.77999999999997</ele>
        <time>2012-12-21T11:54:54Z</time>
      </trkpt>
      <trkpt lat="45.964957969263196" lon="8.817670019343495">
        <ele>878.29999999999995</ele>
        <time>2012-12-21T11:54:56Z</time>
      </trkpt>
      <trkpt lat="45.964981019496918" lon="8.817920973524451">
        <ele>876.38</ele>
        <time>2012-12-21T11:55:10Z</time>
      </trkpt>
      <trkpt lat="45.965012032538652" lon="8.818231020122767">
        <ele>876.38</ele>
        <time>2012-12-21T11:55:23Z</time>
      </trkpt>
      <trkpt lat="45.965069029480219" lon="8.818419026210904">
        <ele>876.38</ele>
        <time>2012-12-21T11:55:36Z</time>
      </trkpt>
      <trkpt lat="45.96513700671494" lon="8.818594040349126">
        <ele>876.38</ele>
        <time>2012-12-21T11:55:47Z</time>
      </trkpt>
      <trkpt lat="45.965259969234467" lon="8.818813981488347">
        <ele>875.41999999999996</ele>
        <time>2012-12-21T11:56:02Z</time>
      </trkpt>
      <trkpt lat="45.965289976447821" lon="8.818995030596852">
        <ele>875.89999999999998</ele>
        <time>2012-12-21T11:56:16Z</time>
      </trkpt>
      <trkpt lat="45.965316966176033" lon="8.819200973957777">
        <ele>872.52999999999997</ele>
        <time>2012-12-21T11:56:31Z</time>
      </trkpt>
      <trkpt lat="45.965267010033131" lon="8.819371964782476">
        <ele>871.57000000000005</ele>
        <time>2012-12-21T11:56:46Z</time>
      </trkpt>
      <trkpt lat="45.965148992836475" lon="8.819583021104336">
        <ele>870.61000000000001</ele>
        <time>2012-12-21T11:56:54Z</time>
      </trkpt>
      <trkpt lat="45.964981019496918" lon="8.819849984720349">
        <ele>868.69000000000005</ele>
        <time>2012-12-21T11:57:07Z</time>
      </trkpt>
      <trkpt lat="45.964946988970041" lon="8.819878986105323">
        <ele>868.21000000000004</ele>
        <time>2012-12-21T11:57:12Z</time>
      </trkpt>
      <trkpt lat="45.964843975380063" lon="8.819971019402146">
        <ele>867.25</ele>
        <time>2012-12-21T11:57:24Z</time>
      </trkpt>
      <trkpt lat="45.964831989258528" lon="8.81997998803854">
        <ele>863.39999999999998</ele>
        <time>2012-12-21T11:57:33Z</time>
      </trkpt>
      <trkpt lat="45.964831989258528" lon="8.81997998803854">
        <ele>870.13</ele>
        <time>2012-12-21T11:57:34Z</time>
      </trkpt>
      <trkpt lat="45.964831989258528" lon="8.81997998803854">
        <ele>864.36000000000001</ele>
        <time>2012-12-21T11:57:36Z</time>
      </trkpt>
      <trkpt lat="45.964831989258528" lon="8.81997998803854">
        <ele>867.73000000000002</ele>
        <time>2012-12-21T11:57:37Z</time>
      </trkpt>
      <trkpt lat="45.964831989258528" lon="8.81997998803854">
        <ele>865.79999999999995</ele>
        <time>2012-12-21T11:57:42Z</time>
      </trkpt>
      <trkpt lat="45.964789995923638" lon="8.820011001080275">
        <ele>869.16999999999996</ele>
        <time>2012-12-21T11:57:52Z</time>
      </trkpt>
      <trkpt lat="45.964770969003439" lon="8.820023993030191">
        <ele>865.32000000000005</ele>
        <time>2012-12-21T11:57:53Z</time>
      </trkpt>
      <trkpt lat="45.964676002040505" lon="8.820118959993124">
        <ele>864.36000000000001</ele>
        <time>2012-12-21T11:58:00Z</time>
      </trkpt>
      <trkpt lat="45.964625962078571" lon="8.820147961378098">
        <ele>862.44000000000005</ele>
        <time>2012-12-21T11:58:03Z</time>
      </trkpt>
      <trkpt lat="45.964432004839182" lon="8.820260027423501">
        <ele>859.08000000000004</ele>
        <time>2012-12-21T11:58:16Z</time>
      </trkpt>
      <trkpt lat="45.964409038424492" lon="8.820276958867908">
        <ele>858.59000000000003</ele>
        <time>2012-12-21T11:58:19Z</time>
      </trkpt>
      <trkpt lat="45.964245004579425" lon="8.820356000214815">
        <ele>856.66999999999996</ele>
        <time>2012-12-21T11:58:34Z</time>
      </trkpt>
      <trkpt lat="45.96408499404788" lon="8.820262961089611">
        <ele>857.14999999999998</ele>
        <time>2012-12-21T11:58:45Z</time>
      </trkpt>
      <trkpt lat="45.963920960202813" lon="8.820290034636855">
        <ele>859.08000000000004</ele>
        <time>2012-12-21T11:58:55Z</time>
      </trkpt>
      <trkpt lat="45.96374100074172" lon="8.820276036858559">
        <ele>861.48000000000002</ele>
        <time>2012-12-21T11:59:11Z</time>
      </trkpt>
      <trkpt lat="45.963565986603498" lon="8.820283999666572">
        <ele>863.88</ele>
        <time>2012-12-21T11:59:29Z</time>
      </trkpt>
      <trkpt lat="45.963326012715697" lon="8.820316018536687">
        <ele>865.32000000000005</ele>
        <time>2012-12-21T11:59:45Z</time>
      </trkpt>
      <trkpt lat="45.963284019380808" lon="8.820338984951377">
        <ele>865.32000000000005</ele>
        <time>2012-12-21T12:00:02Z</time>
      </trkpt>
      <trkpt lat="45.963085032999516" lon="8.82036698050797">
        <ele>867.25</ele>
        <time>2012-12-21T12:00:19Z</time>
      </trkpt>
      <trkpt lat="45.962848998606205" lon="8.82041098549962">
        <ele>868.21000000000004</ele>
        <time>2012-12-21T12:00:37Z</time>
      </trkpt>
      <trkpt lat="45.962703991681337" lon="8.820482986047864">
        <ele>867.73000000000002</ele>
        <time>2012-12-21T12:00:52Z</time>
      </trkpt>
      <trkpt lat="45.962479021400213" lon="8.820504024624825">
        <ele>864.84000000000003</ele>
        <time>2012-12-21T12:01:06Z</time>
      </trkpt>
      <trkpt lat="45.962376007810235" lon="8.820449961349368">
        <ele>861.96000000000004</ele>
        <time>2012-12-21T12:01:18Z</time>
      </trkpt>
      <trkpt lat="45.962298978120089" lon="8.820398999378085">
        <ele>861.48000000000002</ele>
        <time>2012-12-21T12:01:32Z</time>
      </trkpt>
      <trkpt lat="45.962090017274022" lon="8.820334961637855">
        <ele>861.48000000000002</ele>
        <time>2012-12-21T12:04:45Z</time>
      </trkpt>
      <trkpt lat="45.961987003684044" lon="8.820239994674921">
        <ele>861.48000000000002</ele>
        <time>2012-12-21T12:04:57Z</time>
      </trkpt>
      <trkpt lat="45.961906034499407" lon="8.820243012160063">
        <ele>860.51999999999998</ele>
        <time>2012-12-21T12:05:09Z</time>
      </trkpt>
      <trkpt lat="45.961841996759176" lon="8.820283999666572">
        <ele>860.03999999999996</ele>
        <time>2012-12-21T12:05:26Z</time>
      </trkpt>
      <trkpt lat="45.961704030632973" lon="8.820230020210147">
        <ele>859.55999999999995</ele>
        <time>2012-12-21T12:05:40Z</time>
      </trkpt>
      <trkpt lat="45.961608979851007" lon="8.82017302326858">
        <ele>859.55999999999995</ele>
        <time>2012-12-21T12:05:53Z</time>
      </trkpt>
      <trkpt lat="45.961487023159862" lon="8.820041008293629">
        <ele>859.55999999999995</ele>
        <time>2012-12-21T12:06:08Z</time>
      </trkpt>
      <trkpt lat="45.961364982649684" lon="8.819927014410496">
        <ele>859.08000000000004</ele>
        <time>2012-12-21T12:06:19Z</time>
      </trkpt>
      <trkpt lat="45.961261969059706" lon="8.819853002205491">
        <ele>858.11000000000001</ele>
        <time>2012-12-21T12:06:30Z</time>
      </trkpt>
      <trkpt lat="45.961108999326825" lon="8.819744037464261">
        <ele>857.63</ele>
        <time>2012-12-21T12:06:42Z</time>
      </trkpt>
      <trkpt lat="45.960978996008635" lon="8.819649992510676">
        <ele>857.63</ele>
        <time>2012-12-21T12:06:53Z</time>
      </trkpt>
      <trkpt lat="45.960854021832347" lon="8.819642029702663">
        <ele>858.11000000000001</ele>
        <time>2012-12-21T12:07:04Z</time>
      </trkpt>
      <trkpt lat="45.960845975205302" lon="8.819673964753747">
        <ele>854.75</ele>
        <time>2012-12-21T12:07:14Z</time>
      </trkpt>
      <trkpt lat="45.960830971598625" lon="8.819701038300991">
        <ele>851.87</ele>
        <time>2012-12-21T12:07:21Z</time>
      </trkpt>
      <trkpt lat="45.960724018514156" lon="8.819839004427195">
        <ele>848.01999999999998</ele>
        <time>2012-12-21T12:07:30Z</time>
      </trkpt>
      <trkpt lat="45.9606250282377" lon="8.819989962503314">
        <ele>845.13999999999999</ele>
        <time>2012-12-21T12:07:41Z</time>
      </trkpt>
      <trkpt lat="45.960419001057744" lon="8.820256004109979">
        <ele>842.25</ele>
        <time>2012-12-21T12:07:55Z</time>
      </trkpt>
      <trkpt lat="45.960360998287797" lon="8.820225996896625">
        <ele>841.76999999999998</ele>
        <time>2012-12-21T12:08:06Z</time>
      </trkpt>
      <trkpt lat="45.960320010781288" lon="8.82023798301816">
        <ele>841.28999999999996</ele>
        <time>2012-12-21T12:08:29Z</time>
      </trkpt>
      <trkpt lat="45.960311964154243" lon="8.820238988846541">
        <ele>841.28999999999996</ele>
        <time>2012-12-21T12:08:36Z</time>
      </trkpt>
      <trkpt lat="45.96015203744173" lon="8.820276036858559">
        <ele>838.88999999999999</ele>
        <time>2012-12-21T12:08:44Z</time>
      </trkpt>
      <trkpt lat="45.960071990266442" lon="8.820348959416151">
        <ele>835.51999999999998</ele>
        <time>2012-12-21T12:08:53Z</time>
      </trkpt>
      <trkpt lat="45.959946010261774" lon="8.820461025461555">
        <ele>832.63999999999999</ele>
        <time>2012-12-21T12:09:05Z</time>
      </trkpt>
      <trkpt lat="45.95989597029984" lon="8.82053897716105">
        <ele>829.75999999999999</ele>
        <time>2012-12-21T12:09:17Z</time>
      </trkpt>
      <trkpt lat="45.959765966981649" lon="8.820598991587758">
        <ele>828.78999999999996</ele>
        <time>2012-12-21T12:09:28Z</time>
      </trkpt>
      <trkpt lat="45.959686003625393" lon="8.820599997416139">
        <ele>828.30999999999995</ele>
        <time>2012-12-21T12:09:40Z</time>
      </trkpt>
      <trkpt lat="45.959686003625393" lon="8.820599997416139">
        <ele>828.30999999999995</ele>
        <time>2012-12-21T12:09:41Z</time>
      </trkpt>
      <trkpt lat="45.959648033604026" lon="8.820626987144351">
        <ele>827.83000000000004</ele>
        <time>2012-12-21T12:09:46Z</time>
      </trkpt>
      <trkpt lat="45.959464972838759" lon="8.820691024884582">
        <ele>827.83000000000004</ele>
        <time>2012-12-21T12:10:00Z</time>
      </trkpt>
      <trkpt lat="45.959370005875826" lon="8.820805018767715">
        <ele>827.83000000000004</ele>
        <time>2012-12-21T12:10:11Z</time>
      </trkpt>
      <trkpt lat="45.959312003105879" lon="8.820980032905936">
        <ele>825.42999999999995</ele>
        <time>2012-12-21T12:10:24Z</time>
      </trkpt>
      <trkpt lat="45.959286019206047" lon="8.82101196795702">
        <ele>825.42999999999995</ele>
        <time>2012-12-21T12:10:38Z</time>
      </trkpt>
      <trkpt lat="45.959224998950958" lon="8.821050021797419">
        <ele>824.95000000000005</ele>
        <time>2012-12-21T12:10:46Z</time>
      </trkpt>
      <trkpt lat="45.959105975925922" lon="8.8211839646101">
        <ele>823.50999999999999</ele>
        <time>2012-12-21T12:11:00Z</time>
      </trkpt>
      <trkpt lat="45.959000028669834" lon="8.821292007341981">
        <ele>823.50999999999999</ele>
        <time>2012-12-21T12:11:14Z</time>
      </trkpt>
      <trkpt lat="45.958915958181024" lon="8.82131103426218">
        <ele>822.54999999999995</ele>
        <time>2012-12-21T12:11:26Z</time>
      </trkpt>
      <trkpt lat="45.958912018686533" lon="8.82133299484849">
        <ele>823.02999999999997</ele>
        <time>2012-12-21T12:11:45Z</time>
      </trkpt>
      <trkpt lat="45.958828032016754" lon="8.821215983480215">
        <ele>820.62</ele>
        <time>2012-12-21T13:40:17Z</time>
      </trkpt>
      <trkpt lat="45.958794001489878" lon="8.821199974045157">
        <ele>817.25999999999999</ele>
        <time>2012-12-21T13:41:20Z</time>
      </trkpt>
      <trkpt lat="45.958747984841466" lon="8.821114981546998">
        <ele>814.85000000000002</ele>
        <time>2012-12-21T13:41:31Z</time>
      </trkpt>
      <trkpt lat="45.958668021485209" lon="8.821056978777051">
        <ele>811.49000000000001</ele>
        <time>2012-12-21T13:41:44Z</time>
      </trkpt>
      <trkpt lat="45.958663998171687" lon="8.821037029847503">
        <ele>811.00999999999999</ele>
        <time>2012-12-21T13:41:46Z</time>
      </trkpt>
      <trkpt lat="45.958656035363674" lon="8.820996964350343">
        <ele>810.04999999999995</ele>
        <time>2012-12-21T13:41:49Z</time>
      </trkpt>
      <trkpt lat="45.958637008443475" lon="8.820955976843834">
        <ele>806.67999999999995</ele>
        <time>2012-12-21T13:41:58Z</time>
      </trkpt>
      <trkpt lat="45.958602977916598" lon="8.820901997387409">
        <ele>803.32000000000005</ele>
        <time>2012-12-21T13:42:09Z</time>
      </trkpt>
      <trkpt lat="45.958617981523275" lon="8.820862015709281">
        <ele>803.32000000000005</ele>
        <time>2012-12-21T13:42:24Z</time>
      </trkpt>
      <trkpt lat="45.958622004836798" lon="8.820832008495927">
        <ele>800.44000000000005</ele>
        <time>2012-12-21T13:42:37Z</time>
      </trkpt>
      <trkpt lat="45.958527037873864" lon="8.820755984634161">
        <ele>797.54999999999995</ele>
        <time>2012-12-21T13:42:47Z</time>
      </trkpt>
      <trkpt lat="45.958466017618775" lon="8.820716002956033">
        <ele>795.14999999999998</ele>
        <time>2012-12-21T13:42:56Z</time>
      </trkpt>
      <trkpt lat="45.95836996100843" lon="8.820604020729661">
        <ele>792.25999999999999</ele>
        <time>2012-12-21T13:43:08Z</time>
      </trkpt>
      <trkpt lat="45.958343977108598" lon="8.8205829821527">
        <ele>791.29999999999995</ele>
        <time>2012-12-21T13:43:11Z</time>
      </trkpt>
      <trkpt lat="45.958263007923961" lon="8.820553980767727">
        <ele>789.38</ele>
        <time>2012-12-21T13:43:24Z</time>
      </trkpt>
      <trkpt lat="45.958221014589071" lon="8.820543000474572">
        <ele>789.38</ele>
        <time>2012-12-21T13:43:43Z</time>
      </trkpt>
      <trkpt lat="45.958210034295917" lon="8.82053998298943">
        <ele>786.01999999999998</ele>
        <time>2012-12-21T13:43:51Z</time>
      </trkpt>
      <trkpt lat="45.958210034295917" lon="8.82053998298943">
        <ele>789.38</ele>
        <time>2012-12-21T13:43:55Z</time>
      </trkpt>
      <trkpt lat="45.958210034295917" lon="8.82053998298943">
        <ele>786.01999999999998</ele>
        <time>2012-12-21T13:44:02Z</time>
      </trkpt>
      <trkpt lat="45.958210034295917" lon="8.82053998298943">
        <ele>787.46000000000004</ele>
        <time>2012-12-21T13:44:06Z</time>
      </trkpt>
      <trkpt lat="45.958210034295917" lon="8.82053998298943">
        <ele>790.34000000000003</ele>
        <time>2012-12-21T13:44:07Z</time>
      </trkpt>
      <trkpt lat="45.958210034295917" lon="8.82053998298943">
        <ele>786.01999999999998</ele>
        <time>2012-12-21T13:44:10Z</time>
      </trkpt>
      <trkpt lat="45.958210034295917" lon="8.82053998298943">
        <ele>790.34000000000003</ele>
        <time>2012-12-21T13:44:11Z</time>
      </trkpt>
      <trkpt lat="45.958210034295917" lon="8.82053998298943">
        <ele>787.46000000000004</ele>
        <time>2012-12-21T13:44:14Z</time>
      </trkpt>
      <trkpt lat="45.958179021254182" lon="8.820567978546023">
        <ele>782.64999999999998</ele>
        <time>2012-12-21T13:44:26Z</time>
      </trkpt>
      <trkpt lat="45.958179021254182" lon="8.820567978546023">
        <ele>790.82000000000005</ele>
        <time>2012-12-21T13:44:27Z</time>
      </trkpt>
      <trkpt lat="45.958179021254182" lon="8.820567978546023">
        <ele>786.5</ele>
        <time>2012-12-21T13:44:28Z</time>
      </trkpt>
      <trkpt lat="45.958122024312615" lon="8.820550041273236">
        <ele>784.57000000000005</ele>
        <time>2012-12-21T13:44:36Z</time>
      </trkpt>
      <trkpt lat="45.958110960200429" lon="8.820545012131333">
        <ele>784.57000000000005</ele>
        <time>2012-12-21T13:44:37Z</time>
      </trkpt>
      <trkpt lat="45.957995960488915" lon="8.820502012968063">
        <ele>782.64999999999998</ele>
        <time>2012-12-21T13:44:48Z</time>
      </trkpt>
      <trkpt lat="45.957938963547349" lon="8.820482986047864">
        <ele>779.28999999999996</ele>
        <time>2012-12-21T13:44:58Z</time>
      </trkpt>
      <trkpt lat="45.957909040153027" lon="8.820463959127665">
        <ele>778.32000000000005</ele>
        <time>2012-12-21T13:45:01Z</time>
      </trkpt>
      <trkpt lat="45.95785103738308" lon="8.820415008813143">
        <ele>775.91999999999996</ele>
        <time>2012-12-21T13:45:13Z</time>
      </trkpt>
      <trkpt lat="45.957748023793101" lon="8.820353988558054">
        <ele>773.51999999999998</ele>
        <time>2012-12-21T13:45:24Z</time>
      </trkpt>
      <trkpt lat="45.957634029909968" lon="8.820401011034846">
        <ele>771.11000000000001</ele>
        <time>2012-12-21T13:45:35Z</time>
      </trkpt>
      <trkpt lat="45.957558006048203" lon="8.820444010198116">
        <ele>768.23000000000002</ele>
        <time>2012-12-21T13:45:46Z</time>
      </trkpt>
      <trkpt lat="45.957516012713313" lon="8.820521961897612">
        <ele>765.83000000000004</ele>
        <time>2012-12-21T13:45:56Z</time>
      </trkpt>
      <trkpt lat="45.957538979128003" lon="8.820564039051533">
        <ele>765.35000000000002</ele>
        <time>2012-12-21T13:45:58Z</time>
      </trkpt>
      <trkpt lat="45.95753101631999" lon="8.820782974362373">
        <ele>761.98000000000002</ele>
        <time>2012-12-21T13:46:09Z</time>
      </trkpt>
      <trkpt lat="45.957526993006468" lon="8.820829996839166">
        <ele>760.05999999999995</ele>
        <time>2012-12-21T13:46:15Z</time>
      </trkpt>
      <trkpt lat="45.957546019926667" lon="8.820913983508945">
        <ele>757.65999999999997</ele>
        <time>2012-12-21T13:46:20Z</time>
      </trkpt>
      <trkpt lat="45.957546019926667" lon="8.820927981287241">
        <ele>757.65999999999997</ele>
        <time>2012-12-21T13:46:21Z</time>
      </trkpt>
      <trkpt lat="45.957447029650211" lon="8.820936027914286">
        <ele>756.69000000000005</ele>
        <time>2012-12-21T13:46:34Z</time>
      </trkpt>
      <trkpt lat="45.957417022436857" lon="8.820957988500595">
        <ele>754.28999999999996</ele>
        <time>2012-12-21T13:46:39Z</time>
      </trkpt>
      <trkpt lat="45.957362959161401" lon="8.821034012362361">
        <ele>750.92999999999995</ele>
        <time>2012-12-21T13:46:49Z</time>
      </trkpt>
      <trkpt lat="45.95735901966691" lon="8.821057984605432">
        <ele>749.97000000000003</ele>
        <time>2012-12-21T13:46:51Z</time>
      </trkpt>
      <trkpt lat="45.957371005788445" lon="8.82109897211194">
        <ele>749</ele>
        <time>2012-12-21T13:46:54Z</time>
      </trkpt>
      <trkpt lat="45.957344016060233" lon="8.821168038994074">
        <ele>746.12</ele>
        <time>2012-12-21T13:47:06Z</time>
      </trkpt>
      <trkpt lat="45.957320965826511" lon="8.821341963484883">
        <ele>743.24000000000001</ele>
        <time>2012-12-21T13:47:16Z</time>
      </trkpt>
      <trkpt lat="45.95725298859179" lon="8.821473978459835">
        <ele>740.35000000000002</ele>
        <time>2012-12-21T13:47:27Z</time>
      </trkpt>
      <trkpt lat="45.957248965278268" lon="8.821484036743641">
        <ele>740.35000000000002</ele>
        <time>2012-12-21T13:47:28Z</time>
      </trkpt>
      <trkpt lat="45.957172019407153" lon="8.821602975949645">
        <ele>737.47000000000003</ele>
        <time>2012-12-21T13:47:38Z</time>
      </trkpt>
      <trkpt lat="45.957133965566754" lon="8.821646980941296">
        <ele>735.07000000000005</ele>
        <time>2012-12-21T13:47:50Z</time>
      </trkpt>
      <trkpt lat="45.957133965566754" lon="8.821646980941296">
        <ele>734.58000000000004</ele>
        <time>2012-12-21T13:47:51Z</time>
      </trkpt>
      <trkpt lat="45.957118961960077" lon="8.821712024509907">
        <ele>733.62</ele>
        <time>2012-12-21T13:47:55Z</time>
      </trkpt>
      <trkpt lat="45.957065988332033" lon="8.821769021451473">
        <ele>731.70000000000005</ele>
        <time>2012-12-21T13:48:02Z</time>
      </trkpt>
      <trkpt lat="45.956985019147396" lon="8.821876980364323">
        <ele>730.74000000000001</ele>
        <time>2012-12-21T13:48:11Z</time>
      </trkpt>
      <trkpt lat="45.956898014992476" lon="8.822015030309558">
        <ele>727.86000000000001</ele>
        <time>2012-12-21T13:48:22Z</time>
      </trkpt>
      <trkpt lat="45.956889968365431" lon="8.822148973122239">
        <ele>724.97000000000003</ele>
        <time>2012-12-21T13:48:33Z</time>
      </trkpt>
      <trkpt lat="45.956862978637218" lon="8.822217034175992">
        <ele>721.61000000000001</ele>
        <time>2012-12-21T13:48:44Z</time>
      </trkpt>
      <trkpt lat="45.956856021657586" lon="8.822336979210377">
        <ele>721.13</ele>
        <time>2012-12-21T13:49:03Z</time>
      </trkpt>
      <trkpt lat="45.956856021657586" lon="8.822347959503532">
        <ele>724.49000000000001</ele>
        <time>2012-12-21T13:49:09Z</time>
      </trkpt>
      <trkpt lat="45.956832971423864" lon="8.822366986423731">
        <ele>720.64999999999998</ele>
        <time>2012-12-21T13:49:11Z</time>
      </trkpt>
      <trkpt lat="45.95679902471602" lon="8.822461031377316">
        <ele>720.15999999999997</ele>
        <time>2012-12-21T13:49:17Z</time>
      </trkpt>
      <trkpt lat="45.956753008067608" lon="8.822506964206696">
        <ele>718.72000000000003</ele>
        <time>2012-12-21T13:49:22Z</time>
      </trkpt>
      <trkpt lat="45.956699028611183" lon="8.822568990290165">
        <ele>718.72000000000003</ele>
        <time>2012-12-21T13:49:27Z</time>
      </trkpt>
      <trkpt lat="45.956669021397829" lon="8.822583993896842">
        <ele>716.32000000000005</ele>
        <time>2012-12-21T13:49:31Z</time>
      </trkpt>
      <trkpt lat="45.95658503472805" lon="8.82266697473824">
        <ele>713.44000000000005</ele>
        <time>2012-12-21T13:49:47Z</time>
      </trkpt>
      <trkpt lat="45.956581011414528" lon="8.822662029415369">
        <ele>712.47000000000003</ele>
        <time>2012-12-21T13:50:03Z</time>
      </trkpt>
      <trkpt lat="45.956528037786484" lon="8.822721960023046">
        <ele>710.07000000000005</ele>
        <time>2012-12-21T13:50:22Z</time>
      </trkpt>
      <trkpt lat="45.956493001431227" lon="8.822767976671457">
        <ele>708.14999999999998</ele>
        <time>2012-12-21T13:50:35Z</time>
      </trkpt>
      <trkpt lat="45.956398034468293" lon="8.822934022173286">
        <ele>704.77999999999997</ele>
        <time>2012-12-21T13:50:48Z</time>
      </trkpt>
      <trkpt lat="45.956344977021217" lon="8.823104007169604">
        <ele>700.94000000000005</ele>
        <time>2012-12-21T13:51:00Z</time>
      </trkpt>
      <trkpt lat="45.956379007548094" lon="8.823183970525861">
        <ele>699.98000000000002</ele>
        <time>2012-12-21T13:51:14Z</time>
      </trkpt>
      <trkpt lat="45.956370960921049" lon="8.823236022144556">
        <ele>696.61000000000001</ele>
        <time>2012-12-21T13:51:26Z</time>
      </trkpt>
      <trkpt lat="45.956332990899682" lon="8.823368037119508">
        <ele>693.25</ele>
        <time>2012-12-21T13:51:36Z</time>
      </trkpt>
      <trkpt lat="45.956298960372806" lon="8.823465015739203">
        <ele>690.36000000000001</ele>
        <time>2012-12-21T13:51:45Z</time>
      </trkpt>
      <trkpt lat="45.956271970644593" lon="8.823535004630685">
        <ele>689.39999999999998</ele>
        <time>2012-12-21T13:51:50Z</time>
      </trkpt>
      <trkpt lat="45.956187983974814" lon="8.823784030973911">
        <ele>686.03999999999996</ele>
        <time>2012-12-21T13:52:03Z</time>
      </trkpt>
      <trkpt lat="45.956120006740093" lon="8.823872962966561">
        <ele>684.60000000000002</ele>
        <time>2012-12-21T13:52:11Z</time>
      </trkpt>
      <trkpt lat="45.956066027283669" lon="8.823915040120482">
        <ele>683.63</ele>
        <time>2012-12-21T13:52:18Z</time>
      </trkpt>
      <trkpt lat="45.956036020070314" lon="8.823983017355204">
        <ele>682.19000000000005</ele>
        <time>2012-12-21T13:52:30Z</time>
      </trkpt>
      <trkpt lat="45.956031996756792" lon="8.824016964063048">
        <ele>682.19000000000005</ele>
        <time>2012-12-21T13:52:46Z</time>
      </trkpt>
      <trkpt lat="45.956031996756792" lon="8.824016964063048">
        <ele>682.19000000000005</ele>
        <time>2012-12-21T13:53:11Z</time>
      </trkpt>
      <trkpt lat="45.95602797344327" lon="8.824016964063048">
        <ele>681.71000000000004</ele>
        <time>2012-12-21T13:53:32Z</time>
      </trkpt>
      <trkpt lat="45.956020010635257" lon="8.824017969891429">
        <ele>680.75</ele>
        <time>2012-12-21T13:53:51Z</time>
      </trkpt>
      <trkpt lat="45.955714993178844" lon="8.824034985154867">
        <ele>678.35000000000002</ele>
        <time>2012-12-21T13:54:06Z</time>
      </trkpt>
      <trkpt lat="45.955653972923756" lon="8.824030961841345">
        <ele>678.35000000000002</ele>
        <time>2012-12-21T13:54:10Z</time>
      </trkpt>
      <trkpt lat="45.955600999295712" lon="8.82403900846839">
        <ele>677.87</ele>
        <time>2012-12-21T13:54:13Z</time>
      </trkpt>
      <trkpt lat="45.955387009307742" lon="8.823988968506455">
        <ele>674.98000000000002</ele>
        <time>2012-12-21T13:54:23Z</time>
      </trkpt>
      <trkpt lat="45.955288019031286" lon="8.823958039283752">
        <ele>673.53999999999996</ele>
        <time>2012-12-21T13:54:28Z</time>
      </trkpt>
      <trkpt lat="45.955219035968184" lon="8.823986034840345">
        <ele>672.10000000000002</ele>
        <time>2012-12-21T13:54:31Z</time>
      </trkpt>
      <trkpt lat="45.955086015164852" lon="8.8241680059582">
        <ele>669.70000000000005</ele>
        <time>2012-12-21T13:54:41Z</time>
      </trkpt>
      <trkpt lat="45.955070005729795" lon="8.824260961264372">
        <ele>667.28999999999996</ele>
        <time>2012-12-21T13:54:46Z</time>
      </trkpt>
      <trkpt lat="45.955086015164852" lon="8.82436104118824">
        <ele>665.37</ele>
        <time>2012-12-21T13:54:50Z</time>
      </trkpt>
      <trkpt lat="45.955096995458007" lon="8.824418960139155">
        <ele>663.92999999999995</ele>
        <time>2012-12-21T13:54:54Z</time>
      </trkpt>
      <trkpt lat="45.955066988244653" lon="8.824500013142824">
        <ele>662.49000000000001</ele>
        <time>2012-12-21T13:54:57Z</time>
      </trkpt>
      <trkpt lat="45.955005967989564" lon="8.824594980105758">
        <ele>661.51999999999998</ele>
        <time>2012-12-21T13:55:03Z</time>
      </trkpt>
      <trkpt lat="45.954926004633307" lon="8.824656000360847">
        <ele>659.12</ele>
        <time>2012-12-21T13:55:08Z</time>
      </trkpt>
      <trkpt lat="45.954899014905095" lon="8.824658012017608">
        <ele>658.15999999999997</ele>
        <time>2012-12-21T13:55:09Z</time>
      </trkpt>
      <trkpt lat="45.954848974943161" lon="8.824764965102077">
        <ele>656.72000000000003</ele>
        <time>2012-12-21T13:55:13Z</time>
      </trkpt>
      <trkpt lat="45.954872025176883" lon="8.82489999756217">
        <ele>652.87</ele>
        <time>2012-12-21T13:55:18Z</time>
      </trkpt>
      <trkpt lat="45.954875964671373" lon="8.824928998947144">
        <ele>652.87</ele>
        <time>2012-12-21T13:55:19Z</time>
      </trkpt>
      <trkpt lat="45.954879987984896" lon="8.824971998110414">
        <ele>651.90999999999997</ele>
        <time>2012-12-21T13:55:21Z</time>
      </trkpt>
      <trkpt lat="45.954914018511772" lon="8.825018014758825">
        <ele>649.99000000000001</ele>
        <time>2012-12-21T13:55:24Z</time>
      </trkpt>
      <trkpt lat="45.954971015453339" lon="8.825022038072348">
        <ele>648.54999999999995</ele>
        <time>2012-12-21T13:55:27Z</time>
      </trkpt>
      <trkpt lat="45.955032035708427" lon="8.825030000880361">
        <ele>646.62</ele>
        <time>2012-12-21T13:55:30Z</time>
      </trkpt>
      <trkpt lat="45.955074029043317" lon="8.825154975056648">
        <ele>644.22000000000003</ele>
        <time>2012-12-21T13:55:37Z</time>
      </trkpt>
      <trkpt lat="45.95508199185133" lon="8.825325965881348">
        <ele>642.29999999999995</ele>
        <time>2012-12-21T13:55:41Z</time>
      </trkpt>
      <trkpt lat="45.955116022378206" lon="8.825408024713397">
        <ele>640.86000000000001</ele>
        <time>2012-12-21T13:55:45Z</time>
      </trkpt>
      <trkpt lat="45.955173019319773" lon="8.825459992513061">
        <ele>638.92999999999995</ele>
        <time>2012-12-21T13:55:49Z</time>
      </trkpt>
      <trkpt lat="45.955180982127786" lon="8.825466027483344">
        <ele>637.97000000000003</ele>
        <time>2012-12-21T13:55:52Z</time>
      </trkpt>
      <trkpt lat="45.955215012654662" lon="8.825621008872986">
        <ele>637.00999999999999</ele>
        <time>2012-12-21T13:55:57Z</time>
      </trkpt>
      <trkpt lat="45.95523102208972" lon="8.825681023299694">
        <ele>636.04999999999995</ele>
        <time>2012-12-21T13:55:59Z</time>
      </trkpt>
      <trkpt lat="45.955257005989552" lon="8.825735002756119">
        <ele>634.61000000000001</ele>
        <time>2012-12-21T13:56:01Z</time>
      </trkpt>
      <trkpt lat="45.955273015424609" lon="8.825809014961124">
        <ele>633.64999999999998</ele>
        <time>2012-12-21T13:56:03Z</time>
      </trkpt>
      <trkpt lat="45.955321965739131" lon="8.825908005237579">
        <ele>630.75999999999999</ele>
        <time>2012-12-21T13:56:08Z</time>
      </trkpt>
      <trkpt lat="45.955357002094388" lon="8.825998026877642">
        <ele>627.88</ele>
        <time>2012-12-21T13:56:12Z</time>
      </trkpt>
      <trkpt lat="45.95531802624464" lon="8.826231965795159">
        <ele>624.50999999999999</ele>
        <time>2012-12-21T13:56:19Z</time>
      </trkpt>
      <trkpt lat="45.955283995717764" lon="8.826345037668943">
        <ele>622.59000000000003</ele>
        <time>2012-12-21T13:56:24Z</time>
      </trkpt>
      <trkpt lat="45.955237979069352" lon="8.826444027945399">
        <ele>621.14999999999998</ele>
        <time>2012-12-21T13:56:28Z</time>
      </trkpt>
      <trkpt lat="45.955147035419941" lon="8.826494989916682">
        <ele>619.23000000000002</ele>
        <time>2012-12-21T13:56:41Z</time>
      </trkpt>
      <trkpt lat="45.955123985186219" lon="8.82649096660316">
        <ele>618.75</ele>
        <time>2012-12-21T13:56:49Z</time>
      </trkpt>
      <trkpt lat="45.954983001574874" lon="8.82646800018847">
        <ele>615.86000000000001</ele>
        <time>2012-12-21T13:57:01Z</time>
      </trkpt>
      <trkpt lat="45.954971015453339" lon="8.826460959389806">
        <ele>620.66999999999996</ele>
        <time>2012-12-21T13:57:02Z</time>
      </trkpt>
      <trkpt lat="45.95484503544867" lon="8.826407985761762">
        <ele>618.25999999999999</ele>
        <time>2012-12-21T13:57:14Z</time>
      </trkpt>
      <trkpt lat="45.95484503544867" lon="8.826407985761762">
        <ele>614.41999999999996</ele>
        <time>2012-12-21T13:57:15Z</time>
      </trkpt>
      <trkpt lat="45.95484503544867" lon="8.826407985761762">
        <ele>620.66999999999996</ele>
        <time>2012-12-21T13:57:16Z</time>
      </trkpt>
      <trkpt lat="45.95484503544867" lon="8.826407985761762">
        <ele>616.34000000000003</ele>
        <time>2012-12-21T13:57:19Z</time>
      </trkpt>
      <trkpt lat="45.954830031841993" lon="8.82640203461051">
        <ele>608.16999999999996</ele>
        <time>2012-12-21T13:57:25Z</time>
      </trkpt>
      <trkpt lat="45.954822991043329" lon="8.826399017125368">
        <ele>622.11000000000001</ele>
        <time>2012-12-21T13:57:26Z</time>
      </trkpt>
      <trkpt lat="45.954815028235316" lon="8.826394993811846">
        <ele>619.71000000000004</ele>
        <time>2012-12-21T13:57:27Z</time>
      </trkpt>
      <trkpt lat="45.954811004921794" lon="8.826390970498323">
        <ele>615.38</ele>
        <time>2012-12-21T13:57:28Z</time>
      </trkpt>
      <trkpt lat="45.954802958294749" lon="8.826385019347072">
        <ele>618.25999999999999</ele>
        <time>2012-12-21T13:57:29Z</time>
      </trkpt>
      <trkpt lat="45.954670021310449" lon="8.826279994100332">
        <ele>615.38</ele>
        <time>2012-12-21T13:57:40Z</time>
      </trkpt>
      <trkpt lat="45.954474974423647" lon="8.826200030744076">
        <ele>614.41999999999996</ele>
        <time>2012-12-21T13:57:53Z</time>
      </trkpt>
      <trkpt lat="45.954193007200956" lon="8.826118977740407">
        <ele>613.94000000000005</ele>
        <time>2012-12-21T13:58:06Z</time>
      </trkpt>
      <trkpt lat="45.953975999727845" lon="8.826278988271952">
        <ele>612.98000000000002</ele>
        <time>2012-12-21T13:58:17Z</time>
      </trkpt>
      <trkpt lat="45.953788999468088" lon="8.826438998803496">
        <ele>612.01999999999998</ele>
        <time>2012-12-21T13:58:28Z</time>
      </trkpt>
      <trkpt lat="45.953715993091464" lon="8.826503958553076">
        <ele>609.13</ele>
        <time>2012-12-21T13:58:32Z</time>
      </trkpt>
      <trkpt lat="45.953624965623021" lon="8.826549975201488">
        <ele>608.16999999999996</ele>
        <time>2012-12-21T13:58:36Z</time>
      </trkpt>
      <trkpt lat="45.953555982559919" lon="8.826594986021519">
        <ele>607.69000000000005</ele>
        <time>2012-12-21T13:58:46Z</time>
      </trkpt>
      <trkpt lat="45.953528992831707" lon="8.826615018770099">
        <ele>607.21000000000004</ele>
        <time>2012-12-21T13:58:48Z</time>
      </trkpt>
      <trkpt lat="45.953346015885472" lon="8.826762959361076">
        <ele>603.85000000000002</ele>
        <time>2012-12-21T13:59:01Z</time>
      </trkpt>
      <trkpt lat="45.953250965103507" lon="8.826835965737701">
        <ele>600.96000000000004</ele>
        <time>2012-12-21T13:59:09Z</time>
      </trkpt>
      <trkpt lat="45.953097995370626" lon="8.826894974336028">
        <ele>597.60000000000002</ele>
        <time>2012-12-21T13:59:19Z</time>
      </trkpt>
      <trkpt lat="45.95306396484375" lon="8.826880976557732">
        <ele>596.63999999999999</ele>
        <time>2012-12-21T13:59:22Z</time>
      </trkpt>
      <trkpt lat="45.952984001487494" lon="8.826838983222842">
        <ele>593.75</ele>
        <time>2012-12-21T13:59:30Z</time>
      </trkpt>
      <trkpt lat="45.952930022031069" lon="8.826807970181108">
        <ele>592.30999999999995</ele>
        <time>2012-12-21T13:59:35Z</time>
      </trkpt>
      <trkpt lat="45.952816028147936" lon="8.826745022088289">
        <ele>588.46000000000004</ele>
        <time>2012-12-21T13:59:46Z</time>
      </trkpt>
      <trkpt lat="45.952702034264803" lon="8.826738987118006">
        <ele>586.53999999999996</ele>
        <time>2012-12-21T13:59:54Z</time>
      </trkpt>
      <trkpt lat="45.952674960717559" lon="8.826735969632864">
        <ele>585.58000000000004</ele>
        <time>2012-12-21T13:59:56Z</time>
      </trkpt>
      <trkpt lat="45.95256800763309" lon="8.826731024309993">
        <ele>582.22000000000003</ele>
        <time>2012-12-21T14:00:05Z</time>
      </trkpt>
      <trkpt lat="45.952442027628422" lon="8.826709985733032">
        <ele>578.85000000000002</ele>
        <time>2012-12-21T14:00:15Z</time>
      </trkpt>
      <trkpt lat="45.952373966574669" lon="8.826709985733032">
        <ele>575.49000000000001</ele>
        <time>2012-12-21T14:00:24Z</time>
      </trkpt>
      <trkpt lat="45.952273970469832" lon="8.826743010431528">
        <ele>573.55999999999995</ele>
        <time>2012-12-21T14:00:32Z</time>
      </trkpt>
      <trkpt lat="45.952228959649801" lon="8.826731024309993">
        <ele>572.60000000000002</ele>
        <time>2012-12-21T14:00:35Z</time>
      </trkpt>
      <trkpt lat="45.952147990465164" lon="8.826787015423179">
        <ele>571.15999999999997</ele>
        <time>2012-12-21T14:00:40Z</time>
      </trkpt>
      <trkpt lat="45.952110020443797" lon="8.826822973787785">
        <ele>569.72000000000003</ele>
        <time>2012-12-21T14:00:43Z</time>
      </trkpt>
      <trkpt lat="45.951987979933619" lon="8.826953982934356">
        <ele>565.87</ele>
        <time>2012-12-21T14:00:54Z</time>
      </trkpt>
      <trkpt lat="45.951800979673862" lon="8.827101001515985">
        <ele>562.50999999999999</ele>
        <time>2012-12-21T14:01:07Z</time>
      </trkpt>
      <trkpt lat="45.951694026589394" lon="8.827194962650538">
        <ele>560.11000000000001</ele>
        <time>2012-12-21T14:01:17Z</time>
      </trkpt>
      <trkpt lat="45.951637029647827" lon="8.827233016490936">
        <ele>559.62</ele>
        <time>2012-12-21T14:01:21Z</time>
      </trkpt>
      <trkpt lat="45.951550025492907" lon="8.827304011210799">
        <ele>557.22000000000003</ele>
        <time>2012-12-21T14:01:29Z</time>
      </trkpt>
      <trkpt lat="45.951484981924295" lon="8.827378023415804">
        <ele>556.25999999999999</ele>
        <time>2012-12-21T14:01:34Z</time>
      </trkpt>
      <trkpt lat="45.951354978606105" lon="8.827482964843512">
        <ele>553.38</ele>
        <time>2012-12-21T14:01:48Z</time>
      </trkpt>
      <trkpt lat="45.951224975287914" lon="8.827570974826813">
        <ele>550.49000000000001</ele>
        <time>2012-12-21T14:01:59Z</time>
      </trkpt>
      <trkpt lat="45.951115004718304" lon="8.827640963718295">
        <ele>547.61000000000001</ele>
        <time>2012-12-21T14:02:08Z</time>
      </trkpt>
      <trkpt lat="45.950992964208126" lon="8.827732997015119">
        <ele>544.24000000000001</ele>
        <time>2012-12-21T14:02:20Z</time>
      </trkpt>
      <trkpt lat="45.950953988358378" lon="8.827772978693247">
        <ele>543.27999999999997</ele>
        <time>2012-12-21T14:02:36Z</time>
      </trkpt>
      <trkpt lat="45.950932027772069" lon="8.827784964814782">
        <ele>542.79999999999995</ele>
        <time>2012-12-21T14:02:39Z</time>
      </trkpt>
      <trkpt lat="45.950854998081923" lon="8.827842967584729">
        <ele>541.84000000000003</ele>
        <time>2012-12-21T14:02:46Z</time>
      </trkpt>
      <trkpt lat="45.950832031667233" lon="8.827852020040155">
        <ele>541.36000000000001</ele>
        <time>2012-12-21T14:02:48Z</time>
      </trkpt>
      <trkpt lat="45.950793977826834" lon="8.82780097424984">
        <ele>539.91999999999996</ele>
        <time>2012-12-21T14:02:53Z</time>
      </trkpt>
      <trkpt lat="45.95076397061348" lon="8.827685974538326">
        <ele>538.96000000000004</ele>
        <time>2012-12-21T14:02:59Z</time>
      </trkpt>
      <trkpt lat="45.950642013922334" lon="8.827377017587423">
        <ele>537.99000000000001</ele>
        <time>2012-12-21T14:03:16Z</time>
      </trkpt>
      <trkpt lat="45.950561966747046" lon="8.827081974595785">
        <ele>534.63</ele>
        <time>2012-12-21T14:03:31Z</time>
      </trkpt>
      <trkpt lat="45.950539000332355" lon="8.827055990695953">
        <ele>534.14999999999998</ele>
        <time>2012-12-21T14:03:33Z</time>
      </trkpt>
      <trkpt lat="45.950480997562408" lon="8.827301999554038">
        <ele>531.26999999999998</ele>
        <time>2012-12-21T14:03:47Z</time>
      </trkpt>
      <trkpt lat="45.950477980077267" lon="8.82743401452899">
        <ele>529.82000000000005</ele>
        <time>2012-12-21T14:03:54Z</time>
      </trkpt>
      <trkpt lat="45.950492983683944" lon="8.82758597843349">
        <ele>527.41999999999996</ele>
        <time>2012-12-21T14:04:11Z</time>
      </trkpt>
      <trkpt lat="45.950497006997466" lon="8.827599976211786">
        <ele>527.89999999999998</ele>
        <time>2012-12-21T14:04:12Z</time>
      </trkpt>
      <trkpt lat="45.950480997562408" lon="8.827711036428809">
        <ele>525.5</ele>
        <time>2012-12-21T14:04:18Z</time>
      </trkpt>
      <trkpt lat="45.950389970093966" lon="8.827903987839818">
        <ele>522.13</ele>
        <time>2012-12-21T14:04:29Z</time>
      </trkpt>
      <trkpt lat="45.950352000072598" lon="8.827979005873203">
        <ele>520.69000000000005</ele>
        <time>2012-12-21T14:04:34Z</time>
      </trkpt>
      <trkpt lat="45.950329033657908" lon="8.828051006421447">
        <ele>520.21000000000004</ele>
        <time>2012-12-21T14:04:39Z</time>
      </trkpt>
      <trkpt lat="45.95022602006793" lon="8.828235995024443">
        <ele>517.33000000000004</ele>
        <time>2012-12-21T14:04:51Z</time>
      </trkpt>
      <trkpt lat="45.95011898316443" lon="8.828445039689541">
        <ele>514.91999999999996</ele>
        <time>2012-12-21T14:05:03Z</time>
      </trkpt>
      <trkpt lat="45.950111020356417" lon="8.828633967787027">
        <ele>513.48000000000002</ele>
        <time>2012-12-21T14:05:14Z</time>
      </trkpt>
      <trkpt lat="45.950091993436217" lon="8.828691970556974">
        <ele>512.51999999999998</ele>
        <time>2012-12-21T14:05:17Z</time>
      </trkpt>
      <trkpt lat="45.950046982616186" lon="8.82904501631856">
        <ele>511.07999999999998</ele>
        <time>2012-12-21T14:05:31Z</time>
      </trkpt>
      <trkpt lat="45.949958972632885" lon="8.82934601046145">
        <ele>509.16000000000003</ele>
        <time>2012-12-21T14:05:46Z</time>
      </trkpt>
      <trkpt lat="45.949951009824872" lon="8.82936998270452">
        <ele>509.16000000000003</ele>
        <time>2012-12-21T14:05:48Z</time>
      </trkpt>
      <trkpt lat="45.949855959042907" lon="8.829628983512521">
        <ele>506.26999999999998</ele>
        <time>2012-12-21T14:06:03Z</time>
      </trkpt>
      <trkpt lat="45.949847996234894" lon="8.829645998775959">
        <ele>506.26999999999998</ele>
        <time>2012-12-21T14:06:04Z</time>
      </trkpt>
      <trkpt lat="45.949847996234894" lon="8.829793017357588">
        <ele>505.31</ele>
        <time>2012-12-21T14:06:18Z</time>
      </trkpt>
      <trkpt lat="45.949847996234894" lon="8.829805003479123">
        <ele>505.31</ele>
        <time>2012-12-21T14:06:22Z</time>
      </trkpt>
      <trkpt lat="45.949852019548416" lon="8.829903993755579">
        <ele>504.82999999999998</ele>
        <time>2012-12-21T14:06:26Z</time>
      </trkpt>
      <trkpt lat="45.949894012883306" lon="8.829975994303823">
        <ele>505.31</ele>
        <time>2012-12-21T14:06:32Z</time>
      </trkpt>
      <trkpt lat="45.950019992887974" lon="8.830025028437376">
        <ele>505.31</ele>
        <time>2012-12-21T14:06:46Z</time>
      </trkpt>
      <trkpt lat="45.950027033686638" lon="8.830029973760247">
        <ele>505.31</ele>
        <time>2012-12-21T14:06:47Z</time>
      </trkpt>
      <trkpt lat="45.950214033946395" lon="8.830080013722181">
        <ele>505.31</ele>
        <time>2012-12-21T14:07:02Z</time>
      </trkpt>
      <trkpt lat="45.950335990637541" lon="8.830103985965252">
        <ele>504.35000000000002</ele>
        <time>2012-12-21T14:07:13Z</time>
      </trkpt>
      <trkpt lat="45.95056900754571" lon="8.830145979300141">
        <ele>501.94999999999999</ele>
        <time>2012-12-21T14:07:29Z</time>
      </trkpt>
      <trkpt lat="45.950714014470577" lon="8.830161988735199">
        <ele>500.5</ele>
        <time>2012-12-21T14:07:36Z</time>
      </trkpt>
      <trkpt lat="45.950793977826834" lon="8.830470023676753">
        <ele>498.10000000000002</ele>
        <time>2012-12-21T14:07:50Z</time>
      </trkpt>
      <trkpt lat="45.950832031667233" lon="8.830709997564554">
        <ele>496.18000000000001</ele>
        <time>2012-12-21T14:08:02Z</time>
      </trkpt>
      <trkpt lat="45.9508509747684" lon="8.830754002556205">
        <ele>495.69999999999999</ele>
        <time>2012-12-21T14:08:06Z</time>
      </trkpt>
      <trkpt lat="45.950877964496613" lon="8.830789960920811">
        <ele>494.74000000000001</ele>
        <time>2012-12-21T14:08:10Z</time>
      </trkpt>
      <trkpt lat="45.950953988358378" lon="8.830942008644342">
        <ele>493.76999999999998</ele>
        <time>2012-12-21T14:08:20Z</time>
      </trkpt>
      <trkpt lat="45.951015008613467" lon="8.831094978377223">
        <ele>492.81</ele>
        <time>2012-12-21T14:08:28Z</time>
      </trkpt>
      <trkpt lat="45.95104199834168" lon="8.831214001402259">
        <ele>492.32999999999998</ele>
        <time>2012-12-21T14:08:39Z</time>
      </trkpt>
      <trkpt lat="45.951077034696937" lon="8.831210983917117">
        <ele>489.44999999999999</ele>
        <time>2012-12-21T14:08:50Z</time>
      </trkpt>
      <trkpt lat="45.951098995283246" lon="8.831192962825298">
        <ele>488.49000000000001</ele>
        <time>2012-12-21T14:08:53Z</time>
      </trkpt>
      <trkpt lat="45.951336035504937" lon="8.831230010837317">
        <ele>486.07999999999998</ele>
        <time>2012-12-21T14:09:04Z</time>
      </trkpt>
      <trkpt lat="45.95134399831295" lon="8.831303017213941">
        <ele>485.12</ele>
        <time>2012-12-21T14:09:08Z</time>
      </trkpt>
      <trkpt lat="45.951339974999428" lon="8.831348028033972">
        <ele>485.12</ele>
        <time>2012-12-21T14:09:10Z</time>
      </trkpt>
      <trkpt lat="45.951369982212782" lon="8.831488005816937">
        <ele>483.68000000000001</ele>
        <time>2012-12-21T14:09:19Z</time>
      </trkpt>
      <trkpt lat="45.951396971940994" lon="8.831508038565517">
        <ele>483.19999999999999</ele>
        <time>2012-12-21T14:09:22Z</time>
      </trkpt>
      <trkpt lat="45.951396971940994" lon="8.831584984436631">
        <ele>483.19999999999999</ele>
        <time>2012-12-21T14:09:25Z</time>
      </trkpt>
      <trkpt lat="45.951275015249848" lon="8.831785982474685">
        <ele>481.75999999999999</ele>
        <time>2012-12-21T14:09:34Z</time>
      </trkpt>
      <trkpt lat="45.951224975287914" lon="8.831828981637955">
        <ele>481.27999999999997</ele>
        <time>2012-12-21T14:09:38Z</time>
      </trkpt>
      <trkpt lat="45.951103018596768" lon="8.832086976617575">
        <ele>479.83999999999997</ele>
        <time>2012-12-21T14:09:53Z</time>
      </trkpt>
      <trkpt lat="45.950989024713635" lon="8.832347989082336">
        <ele>479.35000000000002</ele>
        <time>2012-12-21T14:10:05Z</time>
      </trkpt>
      <trkpt lat="45.950908977538347" lon="8.832560973241925">
        <ele>478.38999999999999</ele>
        <time>2012-12-21T14:10:18Z</time>
      </trkpt>
      <trkpt lat="45.950881987810135" lon="8.832613024860621">
        <ele>478.38999999999999</ele>
        <time>2012-12-21T14:10:21Z</time>
      </trkpt>
      <trkpt lat="45.950782997533679" lon="8.832831960171461">
        <ele>477.91000000000003</ele>
        <time>2012-12-21T14:10:34Z</time>
      </trkpt>
      <trkpt lat="45.95076397061348" lon="8.832857022061944">
        <ele>477.43000000000001</ele>
        <time>2012-12-21T14:10:36Z</time>
      </trkpt>
      <trkpt lat="45.950703034177423" lon="8.832882000133395">
        <ele>476.94999999999999</ele>
        <time>2012-12-21T14:10:43Z</time>
      </trkpt>
      <trkpt lat="45.950652994215488" lon="8.832922987639904">
        <ele>476.94999999999999</ele>
        <time>2012-12-21T14:10:48Z</time>
      </trkpt>
      <trkpt lat="45.950531037524343" lon="8.833153992891312">
        <ele>476.47000000000003</ele>
        <time>2012-12-21T14:10:58Z</time>
      </trkpt>
      <trkpt lat="45.950500024482608" lon="8.833230016753078">
        <ele>475.99000000000001</ele>
        <time>2012-12-21T14:11:03Z</time>
      </trkpt>
    </trkseg>
  </trk>

</gpx>